<?xml version="1.0" encoding="UTF-8" standalone="no" ?>
<gpx xmlns="http://www.topografix.com/GPX/1/1" xmlns:xsi="http://www.w3.org/2001/XMLSchema-instance" xsi:schemaLocation="http://www.topografix.com/GPX/1/1 http://www.topografix.com/GPX/1/1/gpx.xsd" version="1.1" creator="VisuGPX - https://www.visugpx.com">
  <metadata>
    <name>Sainté - Lyon 2011 - Soucieu - Lyon</name>
    <desc><![CDATA[4ème relais Sainté Lyon 2001
Dossard 4157 - BONNIER TEAM]]></desc>
  </metadata>
  <trk>
    <name><![CDATA[Sainté Lyon 2011 - Soucieu - Lyon - Joachim]]></name>
    <trkseg>
      <trkpt lat="45.67752" lon="4.69564">
        <ele>369.28369140625</ele>
        <time>2011-12-04T03:07:47Z</time>
      </trkpt>
      <trkpt lat="45.67752" lon="4.69565">
        <ele>369.28369140625</ele>
        <time>2011-12-04T03:07:48Z</time>
      </trkpt>
      <trkpt lat="45.67751" lon="4.69567">
        <ele>368.80297851562</ele>
        <time>2011-12-04T03:07:49Z</time>
      </trkpt>
      <trkpt lat="45.67743" lon="4.6958">
        <ele>369.28369140625</ele>
        <time>2011-12-04T03:07:53Z</time>
      </trkpt>
      <trkpt lat="45.67738" lon="4.69584">
        <ele>368.80297851562</ele>
        <time>2011-12-04T03:07:55Z</time>
      </trkpt>
      <trkpt lat="45.67739" lon="4.69598">
        <ele>368.322265625</ele>
        <time>2011-12-04T03:07:59Z</time>
      </trkpt>
      <trkpt lat="45.67752" lon="4.69617">
        <ele>367.36096191406</ele>
        <time>2011-12-04T03:08:04Z</time>
      </trkpt>
      <trkpt lat="45.67754" lon="4.6962">
        <ele>367.36096191406</ele>
        <time>2011-12-04T03:08:05Z</time>
      </trkpt>
      <trkpt lat="45.67755" lon="4.69632">
        <ele>367.36096191406</ele>
        <time>2011-12-04T03:08:08Z</time>
      </trkpt>
      <trkpt lat="45.67765" lon="4.69632">
        <ele>364.95764160156</ele>
        <time>2011-12-04T03:08:13Z</time>
      </trkpt>
      <trkpt lat="45.67772" lon="4.69625">
        <ele>364.47692871094</ele>
        <time>2011-12-04T03:08:15Z</time>
      </trkpt>
      <trkpt lat="45.67788" lon="4.69607">
        <ele>363.51574707031</ele>
        <time>2011-12-04T03:08:21Z</time>
      </trkpt>
      <trkpt lat="45.67794" lon="4.696">
        <ele>363.99633789062</ele>
        <time>2011-12-04T03:08:24Z</time>
      </trkpt>
      <trkpt lat="45.67806" lon="4.69601">
        <ele>364.47692871094</ele>
        <time>2011-12-04T03:08:28Z</time>
      </trkpt>
      <trkpt lat="45.67814" lon="4.6962">
        <ele>364.47692871094</ele>
        <time>2011-12-04T03:08:32Z</time>
      </trkpt>
      <trkpt lat="45.67822" lon="4.69641">
        <ele>364.47692871094</ele>
        <time>2011-12-04T03:08:36Z</time>
      </trkpt>
      <trkpt lat="45.67824" lon="4.69647">
        <ele>364.47692871094</ele>
        <time>2011-12-04T03:08:37Z</time>
      </trkpt>
      <trkpt lat="45.67829" lon="4.69662">
        <ele>363.99633789062</ele>
        <time>2011-12-04T03:08:40Z</time>
      </trkpt>
      <trkpt lat="45.67834" lon="4.69687">
        <ele>363.03503417969</ele>
        <time>2011-12-04T03:08:45Z</time>
      </trkpt>
      <trkpt lat="45.67838" lon="4.69722">
        <ele>362.07373046875</ele>
        <time>2011-12-04T03:08:52Z</time>
      </trkpt>
      <trkpt lat="45.67838" lon="4.69746">
        <ele>361.11242675781</ele>
        <time>2011-12-04T03:08:57Z</time>
      </trkpt>
      <trkpt lat="45.67839" lon="4.69777">
        <ele>361.11242675781</ele>
        <time>2011-12-04T03:09:03Z</time>
      </trkpt>
      <trkpt lat="45.67838" lon="4.69807">
        <ele>360.63171386719</ele>
        <time>2011-12-04T03:09:09Z</time>
      </trkpt>
      <trkpt lat="45.67839" lon="4.69833">
        <ele>360.63171386719</ele>
        <time>2011-12-04T03:09:14Z</time>
      </trkpt>
      <trkpt lat="45.6784" lon="4.69863">
        <ele>359.67041015625</ele>
        <time>2011-12-04T03:09:20Z</time>
      </trkpt>
      <trkpt lat="45.67842" lon="4.69892">
        <ele>359.18969726562</ele>
        <time>2011-12-04T03:09:26Z</time>
      </trkpt>
      <trkpt lat="45.67847" lon="4.69912">
        <ele>358.708984375</ele>
        <time>2011-12-04T03:09:30Z</time>
      </trkpt>
      <trkpt lat="45.67852" lon="4.69935">
        <ele>358.708984375</ele>
        <time>2011-12-04T03:09:35Z</time>
      </trkpt>
      <trkpt lat="45.67857" lon="4.69958">
        <ele>357.74780273438</ele>
        <time>2011-12-04T03:09:40Z</time>
      </trkpt>
      <trkpt lat="45.67866" lon="4.69985">
        <ele>357.74780273438</ele>
        <time>2011-12-04T03:09:46Z</time>
      </trkpt>
      <trkpt lat="45.6787" lon="4.70005">
        <ele>357.74780273438</ele>
        <time>2011-12-04T03:09:50Z</time>
      </trkpt>
      <trkpt lat="45.67885" lon="4.70016">
        <ele>357.74780273438</ele>
        <time>2011-12-04T03:09:55Z</time>
      </trkpt>
      <trkpt lat="45.67898" lon="4.70018">
        <ele>357.74780273438</ele>
        <time>2011-12-04T03:09:59Z</time>
      </trkpt>
      <trkpt lat="45.67901" lon="4.70019">
        <ele>357.74780273438</ele>
        <time>2011-12-04T03:10:00Z</time>
      </trkpt>
      <trkpt lat="45.6792" lon="4.70025">
        <ele>358.22839355469</ele>
        <time>2011-12-04T03:10:06Z</time>
      </trkpt>
      <trkpt lat="45.67936" lon="4.70028">
        <ele>358.22839355469</ele>
        <time>2011-12-04T03:10:12Z</time>
      </trkpt>
      <trkpt lat="45.67949" lon="4.70031">
        <ele>358.708984375</ele>
        <time>2011-12-04T03:10:16Z</time>
      </trkpt>
      <trkpt lat="45.67964" lon="4.70029">
        <ele>358.22839355469</ele>
        <time>2011-12-04T03:10:21Z</time>
      </trkpt>
      <trkpt lat="45.67971" lon="4.70009">
        <ele>358.708984375</ele>
        <time>2011-12-04T03:10:26Z</time>
      </trkpt>
      <trkpt lat="45.67972" lon="4.70005">
        <ele>358.708984375</ele>
        <time>2011-12-04T03:10:27Z</time>
      </trkpt>
      <trkpt lat="45.67979" lon="4.69969">
        <ele>360.15112304688</ele>
        <time>2011-12-04T03:10:35Z</time>
      </trkpt>
      <trkpt lat="45.67983" lon="4.69948">
        <ele>361.11242675781</ele>
        <time>2011-12-04T03:10:40Z</time>
      </trkpt>
      <trkpt lat="45.67984" lon="4.69939">
        <ele>361.59313964844</ele>
        <time>2011-12-04T03:10:42Z</time>
      </trkpt>
      <trkpt lat="45.67989" lon="4.69922">
        <ele>363.51574707031</ele>
        <time>2011-12-04T03:10:46Z</time>
      </trkpt>
      <trkpt lat="45.67991" lon="4.69914">
        <ele>363.51574707031</ele>
        <time>2011-12-04T03:10:48Z</time>
      </trkpt>
      <trkpt lat="45.67998" lon="4.69893">
        <ele>364.95764160156</ele>
        <time>2011-12-04T03:10:53Z</time>
      </trkpt>
      <trkpt lat="45.68001" lon="4.69884">
        <ele>364.95764160156</ele>
        <time>2011-12-04T03:10:55Z</time>
      </trkpt>
      <trkpt lat="45.68007" lon="4.69862">
        <ele>365.9189453125</ele>
        <time>2011-12-04T03:11:00Z</time>
      </trkpt>
      <trkpt lat="45.68013" lon="4.69845">
        <ele>365.9189453125</ele>
        <time>2011-12-04T03:11:04Z</time>
      </trkpt>
      <trkpt lat="45.68023" lon="4.69825">
        <ele>365.43835449219</ele>
        <time>2011-12-04T03:11:09Z</time>
      </trkpt>
      <trkpt lat="45.68031" lon="4.6981">
        <ele>365.43835449219</ele>
        <time>2011-12-04T03:11:13Z</time>
      </trkpt>
      <trkpt lat="45.68043" lon="4.69787">
        <ele>365.43835449219</ele>
        <time>2011-12-04T03:11:19Z</time>
      </trkpt>
      <trkpt lat="45.68053" lon="4.69769">
        <ele>364.95764160156</ele>
        <time>2011-12-04T03:11:24Z</time>
      </trkpt>
      <trkpt lat="45.68062" lon="4.69756">
        <ele>364.47692871094</ele>
        <time>2011-12-04T03:11:28Z</time>
      </trkpt>
      <trkpt lat="45.68069" lon="4.69741">
        <ele>364.47692871094</ele>
        <time>2011-12-04T03:11:32Z</time>
      </trkpt>
      <trkpt lat="45.68079" lon="4.69725">
        <ele>364.95764160156</ele>
        <time>2011-12-04T03:11:37Z</time>
      </trkpt>
      <trkpt lat="45.68095" lon="4.6973">
        <ele>364.95764160156</ele>
        <time>2011-12-04T03:11:42Z</time>
      </trkpt>
      <trkpt lat="45.68111" lon="4.69739">
        <ele>365.43835449219</ele>
        <time>2011-12-04T03:11:47Z</time>
      </trkpt>
      <trkpt lat="45.68127" lon="4.6975">
        <ele>364.95764160156</ele>
        <time>2011-12-04T03:11:52Z</time>
      </trkpt>
      <trkpt lat="45.68139" lon="4.69758">
        <ele>364.47692871094</ele>
        <time>2011-12-04T03:11:56Z</time>
      </trkpt>
      <trkpt lat="45.68151" lon="4.69768">
        <ele>363.99633789062</ele>
        <time>2011-12-04T03:12:00Z</time>
      </trkpt>
      <trkpt lat="45.68167" lon="4.69781">
        <ele>363.99633789062</ele>
        <time>2011-12-04T03:12:05Z</time>
      </trkpt>
      <trkpt lat="45.68182" lon="4.69791">
        <ele>363.51574707031</ele>
        <time>2011-12-04T03:12:10Z</time>
      </trkpt>
      <trkpt lat="45.68198" lon="4.69802">
        <ele>363.51574707031</ele>
        <time>2011-12-04T03:12:15Z</time>
      </trkpt>
      <trkpt lat="45.68213" lon="4.69815">
        <ele>363.03503417969</ele>
        <time>2011-12-04T03:12:20Z</time>
      </trkpt>
      <trkpt lat="45.68229" lon="4.69827">
        <ele>361.59313964844</ele>
        <time>2011-12-04T03:12:25Z</time>
      </trkpt>
      <trkpt lat="45.68247" lon="4.69844">
        <ele>360.15112304688</ele>
        <time>2011-12-04T03:12:31Z</time>
      </trkpt>
      <trkpt lat="45.68261" lon="4.69861">
        <ele>360.15112304688</ele>
        <time>2011-12-04T03:12:36Z</time>
      </trkpt>
      <trkpt lat="45.68278" lon="4.69876">
        <ele>358.708984375</ele>
        <time>2011-12-04T03:12:42Z</time>
      </trkpt>
      <trkpt lat="45.6829" lon="4.69891">
        <ele>357.74780273438</ele>
        <time>2011-12-04T03:12:47Z</time>
      </trkpt>
      <trkpt lat="45.68301" lon="4.69907">
        <ele>356.30578613281</ele>
        <time>2011-12-04T03:12:52Z</time>
      </trkpt>
      <trkpt lat="45.68311" lon="4.69922">
        <ele>356.30578613281</ele>
        <time>2011-12-04T03:12:56Z</time>
      </trkpt>
      <trkpt lat="45.68325" lon="4.69942">
        <ele>354.86376953125</ele>
        <time>2011-12-04T03:13:02Z</time>
      </trkpt>
      <trkpt lat="45.68331" lon="4.69956">
        <ele>354.86376953125</ele>
        <time>2011-12-04T03:13:06Z</time>
      </trkpt>
      <trkpt lat="45.6834" lon="4.69968">
        <ele>353.90258789062</ele>
        <time>2011-12-04T03:13:10Z</time>
      </trkpt>
      <trkpt lat="45.68348" lon="4.69983">
        <ele>354.38317871094</ele>
        <time>2011-12-04T03:13:14Z</time>
      </trkpt>
      <trkpt lat="45.68349" lon="4.69988">
        <ele>354.38317871094</ele>
        <time>2011-12-04T03:13:15Z</time>
      </trkpt>
      <trkpt lat="45.68346" lon="4.7001">
        <ele>354.86376953125</ele>
        <time>2011-12-04T03:13:20Z</time>
      </trkpt>
      <trkpt lat="45.68341" lon="4.70034">
        <ele>358.708984375</ele>
        <time>2011-12-04T03:13:25Z</time>
      </trkpt>
      <trkpt lat="45.68336" lon="4.70052">
        <ele>359.18969726562</ele>
        <time>2011-12-04T03:13:29Z</time>
      </trkpt>
      <trkpt lat="45.68331" lon="4.70069">
        <ele>359.18969726562</ele>
        <time>2011-12-04T03:13:33Z</time>
      </trkpt>
      <trkpt lat="45.68319" lon="4.70099">
        <ele>357.26708984375</ele>
        <time>2011-12-04T03:13:40Z</time>
      </trkpt>
      <trkpt lat="45.68312" lon="4.70115">
        <ele>357.26708984375</ele>
        <time>2011-12-04T03:13:44Z</time>
      </trkpt>
      <trkpt lat="45.68302" lon="4.7014">
        <ele>356.78637695312</ele>
        <time>2011-12-04T03:13:50Z</time>
      </trkpt>
      <trkpt lat="45.68296" lon="4.70158">
        <ele>356.30578613281</ele>
        <time>2011-12-04T03:13:54Z</time>
      </trkpt>
      <trkpt lat="45.68287" lon="4.70176">
        <ele>356.30578613281</ele>
        <time>2011-12-04T03:13:59Z</time>
      </trkpt>
      <trkpt lat="45.68284" lon="4.70208">
        <ele>354.86376953125</ele>
        <time>2011-12-04T03:14:06Z</time>
      </trkpt>
      <trkpt lat="45.68283" lon="4.7023">
        <ele>353.90258789062</ele>
        <time>2011-12-04T03:14:11Z</time>
      </trkpt>
      <trkpt lat="45.6828" lon="4.70248">
        <ele>351.97985839844</ele>
        <time>2011-12-04T03:14:15Z</time>
      </trkpt>
      <trkpt lat="45.68272" lon="4.70269">
        <ele>351.49914550781</ele>
        <time>2011-12-04T03:14:20Z</time>
      </trkpt>
      <trkpt lat="45.68265" lon="4.70293">
        <ele>350.53784179688</ele>
        <time>2011-12-04T03:14:25Z</time>
      </trkpt>
      <trkpt lat="45.68258" lon="4.70309">
        <ele>349.57653808594</ele>
        <time>2011-12-04T03:14:29Z</time>
      </trkpt>
      <trkpt lat="45.68244" lon="4.70317">
        <ele>347.17321777344</ele>
        <time>2011-12-04T03:14:34Z</time>
      </trkpt>
      <trkpt lat="45.68237" lon="4.70332">
        <ele>346.21203613281</ele>
        <time>2011-12-04T03:14:38Z</time>
      </trkpt>
      <trkpt lat="45.68238" lon="4.70349">
        <ele>345.73132324219</ele>
        <time>2011-12-04T03:14:42Z</time>
      </trkpt>
      <trkpt lat="45.68242" lon="4.70356">
        <ele>345.25061035156</ele>
        <time>2011-12-04T03:14:44Z</time>
      </trkpt>
      <trkpt lat="45.68255" lon="4.70375">
        <ele>343.80859375</ele>
        <time>2011-12-04T03:14:50Z</time>
      </trkpt>
      <trkpt lat="45.68265" lon="4.70387">
        <ele>344.77001953125</ele>
        <time>2011-12-04T03:14:54Z</time>
      </trkpt>
      <trkpt lat="45.68275" lon="4.70397">
        <ele>345.25061035156</ele>
        <time>2011-12-04T03:14:58Z</time>
      </trkpt>
      <trkpt lat="45.68289" lon="4.70413">
        <ele>345.25061035156</ele>
        <time>2011-12-04T03:15:04Z</time>
      </trkpt>
      <trkpt lat="45.683" lon="4.70428">
        <ele>345.73132324219</ele>
        <time>2011-12-04T03:15:09Z</time>
      </trkpt>
      <trkpt lat="45.68311" lon="4.70443">
        <ele>346.21203613281</ele>
        <time>2011-12-04T03:15:14Z</time>
      </trkpt>
      <trkpt lat="45.6832" lon="4.7046">
        <ele>347.17321777344</ele>
        <time>2011-12-04T03:15:19Z</time>
      </trkpt>
      <trkpt lat="45.6833" lon="4.70474">
        <ele>345.73132324219</ele>
        <time>2011-12-04T03:15:24Z</time>
      </trkpt>
      <trkpt lat="45.68341" lon="4.70492">
        <ele>344.77001953125</ele>
        <time>2011-12-04T03:15:29Z</time>
      </trkpt>
      <trkpt lat="45.68349" lon="4.70506">
        <ele>344.28942871094</ele>
        <time>2011-12-04T03:15:33Z</time>
      </trkpt>
      <trkpt lat="45.68354" lon="4.70512">
        <ele>344.28942871094</ele>
        <time>2011-12-04T03:15:35Z</time>
      </trkpt>
      <trkpt lat="45.68363" lon="4.70524">
        <ele>343.80859375</ele>
        <time>2011-12-04T03:15:39Z</time>
      </trkpt>
      <trkpt lat="45.68376" lon="4.70538">
        <ele>343.80859375</ele>
        <time>2011-12-04T03:15:44Z</time>
      </trkpt>
      <trkpt lat="45.6839" lon="4.70553">
        <ele>343.80859375</ele>
        <time>2011-12-04T03:15:49Z</time>
      </trkpt>
      <trkpt lat="45.684" lon="4.70567">
        <ele>343.32788085938</ele>
        <time>2011-12-04T03:15:53Z</time>
      </trkpt>
      <trkpt lat="45.68413" lon="4.70585">
        <ele>342.84729003906</ele>
        <time>2011-12-04T03:15:58Z</time>
      </trkpt>
      <trkpt lat="45.68425" lon="4.70603">
        <ele>343.32788085938</ele>
        <time>2011-12-04T03:16:03Z</time>
      </trkpt>
      <trkpt lat="45.68439" lon="4.70625">
        <ele>342.36669921875</ele>
        <time>2011-12-04T03:16:09Z</time>
      </trkpt>
      <trkpt lat="45.68453" lon="4.7064">
        <ele>340.44409179688</ele>
        <time>2011-12-04T03:16:14Z</time>
      </trkpt>
      <trkpt lat="45.68462" lon="4.70651">
        <ele>339.96337890625</ele>
        <time>2011-12-04T03:16:17Z</time>
      </trkpt>
      <trkpt lat="45.68471" lon="4.70668">
        <ele>338.521484375</ele>
        <time>2011-12-04T03:16:21Z</time>
      </trkpt>
      <trkpt lat="45.68478" lon="4.70689">
        <ele>336.59887695312</ele>
        <time>2011-12-04T03:16:25Z</time>
      </trkpt>
      <trkpt lat="45.6849" lon="4.70703">
        <ele>335.63732910156</ele>
        <time>2011-12-04T03:16:29Z</time>
      </trkpt>
      <trkpt lat="45.68506" lon="4.70723">
        <ele>335.15673828125</ele>
        <time>2011-12-04T03:16:35Z</time>
      </trkpt>
      <trkpt lat="45.6852" lon="4.7074">
        <ele>333.71472167969</ele>
        <time>2011-12-04T03:16:40Z</time>
      </trkpt>
      <trkpt lat="45.68533" lon="4.70757">
        <ele>332.27282714844</ele>
        <time>2011-12-04T03:16:45Z</time>
      </trkpt>
      <trkpt lat="45.68545" lon="4.70775">
        <ele>330.83093261719</ele>
        <time>2011-12-04T03:16:50Z</time>
      </trkpt>
      <trkpt lat="45.68566" lon="4.70802">
        <ele>329.38891601562</ele>
        <time>2011-12-04T03:16:58Z</time>
      </trkpt>
      <trkpt lat="45.68576" lon="4.70816">
        <ele>328.90832519531</ele>
        <time>2011-12-04T03:17:02Z</time>
      </trkpt>
      <trkpt lat="45.68591" lon="4.70834">
        <ele>327.94677734375</ele>
        <time>2011-12-04T03:17:08Z</time>
      </trkpt>
      <trkpt lat="45.68607" lon="4.70846">
        <ele>326.5048828125</ele>
        <time>2011-12-04T03:17:13Z</time>
      </trkpt>
      <trkpt lat="45.68626" lon="4.70867">
        <ele>325.06298828125</ele>
        <time>2011-12-04T03:17:20Z</time>
      </trkpt>
      <trkpt lat="45.68652" lon="4.70893">
        <ele>324.58227539062</ele>
        <time>2011-12-04T03:17:29Z</time>
      </trkpt>
      <trkpt lat="45.68666" lon="4.70905">
        <ele>323.14038085938</ele>
        <time>2011-12-04T03:17:34Z</time>
      </trkpt>
      <trkpt lat="45.6868" lon="4.70919">
        <ele>322.65966796875</ele>
        <time>2011-12-04T03:17:39Z</time>
      </trkpt>
      <trkpt lat="45.68691" lon="4.70928">
        <ele>322.65966796875</ele>
        <time>2011-12-04T03:17:43Z</time>
      </trkpt>
      <trkpt lat="45.68704" lon="4.70942">
        <ele>322.17895507812</ele>
        <time>2011-12-04T03:17:48Z</time>
      </trkpt>
      <trkpt lat="45.68712" lon="4.70962">
        <ele>321.69836425781</ele>
        <time>2011-12-04T03:17:53Z</time>
      </trkpt>
      <trkpt lat="45.68711" lon="4.70986">
        <ele>321.69836425781</ele>
        <time>2011-12-04T03:17:58Z</time>
      </trkpt>
      <trkpt lat="45.68713" lon="4.71006">
        <ele>321.2177734375</ele>
        <time>2011-12-04T03:18:02Z</time>
      </trkpt>
      <trkpt lat="45.68719" lon="4.71032">
        <ele>321.2177734375</ele>
        <time>2011-12-04T03:18:07Z</time>
      </trkpt>
      <trkpt lat="45.68729" lon="4.71061">
        <ele>321.69836425781</ele>
        <time>2011-12-04T03:18:13Z</time>
      </trkpt>
      <trkpt lat="45.68736" lon="4.71085">
        <ele>320.73706054688</ele>
        <time>2011-12-04T03:18:18Z</time>
      </trkpt>
      <trkpt lat="45.68742" lon="4.71107">
        <ele>319.29504394531</ele>
        <time>2011-12-04T03:18:23Z</time>
      </trkpt>
      <trkpt lat="45.68748" lon="4.71131">
        <ele>317.85302734375</ele>
        <time>2011-12-04T03:18:28Z</time>
      </trkpt>
      <trkpt lat="45.68756" lon="4.71158">
        <ele>318.33361816406</ele>
        <time>2011-12-04T03:18:33Z</time>
      </trkpt>
      <trkpt lat="45.68764" lon="4.71182">
        <ele>318.81433105469</ele>
        <time>2011-12-04T03:18:38Z</time>
      </trkpt>
      <trkpt lat="45.6877" lon="4.71204">
        <ele>317.85302734375</ele>
        <time>2011-12-04T03:18:43Z</time>
      </trkpt>
      <trkpt lat="45.68774" lon="4.71223">
        <ele>317.85302734375</ele>
        <time>2011-12-04T03:18:47Z</time>
      </trkpt>
      <trkpt lat="45.68779" lon="4.71246">
        <ele>316.41101074219</ele>
        <time>2011-12-04T03:18:52Z</time>
      </trkpt>
      <trkpt lat="45.68787" lon="4.71273">
        <ele>314.96911621094</ele>
        <time>2011-12-04T03:18:58Z</time>
      </trkpt>
      <trkpt lat="45.68796" lon="4.71293">
        <ele>313.52722167969</ele>
        <time>2011-12-04T03:19:03Z</time>
      </trkpt>
      <trkpt lat="45.68807" lon="4.71311">
        <ele>313.04650878906</ele>
        <time>2011-12-04T03:19:08Z</time>
      </trkpt>
      <trkpt lat="45.68818" lon="4.71324">
        <ele>312.56579589844</ele>
        <time>2011-12-04T03:19:12Z</time>
      </trkpt>
      <trkpt lat="45.68835" lon="4.71338">
        <ele>311.6044921875</ele>
        <time>2011-12-04T03:19:18Z</time>
      </trkpt>
      <trkpt lat="45.68853" lon="4.71352">
        <ele>310.64306640625</ele>
        <time>2011-12-04T03:19:24Z</time>
      </trkpt>
      <trkpt lat="45.68871" lon="4.71367">
        <ele>310.16247558594</ele>
        <time>2011-12-04T03:19:30Z</time>
      </trkpt>
      <trkpt lat="45.68882" lon="4.71376">
        <ele>310.16247558594</ele>
        <time>2011-12-04T03:19:34Z</time>
      </trkpt>
      <trkpt lat="45.689" lon="4.71392">
        <ele>309.201171875</ele>
        <time>2011-12-04T03:19:40Z</time>
      </trkpt>
      <trkpt lat="45.68914" lon="4.71404">
        <ele>308.23986816406</ele>
        <time>2011-12-04T03:19:45Z</time>
      </trkpt>
      <trkpt lat="45.68929" lon="4.71413">
        <ele>306.7978515625</ele>
        <time>2011-12-04T03:19:50Z</time>
      </trkpt>
      <trkpt lat="45.68945" lon="4.71424">
        <ele>304.87524414062</ele>
        <time>2011-12-04T03:19:55Z</time>
      </trkpt>
      <trkpt lat="45.68955" lon="4.71434">
        <ele>304.39465332031</ele>
        <time>2011-12-04T03:19:59Z</time>
      </trkpt>
      <trkpt lat="45.68968" lon="4.71448">
        <ele>303.91394042969</ele>
        <time>2011-12-04T03:20:04Z</time>
      </trkpt>
      <trkpt lat="45.68979" lon="4.71457">
        <ele>303.91394042969</ele>
        <time>2011-12-04T03:20:08Z</time>
      </trkpt>
      <trkpt lat="45.68991" lon="4.71465">
        <ele>304.87524414062</ele>
        <time>2011-12-04T03:20:12Z</time>
      </trkpt>
      <trkpt lat="45.69006" lon="4.71475">
        <ele>304.87524414062</ele>
        <time>2011-12-04T03:20:17Z</time>
      </trkpt>
      <trkpt lat="45.69021" lon="4.71486">
        <ele>306.7978515625</ele>
        <time>2011-12-04T03:20:22Z</time>
      </trkpt>
      <trkpt lat="45.69033" lon="4.71494">
        <ele>307.27856445312</ele>
        <time>2011-12-04T03:20:26Z</time>
      </trkpt>
      <trkpt lat="45.69048" lon="4.71504">
        <ele>308.23986816406</ele>
        <time>2011-12-04T03:20:31Z</time>
      </trkpt>
      <trkpt lat="45.69064" lon="4.71513">
        <ele>308.72045898438</ele>
        <time>2011-12-04T03:20:36Z</time>
      </trkpt>
      <trkpt lat="45.6907" lon="4.71515">
        <ele>308.72045898438</ele>
        <time>2011-12-04T03:20:38Z</time>
      </trkpt>
      <trkpt lat="45.69087" lon="4.71522">
        <ele>308.72045898438</ele>
        <time>2011-12-04T03:20:43Z</time>
      </trkpt>
      <trkpt lat="45.69103" lon="4.71529">
        <ele>308.23986816406</ele>
        <time>2011-12-04T03:20:48Z</time>
      </trkpt>
      <trkpt lat="45.69119" lon="4.71537">
        <ele>308.23986816406</ele>
        <time>2011-12-04T03:20:53Z</time>
      </trkpt>
      <trkpt lat="45.69139" lon="4.71547">
        <ele>309.68188476562</ele>
        <time>2011-12-04T03:20:59Z</time>
      </trkpt>
      <trkpt lat="45.69152" lon="4.7155">
        <ele>311.12377929688</ele>
        <time>2011-12-04T03:21:03Z</time>
      </trkpt>
      <trkpt lat="45.69168" lon="4.71554">
        <ele>311.6044921875</ele>
        <time>2011-12-04T03:21:08Z</time>
      </trkpt>
      <trkpt lat="45.69188" lon="4.71563">
        <ele>312.08520507812</ele>
        <time>2011-12-04T03:21:14Z</time>
      </trkpt>
      <trkpt lat="45.69206" lon="4.71578">
        <ele>310.64306640625</ele>
        <time>2011-12-04T03:21:20Z</time>
      </trkpt>
      <trkpt lat="45.6922" lon="4.71594">
        <ele>310.16247558594</ele>
        <time>2011-12-04T03:21:25Z</time>
      </trkpt>
      <trkpt lat="45.69228" lon="4.71609">
        <ele>309.68188476562</ele>
        <time>2011-12-04T03:21:29Z</time>
      </trkpt>
      <trkpt lat="45.69237" lon="4.7163">
        <ele>308.23986816406</ele>
        <time>2011-12-04T03:21:34Z</time>
      </trkpt>
      <trkpt lat="45.69243" lon="4.71646">
        <ele>307.75927734375</ele>
        <time>2011-12-04T03:21:37Z</time>
      </trkpt>
      <trkpt lat="45.69253" lon="4.71668">
        <ele>307.75927734375</ele>
        <time>2011-12-04T03:21:42Z</time>
      </trkpt>
      <trkpt lat="45.69263" lon="4.71682">
        <ele>307.27856445312</ele>
        <time>2011-12-04T03:21:46Z</time>
      </trkpt>
      <trkpt lat="45.6927" lon="4.71691">
        <ele>306.7978515625</ele>
        <time>2011-12-04T03:21:49Z</time>
      </trkpt>
      <trkpt lat="45.69281" lon="4.71709">
        <ele>305.83666992188</ele>
        <time>2011-12-04T03:21:54Z</time>
      </trkpt>
      <trkpt lat="45.69293" lon="4.71726">
        <ele>304.39465332031</ele>
        <time>2011-12-04T03:21:59Z</time>
      </trkpt>
      <trkpt lat="45.69305" lon="4.71744">
        <ele>303.43322753906</ele>
        <time>2011-12-04T03:22:04Z</time>
      </trkpt>
      <trkpt lat="45.69315" lon="4.71757">
        <ele>301.51062011719</ele>
        <time>2011-12-04T03:22:08Z</time>
      </trkpt>
      <trkpt lat="45.69327" lon="4.71775">
        <ele>299.10729980469</ele>
        <time>2011-12-04T03:22:13Z</time>
      </trkpt>
      <trkpt lat="45.6934" lon="4.71794">
        <ele>296.7041015625</ele>
        <time>2011-12-04T03:22:18Z</time>
      </trkpt>
      <trkpt lat="45.69352" lon="4.71813">
        <ele>295.74267578125</ele>
        <time>2011-12-04T03:22:23Z</time>
      </trkpt>
      <trkpt lat="45.69363" lon="4.7183">
        <ele>294.30078125</ele>
        <time>2011-12-04T03:22:28Z</time>
      </trkpt>
      <trkpt lat="45.69376" lon="4.71848">
        <ele>294.78137207031</ele>
        <time>2011-12-04T03:22:33Z</time>
      </trkpt>
      <trkpt lat="45.69389" lon="4.71866">
        <ele>294.30078125</ele>
        <time>2011-12-04T03:22:38Z</time>
      </trkpt>
      <trkpt lat="45.694" lon="4.71879">
        <ele>293.82006835938</ele>
        <time>2011-12-04T03:22:42Z</time>
      </trkpt>
      <trkpt lat="45.69414" lon="4.71902">
        <ele>293.33935546875</ele>
        <time>2011-12-04T03:22:48Z</time>
      </trkpt>
      <trkpt lat="45.69425" lon="4.71921">
        <ele>293.33935546875</ele>
        <time>2011-12-04T03:22:53Z</time>
      </trkpt>
      <trkpt lat="45.69435" lon="4.71938">
        <ele>292.85876464844</ele>
        <time>2011-12-04T03:22:57Z</time>
      </trkpt>
      <trkpt lat="45.69441" lon="4.71956">
        <ele>292.85876464844</ele>
        <time>2011-12-04T03:23:01Z</time>
      </trkpt>
      <trkpt lat="45.69445" lon="4.7197">
        <ele>293.82006835938</ele>
        <time>2011-12-04T03:23:04Z</time>
      </trkpt>
      <trkpt lat="45.69445" lon="4.71975">
        <ele>294.30078125</ele>
        <time>2011-12-04T03:23:05Z</time>
      </trkpt>
      <trkpt lat="45.69444" lon="4.71993">
        <ele>295.74267578125</ele>
        <time>2011-12-04T03:23:09Z</time>
      </trkpt>
      <trkpt lat="45.69443" lon="4.72012">
        <ele>297.66540527344</ele>
        <time>2011-12-04T03:23:13Z</time>
      </trkpt>
      <trkpt lat="45.69442" lon="4.7203">
        <ele>297.66540527344</ele>
        <time>2011-12-04T03:23:17Z</time>
      </trkpt>
      <trkpt lat="45.69442" lon="4.72044">
        <ele>297.18469238281</ele>
        <time>2011-12-04T03:23:20Z</time>
      </trkpt>
      <trkpt lat="45.69439" lon="4.72064">
        <ele>295.26196289062</ele>
        <time>2011-12-04T03:23:26Z</time>
      </trkpt>
      <trkpt lat="45.69436" lon="4.72087">
        <ele>291.41674804688</ele>
        <time>2011-12-04T03:23:32Z</time>
      </trkpt>
      <trkpt lat="45.69435" lon="4.72095">
        <ele>289.97485351562</ele>
        <time>2011-12-04T03:23:34Z</time>
      </trkpt>
      <trkpt lat="45.69436" lon="4.72112">
        <ele>287.0908203125</ele>
        <time>2011-12-04T03:23:39Z</time>
      </trkpt>
      <trkpt lat="45.69438" lon="4.72126">
        <ele>283.24560546875</ele>
        <time>2011-12-04T03:23:43Z</time>
      </trkpt>
      <trkpt lat="45.69436" lon="4.72152">
        <ele>278.43896484375</ele>
        <time>2011-12-04T03:23:49Z</time>
      </trkpt>
      <trkpt lat="45.69438" lon="4.72166">
        <ele>275.55505371094</ele>
        <time>2011-12-04T03:23:53Z</time>
      </trkpt>
      <trkpt lat="45.69439" lon="4.72182">
        <ele>271.22912597656</ele>
        <time>2011-12-04T03:23:58Z</time>
      </trkpt>
      <trkpt lat="45.69441" lon="4.72197">
        <ele>268.34509277344</ele>
        <time>2011-12-04T03:24:02Z</time>
      </trkpt>
      <trkpt lat="45.69442" lon="4.72226">
        <ele>264.01928710938</ele>
        <time>2011-12-04T03:24:08Z</time>
      </trkpt>
      <trkpt lat="45.69443" lon="4.7225">
        <ele>261.61596679688</ele>
        <time>2011-12-04T03:24:13Z</time>
      </trkpt>
      <trkpt lat="45.69442" lon="4.72265">
        <ele>260.17395019531</ele>
        <time>2011-12-04T03:24:17Z</time>
      </trkpt>
      <trkpt lat="45.69442" lon="4.72278">
        <ele>258.73193359375</ele>
        <time>2011-12-04T03:24:21Z</time>
      </trkpt>
      <trkpt lat="45.69444" lon="4.72295">
        <ele>257.77075195312</ele>
        <time>2011-12-04T03:24:26Z</time>
      </trkpt>
      <trkpt lat="45.69441" lon="4.72309">
        <ele>256.80932617188</ele>
        <time>2011-12-04T03:24:30Z</time>
      </trkpt>
      <trkpt lat="45.69438" lon="4.7232">
        <ele>255.84802246094</ele>
        <time>2011-12-04T03:24:33Z</time>
      </trkpt>
      <trkpt lat="45.69434" lon="4.7233">
        <ele>255.36730957031</ele>
        <time>2011-12-04T03:24:37Z</time>
      </trkpt>
      <trkpt lat="45.69432" lon="4.72336">
        <ele>255.36730957031</ele>
        <time>2011-12-04T03:24:39Z</time>
      </trkpt>
      <trkpt lat="45.69432" lon="4.7235">
        <ele>253.92541503906</ele>
        <time>2011-12-04T03:24:44Z</time>
      </trkpt>
      <trkpt lat="45.69437" lon="4.72365">
        <ele>252.00280761719</ele>
        <time>2011-12-04T03:24:48Z</time>
      </trkpt>
      <trkpt lat="45.69448" lon="4.72381">
        <ele>248.15759277344</ele>
        <time>2011-12-04T03:24:53Z</time>
      </trkpt>
      <trkpt lat="45.69462" lon="4.72396">
        <ele>245.2734375</ele>
        <time>2011-12-04T03:24:58Z</time>
      </trkpt>
      <trkpt lat="45.69471" lon="4.72408">
        <ele>243.35083007812</ele>
        <time>2011-12-04T03:25:02Z</time>
      </trkpt>
      <trkpt lat="45.69471" lon="4.72424">
        <ele>239.98620605469</ele>
        <time>2011-12-04T03:25:06Z</time>
      </trkpt>
      <trkpt lat="45.69462" lon="4.72423">
        <ele>238.54431152344</ele>
        <time>2011-12-04T03:25:10Z</time>
      </trkpt>
      <trkpt lat="45.69452" lon="4.72416">
        <ele>238.06359863281</ele>
        <time>2011-12-04T03:25:14Z</time>
      </trkpt>
      <trkpt lat="45.69436" lon="4.72408">
        <ele>238.54431152344</ele>
        <time>2011-12-04T03:25:19Z</time>
      </trkpt>
      <trkpt lat="45.69423" lon="4.72401">
        <ele>240.46704101562</ele>
        <time>2011-12-04T03:25:23Z</time>
      </trkpt>
      <trkpt lat="45.69411" lon="4.72399">
        <ele>242.87023925781</ele>
        <time>2011-12-04T03:25:27Z</time>
      </trkpt>
      <trkpt lat="45.69404" lon="4.72409">
        <ele>242.3896484375</ele>
        <time>2011-12-04T03:25:31Z</time>
      </trkpt>
      <trkpt lat="45.69403" lon="4.72412">
        <ele>241.42822265625</ele>
        <time>2011-12-04T03:25:32Z</time>
      </trkpt>
      <trkpt lat="45.69405" lon="4.72435">
        <ele>240.94763183594</ele>
        <time>2011-12-04T03:25:38Z</time>
      </trkpt>
      <trkpt lat="45.69409" lon="4.72458">
        <ele>241.90893554688</ele>
        <time>2011-12-04T03:25:44Z</time>
      </trkpt>
      <trkpt lat="45.69409" lon="4.72476">
        <ele>241.90893554688</ele>
        <time>2011-12-04T03:25:48Z</time>
      </trkpt>
      <trkpt lat="45.69414" lon="4.72495">
        <ele>240.46704101562</ele>
        <time>2011-12-04T03:25:52Z</time>
      </trkpt>
      <trkpt lat="45.69415" lon="4.72516">
        <ele>236.62170410156</ele>
        <time>2011-12-04T03:25:56Z</time>
      </trkpt>
      <trkpt lat="45.69415" lon="4.72539">
        <ele>233.25708007812</ele>
        <time>2011-12-04T03:26:01Z</time>
      </trkpt>
      <trkpt lat="45.69411" lon="4.72562">
        <ele>234.69909667969</ele>
        <time>2011-12-04T03:26:06Z</time>
      </trkpt>
      <trkpt lat="45.69402" lon="4.7259">
        <ele>239.98620605469</ele>
        <time>2011-12-04T03:26:12Z</time>
      </trkpt>
      <trkpt lat="45.694" lon="4.72593">
        <ele>240.46704101562</ele>
        <time>2011-12-04T03:26:13Z</time>
      </trkpt>
      <trkpt lat="45.694" lon="4.72598">
        <ele>239.50549316406</ele>
        <time>2011-12-04T03:26:16Z</time>
      </trkpt>
      <trkpt lat="45.69407" lon="4.72609">
        <ele>245.2734375</ele>
        <time>2011-12-04T03:26:22Z</time>
      </trkpt>
      <trkpt lat="45.69423" lon="4.72605">
        <ele>245.2734375</ele>
        <time>2011-12-04T03:26:28Z</time>
      </trkpt>
      <trkpt lat="45.6943" lon="4.72608">
        <ele>245.2734375</ele>
        <time>2011-12-04T03:26:32Z</time>
      </trkpt>
      <trkpt lat="45.69436" lon="4.72617">
        <ele>246.71545410156</ele>
        <time>2011-12-04T03:26:36Z</time>
      </trkpt>
      <trkpt lat="45.69438" lon="4.72632">
        <ele>247.19604492188</ele>
        <time>2011-12-04T03:26:40Z</time>
      </trkpt>
      <trkpt lat="45.69435" lon="4.72657">
        <ele>246.23486328125</ele>
        <time>2011-12-04T03:26:46Z</time>
      </trkpt>
      <trkpt lat="45.69434" lon="4.72671">
        <ele>246.23486328125</ele>
        <time>2011-12-04T03:26:50Z</time>
      </trkpt>
      <trkpt lat="45.69432" lon="4.72685">
        <ele>245.75415039062</ele>
        <time>2011-12-04T03:26:54Z</time>
      </trkpt>
      <trkpt lat="45.69423" lon="4.72702">
        <ele>248.63818359375</ele>
        <time>2011-12-04T03:27:01Z</time>
      </trkpt>
      <trkpt lat="45.69418" lon="4.72715">
        <ele>251.04138183594</ele>
        <time>2011-12-04T03:27:05Z</time>
      </trkpt>
      <trkpt lat="45.69416" lon="4.72732">
        <ele>253.44470214844</ele>
        <time>2011-12-04T03:27:10Z</time>
      </trkpt>
      <trkpt lat="45.69414" lon="4.7274">
        <ele>254.88659667969</ele>
        <time>2011-12-04T03:27:12Z</time>
      </trkpt>
      <trkpt lat="45.69415" lon="4.72761">
        <ele>259.21264648438</ele>
        <time>2011-12-04T03:27:18Z</time>
      </trkpt>
      <trkpt lat="45.69413" lon="4.72772">
        <ele>260.17395019531</ele>
        <time>2011-12-04T03:27:23Z</time>
      </trkpt>
      <trkpt lat="45.69408" lon="4.72782">
        <ele>264.49987792969</ele>
        <time>2011-12-04T03:27:27Z</time>
      </trkpt>
      <trkpt lat="45.69407" lon="4.72793">
        <ele>267.38391113281</ele>
        <time>2011-12-04T03:27:31Z</time>
      </trkpt>
      <trkpt lat="45.69405" lon="4.728">
        <ele>268.82580566406</ele>
        <time>2011-12-04T03:27:34Z</time>
      </trkpt>
      <trkpt lat="45.69405" lon="4.72818">
        <ele>272.67114257812</ele>
        <time>2011-12-04T03:27:40Z</time>
      </trkpt>
      <trkpt lat="45.69398" lon="4.72834">
        <ele>275.55505371094</ele>
        <time>2011-12-04T03:27:46Z</time>
      </trkpt>
      <trkpt lat="45.69397" lon="4.72835">
        <ele>276.9970703125</ele>
        <time>2011-12-04T03:27:47Z</time>
      </trkpt>
      <trkpt lat="45.6939" lon="4.72837">
        <ele>281.32299804688</ele>
        <time>2011-12-04T03:27:51Z</time>
      </trkpt>
      <trkpt lat="45.6938" lon="4.72841">
        <ele>285.64880371094</ele>
        <time>2011-12-04T03:27:56Z</time>
      </trkpt>
      <trkpt lat="45.6937" lon="4.72847">
        <ele>285.16821289062</ele>
        <time>2011-12-04T03:28:02Z</time>
      </trkpt>
      <trkpt lat="45.69366" lon="4.72851">
        <ele>284.20690917969</ele>
        <time>2011-12-04T03:28:05Z</time>
      </trkpt>
      <trkpt lat="45.69362" lon="4.72854">
        <ele>283.72619628906</ele>
        <time>2011-12-04T03:28:08Z</time>
      </trkpt>
      <trkpt lat="45.69353" lon="4.7286">
        <ele>283.24560546875</ele>
        <time>2011-12-04T03:28:14Z</time>
      </trkpt>
      <trkpt lat="45.69347" lon="4.72864">
        <ele>284.20690917969</ele>
        <time>2011-12-04T03:28:18Z</time>
      </trkpt>
      <trkpt lat="45.69336" lon="4.7287">
        <ele>285.16821289062</ele>
        <time>2011-12-04T03:28:24Z</time>
      </trkpt>
      <trkpt lat="45.69329" lon="4.72884">
        <ele>284.20690917969</ele>
        <time>2011-12-04T03:28:31Z</time>
      </trkpt>
      <trkpt lat="45.69328" lon="4.72889">
        <ele>284.20690917969</ele>
        <time>2011-12-04T03:28:33Z</time>
      </trkpt>
      <trkpt lat="45.69328" lon="4.72894">
        <ele>284.68762207031</ele>
        <time>2011-12-04T03:28:35Z</time>
      </trkpt>
      <trkpt lat="45.69329" lon="4.72909">
        <ele>284.20690917969</ele>
        <time>2011-12-04T03:28:40Z</time>
      </trkpt>
      <trkpt lat="45.69332" lon="4.72912">
        <ele>284.20690917969</ele>
        <time>2011-12-04T03:28:42Z</time>
      </trkpt>
      <trkpt lat="45.69345" lon="4.72919">
        <ele>284.20690917969</ele>
        <time>2011-12-04T03:28:48Z</time>
      </trkpt>
      <trkpt lat="45.69353" lon="4.72922">
        <ele>285.16821289062</ele>
        <time>2011-12-04T03:28:52Z</time>
      </trkpt>
      <trkpt lat="45.69361" lon="4.72924">
        <ele>286.61022949219</ele>
        <time>2011-12-04T03:28:56Z</time>
      </trkpt>
      <trkpt lat="45.6937" lon="4.72927">
        <ele>288.53295898438</ele>
        <time>2011-12-04T03:29:01Z</time>
      </trkpt>
      <trkpt lat="45.69381" lon="4.72929">
        <ele>289.01354980469</ele>
        <time>2011-12-04T03:29:06Z</time>
      </trkpt>
      <trkpt lat="45.69392" lon="4.72931">
        <ele>289.494140625</ele>
        <time>2011-12-04T03:29:11Z</time>
      </trkpt>
      <trkpt lat="45.694" lon="4.72933">
        <ele>290.45556640625</ele>
        <time>2011-12-04T03:29:15Z</time>
      </trkpt>
      <trkpt lat="45.69411" lon="4.72936">
        <ele>290.45556640625</ele>
        <time>2011-12-04T03:29:20Z</time>
      </trkpt>
      <trkpt lat="45.69427" lon="4.7294">
        <ele>292.37817382812</ele>
        <time>2011-12-04T03:29:26Z</time>
      </trkpt>
      <trkpt lat="45.69444" lon="4.72943">
        <ele>294.78137207031</ele>
        <time>2011-12-04T03:29:33Z</time>
      </trkpt>
      <trkpt lat="45.69456" lon="4.72946">
        <ele>295.26196289062</ele>
        <time>2011-12-04T03:29:38Z</time>
      </trkpt>
      <trkpt lat="45.69472" lon="4.72958">
        <ele>296.22351074219</ele>
        <time>2011-12-04T03:29:44Z</time>
      </trkpt>
      <trkpt lat="45.69484" lon="4.72968">
        <ele>297.66540527344</ele>
        <time>2011-12-04T03:29:49Z</time>
      </trkpt>
      <trkpt lat="45.69497" lon="4.72977">
        <ele>299.58801269531</ele>
        <time>2011-12-04T03:29:54Z</time>
      </trkpt>
      <trkpt lat="45.69506" lon="4.72982">
        <ele>299.58801269531</ele>
        <time>2011-12-04T03:29:58Z</time>
      </trkpt>
      <trkpt lat="45.69516" lon="4.72988">
        <ele>299.58801269531</ele>
        <time>2011-12-04T03:30:02Z</time>
      </trkpt>
      <trkpt lat="45.69529" lon="4.72996">
        <ele>299.58801269531</ele>
        <time>2011-12-04T03:30:07Z</time>
      </trkpt>
      <trkpt lat="45.69541" lon="4.73004">
        <ele>299.58801269531</ele>
        <time>2011-12-04T03:30:12Z</time>
      </trkpt>
      <trkpt lat="45.69555" lon="4.73012">
        <ele>300.06872558594</ele>
        <time>2011-12-04T03:30:18Z</time>
      </trkpt>
      <trkpt lat="45.69564" lon="4.73019">
        <ele>300.54931640625</ele>
        <time>2011-12-04T03:30:22Z</time>
      </trkpt>
      <trkpt lat="45.69577" lon="4.73026">
        <ele>299.58801269531</ele>
        <time>2011-12-04T03:30:27Z</time>
      </trkpt>
      <trkpt lat="45.69588" lon="4.73035">
        <ele>300.06872558594</ele>
        <time>2011-12-04T03:30:32Z</time>
      </trkpt>
      <trkpt lat="45.69603" lon="4.73046">
        <ele>299.10729980469</ele>
        <time>2011-12-04T03:30:38Z</time>
      </trkpt>
      <trkpt lat="45.69618" lon="4.73056">
        <ele>299.10729980469</ele>
        <time>2011-12-04T03:30:44Z</time>
      </trkpt>
      <trkpt lat="45.69634" lon="4.73065">
        <ele>300.06872558594</ele>
        <time>2011-12-04T03:30:50Z</time>
      </trkpt>
      <trkpt lat="45.69646" lon="4.73071">
        <ele>300.54931640625</ele>
        <time>2011-12-04T03:30:55Z</time>
      </trkpt>
      <trkpt lat="45.69659" lon="4.73078">
        <ele>301.51062011719</ele>
        <time>2011-12-04T03:31:00Z</time>
      </trkpt>
      <trkpt lat="45.69666" lon="4.7308">
        <ele>301.51062011719</ele>
        <time>2011-12-04T03:31:03Z</time>
      </trkpt>
      <trkpt lat="45.69683" lon="4.73088">
        <ele>301.99133300781</ele>
        <time>2011-12-04T03:31:09Z</time>
      </trkpt>
      <trkpt lat="45.69695" lon="4.73093">
        <ele>301.51062011719</ele>
        <time>2011-12-04T03:31:13Z</time>
      </trkpt>
      <trkpt lat="45.69709" lon="4.731">
        <ele>301.51062011719</ele>
        <time>2011-12-04T03:31:18Z</time>
      </trkpt>
      <trkpt lat="45.69725" lon="4.73103">
        <ele>301.02990722656</ele>
        <time>2011-12-04T03:31:24Z</time>
      </trkpt>
      <trkpt lat="45.69742" lon="4.73107">
        <ele>301.51062011719</ele>
        <time>2011-12-04T03:31:30Z</time>
      </trkpt>
      <trkpt lat="45.6976" lon="4.73111">
        <ele>302.47192382812</ele>
        <time>2011-12-04T03:31:36Z</time>
      </trkpt>
      <trkpt lat="45.69774" lon="4.73113">
        <ele>302.47192382812</ele>
        <time>2011-12-04T03:31:41Z</time>
      </trkpt>
      <trkpt lat="45.69789" lon="4.73116">
        <ele>304.39465332031</ele>
        <time>2011-12-04T03:31:46Z</time>
      </trkpt>
      <trkpt lat="45.69802" lon="4.7312">
        <ele>305.35595703125</ele>
        <time>2011-12-04T03:31:51Z</time>
      </trkpt>
      <trkpt lat="45.69818" lon="4.73129">
        <ele>304.87524414062</ele>
        <time>2011-12-04T03:31:57Z</time>
      </trkpt>
      <trkpt lat="45.69829" lon="4.73137">
        <ele>303.91394042969</ele>
        <time>2011-12-04T03:32:01Z</time>
      </trkpt>
      <trkpt lat="45.69841" lon="4.73146">
        <ele>303.43322753906</ele>
        <time>2011-12-04T03:32:06Z</time>
      </trkpt>
      <trkpt lat="45.69853" lon="4.73154">
        <ele>302.95251464844</ele>
        <time>2011-12-04T03:32:11Z</time>
      </trkpt>
      <trkpt lat="45.69866" lon="4.7316">
        <ele>303.43322753906</ele>
        <time>2011-12-04T03:32:16Z</time>
      </trkpt>
      <trkpt lat="45.69879" lon="4.73166">
        <ele>303.91394042969</ele>
        <time>2011-12-04T03:32:21Z</time>
      </trkpt>
      <trkpt lat="45.69897" lon="4.73172">
        <ele>305.83666992188</ele>
        <time>2011-12-04T03:32:28Z</time>
      </trkpt>
      <trkpt lat="45.69913" lon="4.7318">
        <ele>306.31726074219</ele>
        <time>2011-12-04T03:32:34Z</time>
      </trkpt>
      <trkpt lat="45.69926" lon="4.73185">
        <ele>306.31726074219</ele>
        <time>2011-12-04T03:32:39Z</time>
      </trkpt>
      <trkpt lat="45.69941" lon="4.73192">
        <ele>305.35595703125</ele>
        <time>2011-12-04T03:32:44Z</time>
      </trkpt>
      <trkpt lat="45.6996" lon="4.73202">
        <ele>304.87524414062</ele>
        <time>2011-12-04T03:32:51Z</time>
      </trkpt>
      <trkpt lat="45.69975" lon="4.73213">
        <ele>304.87524414062</ele>
        <time>2011-12-04T03:32:57Z</time>
      </trkpt>
      <trkpt lat="45.69987" lon="4.73225">
        <ele>305.35595703125</ele>
        <time>2011-12-04T03:33:02Z</time>
      </trkpt>
      <trkpt lat="45.7" lon="4.73238">
        <ele>306.7978515625</ele>
        <time>2011-12-04T03:33:07Z</time>
      </trkpt>
      <trkpt lat="45.70012" lon="4.7325">
        <ele>310.64306640625</ele>
        <time>2011-12-04T03:33:12Z</time>
      </trkpt>
      <trkpt lat="45.70028" lon="4.73264">
        <ele>314.0078125</ele>
        <time>2011-12-04T03:33:18Z</time>
      </trkpt>
      <trkpt lat="45.70045" lon="4.73282">
        <ele>313.04650878906</ele>
        <time>2011-12-04T03:33:24Z</time>
      </trkpt>
      <trkpt lat="45.70058" lon="4.73298">
        <ele>312.08520507812</ele>
        <time>2011-12-04T03:33:29Z</time>
      </trkpt>
      <trkpt lat="45.70069" lon="4.73313">
        <ele>311.6044921875</ele>
        <time>2011-12-04T03:33:34Z</time>
      </trkpt>
      <trkpt lat="45.70079" lon="4.73328">
        <ele>310.16247558594</ele>
        <time>2011-12-04T03:33:39Z</time>
      </trkpt>
      <trkpt lat="45.7009" lon="4.73343">
        <ele>310.16247558594</ele>
        <time>2011-12-04T03:33:44Z</time>
      </trkpt>
      <trkpt lat="45.70102" lon="4.7336">
        <ele>310.16247558594</ele>
        <time>2011-12-04T03:33:49Z</time>
      </trkpt>
      <trkpt lat="45.70113" lon="4.73373">
        <ele>309.201171875</ele>
        <time>2011-12-04T03:33:53Z</time>
      </trkpt>
      <trkpt lat="45.70124" lon="4.73389">
        <ele>307.27856445312</ele>
        <time>2011-12-04T03:33:58Z</time>
      </trkpt>
      <trkpt lat="45.70133" lon="4.73402">
        <ele>307.27856445312</ele>
        <time>2011-12-04T03:34:02Z</time>
      </trkpt>
      <trkpt lat="45.70148" lon="4.73422">
        <ele>306.7978515625</ele>
        <time>2011-12-04T03:34:08Z</time>
      </trkpt>
      <trkpt lat="45.70158" lon="4.73433">
        <ele>306.7978515625</ele>
        <time>2011-12-04T03:34:12Z</time>
      </trkpt>
      <trkpt lat="45.70174" lon="4.7345">
        <ele>306.7978515625</ele>
        <time>2011-12-04T03:34:18Z</time>
      </trkpt>
      <trkpt lat="45.70187" lon="4.73462">
        <ele>307.27856445312</ele>
        <time>2011-12-04T03:34:23Z</time>
      </trkpt>
      <trkpt lat="45.70198" lon="4.73474">
        <ele>308.23986816406</ele>
        <time>2011-12-04T03:34:28Z</time>
      </trkpt>
      <trkpt lat="45.70208" lon="4.73485">
        <ele>308.72045898438</ele>
        <time>2011-12-04T03:34:32Z</time>
      </trkpt>
      <trkpt lat="45.7022" lon="4.73498">
        <ele>309.68188476562</ele>
        <time>2011-12-04T03:34:37Z</time>
      </trkpt>
      <trkpt lat="45.70238" lon="4.73518">
        <ele>309.201171875</ele>
        <time>2011-12-04T03:34:44Z</time>
      </trkpt>
      <trkpt lat="45.70252" lon="4.73534">
        <ele>311.12377929688</ele>
        <time>2011-12-04T03:34:50Z</time>
      </trkpt>
      <trkpt lat="45.70266" lon="4.73547">
        <ele>309.201171875</ele>
        <time>2011-12-04T03:34:55Z</time>
      </trkpt>
      <trkpt lat="45.70281" lon="4.7356">
        <ele>308.72045898438</ele>
        <time>2011-12-04T03:35:01Z</time>
      </trkpt>
      <trkpt lat="45.70293" lon="4.73573">
        <ele>308.23986816406</ele>
        <time>2011-12-04T03:35:06Z</time>
      </trkpt>
      <trkpt lat="45.70304" lon="4.73582">
        <ele>308.23986816406</ele>
        <time>2011-12-04T03:35:10Z</time>
      </trkpt>
      <trkpt lat="45.70314" lon="4.73592">
        <ele>309.201171875</ele>
        <time>2011-12-04T03:35:14Z</time>
      </trkpt>
      <trkpt lat="45.70325" lon="4.73605">
        <ele>310.16247558594</ele>
        <time>2011-12-04T03:35:18Z</time>
      </trkpt>
      <trkpt lat="45.70338" lon="4.73624">
        <ele>310.16247558594</ele>
        <time>2011-12-04T03:35:24Z</time>
      </trkpt>
      <trkpt lat="45.70349" lon="4.73639">
        <ele>309.201171875</ele>
        <time>2011-12-04T03:35:28Z</time>
      </trkpt>
      <trkpt lat="45.70362" lon="4.73657">
        <ele>309.68188476562</ele>
        <time>2011-12-04T03:35:33Z</time>
      </trkpt>
      <trkpt lat="45.70374" lon="4.73675">
        <ele>309.201171875</ele>
        <time>2011-12-04T03:35:38Z</time>
      </trkpt>
      <trkpt lat="45.70384" lon="4.7369">
        <ele>310.16247558594</ele>
        <time>2011-12-04T03:35:43Z</time>
      </trkpt>
      <trkpt lat="45.70392" lon="4.73699">
        <ele>311.12377929688</ele>
        <time>2011-12-04T03:35:47Z</time>
      </trkpt>
      <trkpt lat="45.70405" lon="4.73712">
        <ele>313.04650878906</ele>
        <time>2011-12-04T03:35:52Z</time>
      </trkpt>
      <trkpt lat="45.7042" lon="4.73724">
        <ele>312.56579589844</ele>
        <time>2011-12-04T03:35:58Z</time>
      </trkpt>
      <trkpt lat="45.70434" lon="4.73735">
        <ele>313.04650878906</ele>
        <time>2011-12-04T03:36:04Z</time>
      </trkpt>
      <trkpt lat="45.70449" lon="4.73749">
        <ele>314.48840332031</ele>
        <time>2011-12-04T03:36:10Z</time>
      </trkpt>
      <trkpt lat="45.7046" lon="4.73757">
        <ele>314.48840332031</ele>
        <time>2011-12-04T03:36:14Z</time>
      </trkpt>
      <trkpt lat="45.70472" lon="4.73764">
        <ele>314.48840332031</ele>
        <time>2011-12-04T03:36:18Z</time>
      </trkpt>
      <trkpt lat="45.70488" lon="4.73766">
        <ele>315.44982910156</ele>
        <time>2011-12-04T03:36:23Z</time>
      </trkpt>
      <trkpt lat="45.705" lon="4.73772">
        <ele>316.41101074219</ele>
        <time>2011-12-04T03:36:27Z</time>
      </trkpt>
      <trkpt lat="45.70509" lon="4.73791">
        <ele>316.89172363281</ele>
        <time>2011-12-04T03:36:32Z</time>
      </trkpt>
      <trkpt lat="45.70517" lon="4.73811">
        <ele>316.89172363281</ele>
        <time>2011-12-04T03:36:37Z</time>
      </trkpt>
      <trkpt lat="45.70527" lon="4.73832">
        <ele>316.89172363281</ele>
        <time>2011-12-04T03:36:42Z</time>
      </trkpt>
      <trkpt lat="45.70536" lon="4.73851">
        <ele>316.89172363281</ele>
        <time>2011-12-04T03:36:47Z</time>
      </trkpt>
      <trkpt lat="45.70546" lon="4.7388">
        <ele>315.93041992188</ele>
        <time>2011-12-04T03:36:54Z</time>
      </trkpt>
      <trkpt lat="45.70549" lon="4.739">
        <ele>315.93041992188</ele>
        <time>2011-12-04T03:36:58Z</time>
      </trkpt>
      <trkpt lat="45.70552" lon="4.73924">
        <ele>315.93041992188</ele>
        <time>2011-12-04T03:37:03Z</time>
      </trkpt>
      <trkpt lat="45.70557" lon="4.73947">
        <ele>315.44982910156</ele>
        <time>2011-12-04T03:37:08Z</time>
      </trkpt>
      <trkpt lat="45.70562" lon="4.73966">
        <ele>315.44982910156</ele>
        <time>2011-12-04T03:37:12Z</time>
      </trkpt>
      <trkpt lat="45.70567" lon="4.73986">
        <ele>315.93041992188</ele>
        <time>2011-12-04T03:37:16Z</time>
      </trkpt>
      <trkpt lat="45.70568" lon="4.7401">
        <ele>314.96911621094</ele>
        <time>2011-12-04T03:37:21Z</time>
      </trkpt>
      <trkpt lat="45.70572" lon="4.74039">
        <ele>314.48840332031</ele>
        <time>2011-12-04T03:37:27Z</time>
      </trkpt>
      <trkpt lat="45.70575" lon="4.74062">
        <ele>313.04650878906</ele>
        <time>2011-12-04T03:37:32Z</time>
      </trkpt>
      <trkpt lat="45.70576" lon="4.74083">
        <ele>311.6044921875</ele>
        <time>2011-12-04T03:37:37Z</time>
      </trkpt>
      <trkpt lat="45.70576" lon="4.74097">
        <ele>310.16247558594</ele>
        <time>2011-12-04T03:37:40Z</time>
      </trkpt>
      <trkpt lat="45.70578" lon="4.74111">
        <ele>310.16247558594</ele>
        <time>2011-12-04T03:37:43Z</time>
      </trkpt>
      <trkpt lat="45.70582" lon="4.74144">
        <ele>308.72045898438</ele>
        <time>2011-12-04T03:37:50Z</time>
      </trkpt>
      <trkpt lat="45.70585" lon="4.74157">
        <ele>309.201171875</ele>
        <time>2011-12-04T03:37:53Z</time>
      </trkpt>
      <trkpt lat="45.70594" lon="4.74191">
        <ele>309.68188476562</ele>
        <time>2011-12-04T03:38:01Z</time>
      </trkpt>
      <trkpt lat="45.70603" lon="4.74216">
        <ele>309.68188476562</ele>
        <time>2011-12-04T03:38:07Z</time>
      </trkpt>
      <trkpt lat="45.70611" lon="4.74239">
        <ele>310.16247558594</ele>
        <time>2011-12-04T03:38:12Z</time>
      </trkpt>
      <trkpt lat="45.70617" lon="4.74259">
        <ele>309.68188476562</ele>
        <time>2011-12-04T03:38:16Z</time>
      </trkpt>
      <trkpt lat="45.70623" lon="4.74281">
        <ele>308.72045898438</ele>
        <time>2011-12-04T03:38:21Z</time>
      </trkpt>
      <trkpt lat="45.70626" lon="4.743">
        <ele>308.23986816406</ele>
        <time>2011-12-04T03:38:25Z</time>
      </trkpt>
      <trkpt lat="45.70632" lon="4.74325">
        <ele>307.75927734375</ele>
        <time>2011-12-04T03:38:30Z</time>
      </trkpt>
      <trkpt lat="45.70638" lon="4.74344">
        <ele>307.75927734375</ele>
        <time>2011-12-04T03:38:34Z</time>
      </trkpt>
      <trkpt lat="45.70646" lon="4.74365">
        <ele>308.23986816406</ele>
        <time>2011-12-04T03:38:39Z</time>
      </trkpt>
      <trkpt lat="45.70654" lon="4.74385">
        <ele>306.31726074219</ele>
        <time>2011-12-04T03:38:44Z</time>
      </trkpt>
      <trkpt lat="45.70662" lon="4.74402">
        <ele>305.35595703125</ele>
        <time>2011-12-04T03:38:48Z</time>
      </trkpt>
      <trkpt lat="45.70669" lon="4.74422">
        <ele>306.31726074219</ele>
        <time>2011-12-04T03:38:53Z</time>
      </trkpt>
      <trkpt lat="45.70679" lon="4.74438">
        <ele>305.35595703125</ele>
        <time>2011-12-04T03:38:58Z</time>
      </trkpt>
      <trkpt lat="45.70689" lon="4.74451">
        <ele>305.35595703125</ele>
        <time>2011-12-04T03:39:03Z</time>
      </trkpt>
      <trkpt lat="45.70702" lon="4.7446">
        <ele>305.35595703125</ele>
        <time>2011-12-04T03:39:08Z</time>
      </trkpt>
      <trkpt lat="45.70719" lon="4.74466">
        <ele>304.39465332031</ele>
        <time>2011-12-04T03:39:13Z</time>
      </trkpt>
      <trkpt lat="45.70736" lon="4.74476">
        <ele>305.35595703125</ele>
        <time>2011-12-04T03:39:19Z</time>
      </trkpt>
      <trkpt lat="45.70757" lon="4.74487">
        <ele>306.7978515625</ele>
        <time>2011-12-04T03:39:26Z</time>
      </trkpt>
      <trkpt lat="45.70776" lon="4.74498">
        <ele>306.31726074219</ele>
        <time>2011-12-04T03:39:32Z</time>
      </trkpt>
      <trkpt lat="45.70789" lon="4.74505">
        <ele>305.83666992188</ele>
        <time>2011-12-04T03:39:37Z</time>
      </trkpt>
      <trkpt lat="45.70801" lon="4.74513">
        <ele>304.39465332031</ele>
        <time>2011-12-04T03:39:42Z</time>
      </trkpt>
      <trkpt lat="45.70816" lon="4.74524">
        <ele>304.39465332031</ele>
        <time>2011-12-04T03:39:47Z</time>
      </trkpt>
      <trkpt lat="45.70829" lon="4.74533">
        <ele>303.91394042969</ele>
        <time>2011-12-04T03:39:51Z</time>
      </trkpt>
      <trkpt lat="45.70841" lon="4.74541">
        <ele>305.35595703125</ele>
        <time>2011-12-04T03:39:55Z</time>
      </trkpt>
      <trkpt lat="45.70859" lon="4.7455">
        <ele>306.31726074219</ele>
        <time>2011-12-04T03:40:00Z</time>
      </trkpt>
      <trkpt lat="45.70874" lon="4.74561">
        <ele>305.83666992188</ele>
        <time>2011-12-04T03:40:05Z</time>
      </trkpt>
      <trkpt lat="45.7089" lon="4.74572">
        <ele>306.31726074219</ele>
        <time>2011-12-04T03:40:10Z</time>
      </trkpt>
      <trkpt lat="45.70909" lon="4.74577">
        <ele>305.35595703125</ele>
        <time>2011-12-04T03:40:15Z</time>
      </trkpt>
      <trkpt lat="45.70926" lon="4.74583">
        <ele>304.39465332031</ele>
        <time>2011-12-04T03:40:20Z</time>
      </trkpt>
      <trkpt lat="45.7094" lon="4.74588">
        <ele>304.39465332031</ele>
        <time>2011-12-04T03:40:25Z</time>
      </trkpt>
      <trkpt lat="45.70956" lon="4.74596">
        <ele>303.43322753906</ele>
        <time>2011-12-04T03:40:30Z</time>
      </trkpt>
      <trkpt lat="45.70977" lon="4.746">
        <ele>303.91394042969</ele>
        <time>2011-12-04T03:40:36Z</time>
      </trkpt>
      <trkpt lat="45.70992" lon="4.746">
        <ele>305.83666992188</ele>
        <time>2011-12-04T03:40:40Z</time>
      </trkpt>
      <trkpt lat="45.71003" lon="4.74596">
        <ele>307.75927734375</ele>
        <time>2011-12-04T03:40:44Z</time>
      </trkpt>
      <trkpt lat="45.71006" lon="4.74594">
        <ele>308.72045898438</ele>
        <time>2011-12-04T03:40:45Z</time>
      </trkpt>
      <trkpt lat="45.71022" lon="4.74579">
        <ele>310.64306640625</ele>
        <time>2011-12-04T03:40:51Z</time>
      </trkpt>
      <trkpt lat="45.71032" lon="4.74571">
        <ele>310.16247558594</ele>
        <time>2011-12-04T03:40:55Z</time>
      </trkpt>
      <trkpt lat="45.7104" lon="4.74575">
        <ele>310.16247558594</ele>
        <time>2011-12-04T03:40:58Z</time>
      </trkpt>
      <trkpt lat="45.71045" lon="4.74581">
        <ele>309.201171875</ele>
        <time>2011-12-04T03:41:00Z</time>
      </trkpt>
      <trkpt lat="45.71056" lon="4.746">
        <ele>306.7978515625</ele>
        <time>2011-12-04T03:41:05Z</time>
      </trkpt>
      <trkpt lat="45.71065" lon="4.74621">
        <ele>305.35595703125</ele>
        <time>2011-12-04T03:41:10Z</time>
      </trkpt>
      <trkpt lat="45.7107" lon="4.7464">
        <ele>304.87524414062</ele>
        <time>2011-12-04T03:41:14Z</time>
      </trkpt>
      <trkpt lat="45.71076" lon="4.74667">
        <ele>302.47192382812</ele>
        <time>2011-12-04T03:41:20Z</time>
      </trkpt>
      <trkpt lat="45.71077" lon="4.74689">
        <ele>299.58801269531</ele>
        <time>2011-12-04T03:41:25Z</time>
      </trkpt>
      <trkpt lat="45.71078" lon="4.74707">
        <ele>297.18469238281</ele>
        <time>2011-12-04T03:41:28Z</time>
      </trkpt>
      <trkpt lat="45.71089" lon="4.7473">
        <ele>296.22351074219</ele>
        <time>2011-12-04T03:41:33Z</time>
      </trkpt>
      <trkpt lat="45.71094" lon="4.74743">
        <ele>295.74267578125</ele>
        <time>2011-12-04T03:41:36Z</time>
      </trkpt>
      <trkpt lat="45.71096" lon="4.74768">
        <ele>299.10729980469</ele>
        <time>2011-12-04T03:41:41Z</time>
      </trkpt>
      <trkpt lat="45.71095" lon="4.74785">
        <ele>298.14611816406</ele>
        <time>2011-12-04T03:41:45Z</time>
      </trkpt>
      <trkpt lat="45.7109" lon="4.74812">
        <ele>301.02990722656</ele>
        <time>2011-12-04T03:41:51Z</time>
      </trkpt>
      <trkpt lat="45.71085" lon="4.74827">
        <ele>304.39465332031</ele>
        <time>2011-12-04T03:41:55Z</time>
      </trkpt>
      <trkpt lat="45.71072" lon="4.74829">
        <ele>302.47192382812</ele>
        <time>2011-12-04T03:41:59Z</time>
      </trkpt>
      <trkpt lat="45.71054" lon="4.74837">
        <ele>302.47192382812</ele>
        <time>2011-12-04T03:42:05Z</time>
      </trkpt>
      <trkpt lat="45.71037" lon="4.7484">
        <ele>304.87524414062</ele>
        <time>2011-12-04T03:42:09Z</time>
      </trkpt>
      <trkpt lat="45.7102" lon="4.74847">
        <ele>305.83666992188</ele>
        <time>2011-12-04T03:42:14Z</time>
      </trkpt>
      <trkpt lat="45.71004" lon="4.74851">
        <ele>309.68188476562</ele>
        <time>2011-12-04T03:42:18Z</time>
      </trkpt>
      <trkpt lat="45.70992" lon="4.74857">
        <ele>308.23986816406</ele>
        <time>2011-12-04T03:42:22Z</time>
      </trkpt>
      <trkpt lat="45.70979" lon="4.74861">
        <ele>308.23986816406</ele>
        <time>2011-12-04T03:42:26Z</time>
      </trkpt>
      <trkpt lat="45.70962" lon="4.74866">
        <ele>304.39465332031</ele>
        <time>2011-12-04T03:42:31Z</time>
      </trkpt>
      <trkpt lat="45.70948" lon="4.74874">
        <ele>301.99133300781</ele>
        <time>2011-12-04T03:42:36Z</time>
      </trkpt>
      <trkpt lat="45.70932" lon="4.7488">
        <ele>304.39465332031</ele>
        <time>2011-12-04T03:42:41Z</time>
      </trkpt>
      <trkpt lat="45.70912" lon="4.74885">
        <ele>305.35595703125</ele>
        <time>2011-12-04T03:42:46Z</time>
      </trkpt>
      <trkpt lat="45.70891" lon="4.7489">
        <ele>305.83666992188</ele>
        <time>2011-12-04T03:42:51Z</time>
      </trkpt>
      <trkpt lat="45.70886" lon="4.74891">
        <ele>306.7978515625</ele>
        <time>2011-12-04T03:42:52Z</time>
      </trkpt>
      <trkpt lat="45.70879" lon="4.74892">
        <ele>304.87524414062</ele>
        <time>2011-12-04T03:42:54Z</time>
      </trkpt>
      <trkpt lat="45.7086" lon="4.74897">
        <ele>305.83666992188</ele>
        <time>2011-12-04T03:43:00Z</time>
      </trkpt>
      <trkpt lat="45.70848" lon="4.74905">
        <ele>304.87524414062</ele>
        <time>2011-12-04T03:43:04Z</time>
      </trkpt>
      <trkpt lat="45.70837" lon="4.74914">
        <ele>305.35595703125</ele>
        <time>2011-12-04T03:43:08Z</time>
      </trkpt>
      <trkpt lat="45.70823" lon="4.74922">
        <ele>307.27856445312</ele>
        <time>2011-12-04T03:43:12Z</time>
      </trkpt>
      <trkpt lat="45.70812" lon="4.7493">
        <ele>302.95251464844</ele>
        <time>2011-12-04T03:43:16Z</time>
      </trkpt>
      <trkpt lat="45.70798" lon="4.74945">
        <ele>296.22351074219</ele>
        <time>2011-12-04T03:43:21Z</time>
      </trkpt>
      <trkpt lat="45.70782" lon="4.7496">
        <ele>291.8974609375</ele>
        <time>2011-12-04T03:43:27Z</time>
      </trkpt>
      <trkpt lat="45.70776" lon="4.74981">
        <ele>293.33935546875</ele>
        <time>2011-12-04T03:43:32Z</time>
      </trkpt>
      <trkpt lat="45.70764" lon="4.75002">
        <ele>292.85876464844</ele>
        <time>2011-12-04T03:43:37Z</time>
      </trkpt>
      <trkpt lat="45.70755" lon="4.75015">
        <ele>289.494140625</ele>
        <time>2011-12-04T03:43:41Z</time>
      </trkpt>
      <trkpt lat="45.70754" lon="4.75039">
        <ele>287.0908203125</ele>
        <time>2011-12-04T03:43:46Z</time>
      </trkpt>
      <trkpt lat="45.70756" lon="4.75059">
        <ele>286.61022949219</ele>
        <time>2011-12-04T03:43:50Z</time>
      </trkpt>
      <trkpt lat="45.70755" lon="4.75075">
        <ele>286.61022949219</ele>
        <time>2011-12-04T03:43:54Z</time>
      </trkpt>
      <trkpt lat="45.70754" lon="4.75097">
        <ele>286.61022949219</ele>
        <time>2011-12-04T03:44:00Z</time>
      </trkpt>
      <trkpt lat="45.70755" lon="4.75114">
        <ele>286.61022949219</ele>
        <time>2011-12-04T03:44:04Z</time>
      </trkpt>
      <trkpt lat="45.70754" lon="4.75118">
        <ele>287.0908203125</ele>
        <time>2011-12-04T03:44:05Z</time>
      </trkpt>
      <trkpt lat="45.70734" lon="4.7512">
        <ele>292.37817382812</ele>
        <time>2011-12-04T03:44:10Z</time>
      </trkpt>
      <trkpt lat="45.7071" lon="4.75127">
        <ele>298.62670898438</ele>
        <time>2011-12-04T03:44:16Z</time>
      </trkpt>
      <trkpt lat="45.70688" lon="4.75129">
        <ele>300.06872558594</ele>
        <time>2011-12-04T03:44:22Z</time>
      </trkpt>
      <trkpt lat="45.70678" lon="4.7513">
        <ele>301.51062011719</ele>
        <time>2011-12-04T03:44:25Z</time>
      </trkpt>
      <trkpt lat="45.7066" lon="4.75135">
        <ele>303.91394042969</ele>
        <time>2011-12-04T03:44:30Z</time>
      </trkpt>
      <trkpt lat="45.70644" lon="4.75132">
        <ele>302.95251464844</ele>
        <time>2011-12-04T03:44:35Z</time>
      </trkpt>
      <trkpt lat="45.70628" lon="4.75134">
        <ele>298.14611816406</ele>
        <time>2011-12-04T03:44:39Z</time>
      </trkpt>
      <trkpt lat="45.70617" lon="4.75138">
        <ele>295.74267578125</ele>
        <time>2011-12-04T03:44:42Z</time>
      </trkpt>
      <trkpt lat="45.70603" lon="4.75142">
        <ele>290.45556640625</ele>
        <time>2011-12-04T03:44:46Z</time>
      </trkpt>
      <trkpt lat="45.70599" lon="4.75145">
        <ele>286.12951660156</ele>
        <time>2011-12-04T03:44:48Z</time>
      </trkpt>
      <trkpt lat="45.70589" lon="4.75165">
        <ele>278.43896484375</ele>
        <time>2011-12-04T03:44:54Z</time>
      </trkpt>
      <trkpt lat="45.70581" lon="4.75179">
        <ele>274.59375</ele>
        <time>2011-12-04T03:44:58Z</time>
      </trkpt>
      <trkpt lat="45.70569" lon="4.75202">
        <ele>272.1904296875</ele>
        <time>2011-12-04T03:45:04Z</time>
      </trkpt>
      <trkpt lat="45.70555" lon="4.75218">
        <ele>270.74841308594</ele>
        <time>2011-12-04T03:45:09Z</time>
      </trkpt>
      <trkpt lat="45.70539" lon="4.75236">
        <ele>273.63244628906</ele>
        <time>2011-12-04T03:45:15Z</time>
      </trkpt>
      <trkpt lat="45.70525" lon="4.7525">
        <ele>276.03564453125</ele>
        <time>2011-12-04T03:45:20Z</time>
      </trkpt>
      <trkpt lat="45.70514" lon="4.75266">
        <ele>278.43896484375</ele>
        <time>2011-12-04T03:45:24Z</time>
      </trkpt>
      <trkpt lat="45.70501" lon="4.75288">
        <ele>277.95825195312</ele>
        <time>2011-12-04T03:45:30Z</time>
      </trkpt>
      <trkpt lat="45.70498" lon="4.75302">
        <ele>275.07446289062</ele>
        <time>2011-12-04T03:45:34Z</time>
      </trkpt>
      <trkpt lat="45.70491" lon="4.75321">
        <ele>273.63244628906</ele>
        <time>2011-12-04T03:45:39Z</time>
      </trkpt>
      <trkpt lat="45.7048" lon="4.75339">
        <ele>270.26770019531</ele>
        <time>2011-12-04T03:45:45Z</time>
      </trkpt>
      <trkpt lat="45.70478" lon="4.75341">
        <ele>269.787109375</ele>
        <time>2011-12-04T03:45:46Z</time>
      </trkpt>
      <trkpt lat="45.7047" lon="4.7535">
        <ele>269.30651855469</ele>
        <time>2011-12-04T03:45:51Z</time>
      </trkpt>
      <trkpt lat="45.70455" lon="4.75361">
        <ele>268.34509277344</ele>
        <time>2011-12-04T03:45:56Z</time>
      </trkpt>
      <trkpt lat="45.70441" lon="4.75376">
        <ele>271.70971679688</ele>
        <time>2011-12-04T03:46:02Z</time>
      </trkpt>
      <trkpt lat="45.70433" lon="4.75387">
        <ele>273.15185546875</ele>
        <time>2011-12-04T03:46:06Z</time>
      </trkpt>
      <trkpt lat="45.70425" lon="4.75403">
        <ele>275.55505371094</ele>
        <time>2011-12-04T03:46:11Z</time>
      </trkpt>
      <trkpt lat="45.70428" lon="4.75417">
        <ele>276.51635742188</ele>
        <time>2011-12-04T03:46:16Z</time>
      </trkpt>
      <trkpt lat="45.70429" lon="4.7542">
        <ele>276.9970703125</ele>
        <time>2011-12-04T03:46:17Z</time>
      </trkpt>
      <trkpt lat="45.70434" lon="4.75439">
        <ele>278.91967773438</ele>
        <time>2011-12-04T03:46:23Z</time>
      </trkpt>
      <trkpt lat="45.70439" lon="4.75458">
        <ele>283.24560546875</ele>
        <time>2011-12-04T03:46:29Z</time>
      </trkpt>
      <trkpt lat="45.70445" lon="4.75473">
        <ele>284.68762207031</ele>
        <time>2011-12-04T03:46:35Z</time>
      </trkpt>
      <trkpt lat="45.70447" lon="4.75483">
        <ele>285.16821289062</ele>
        <time>2011-12-04T03:46:41Z</time>
      </trkpt>
      <trkpt lat="45.70452" lon="4.75498">
        <ele>286.61022949219</ele>
        <time>2011-12-04T03:46:47Z</time>
      </trkpt>
      <trkpt lat="45.70457" lon="4.75508">
        <ele>288.05224609375</ele>
        <time>2011-12-04T03:46:51Z</time>
      </trkpt>
      <trkpt lat="45.70464" lon="4.75511">
        <ele>289.494140625</ele>
        <time>2011-12-04T03:46:56Z</time>
      </trkpt>
      <trkpt lat="45.70475" lon="4.75511">
        <ele>289.97485351562</ele>
        <time>2011-12-04T03:47:01Z</time>
      </trkpt>
      <trkpt lat="45.70485" lon="4.75511">
        <ele>290.45556640625</ele>
        <time>2011-12-04T03:47:05Z</time>
      </trkpt>
      <trkpt lat="45.705" lon="4.75511">
        <ele>289.97485351562</ele>
        <time>2011-12-04T03:47:10Z</time>
      </trkpt>
      <trkpt lat="45.70507" lon="4.75512">
        <ele>290.93615722656</ele>
        <time>2011-12-04T03:47:13Z</time>
      </trkpt>
      <trkpt lat="45.70523" lon="4.75513">
        <ele>291.8974609375</ele>
        <time>2011-12-04T03:47:19Z</time>
      </trkpt>
      <trkpt lat="45.70534" lon="4.75516">
        <ele>292.37817382812</ele>
        <time>2011-12-04T03:47:23Z</time>
      </trkpt>
      <trkpt lat="45.70547" lon="4.75521">
        <ele>293.33935546875</ele>
        <time>2011-12-04T03:47:28Z</time>
      </trkpt>
      <trkpt lat="45.70558" lon="4.75529">
        <ele>294.78137207031</ele>
        <time>2011-12-04T03:47:33Z</time>
      </trkpt>
      <trkpt lat="45.70563" lon="4.75538">
        <ele>296.7041015625</ele>
        <time>2011-12-04T03:47:37Z</time>
      </trkpt>
      <trkpt lat="45.7057" lon="4.75552">
        <ele>298.62670898438</ele>
        <time>2011-12-04T03:47:42Z</time>
      </trkpt>
      <trkpt lat="45.70576" lon="4.75564">
        <ele>299.10729980469</ele>
        <time>2011-12-04T03:47:46Z</time>
      </trkpt>
      <trkpt lat="45.70581" lon="4.7558">
        <ele>300.54931640625</ele>
        <time>2011-12-04T03:47:51Z</time>
      </trkpt>
      <trkpt lat="45.70583" lon="4.75597">
        <ele>301.02990722656</ele>
        <time>2011-12-04T03:47:56Z</time>
      </trkpt>
      <trkpt lat="45.70584" lon="4.75612">
        <ele>302.95251464844</ele>
        <time>2011-12-04T03:48:00Z</time>
      </trkpt>
      <trkpt lat="45.70584" lon="4.75616">
        <ele>302.95251464844</ele>
        <time>2011-12-04T03:48:01Z</time>
      </trkpt>
      <trkpt lat="45.70583" lon="4.75633">
        <ele>304.87524414062</ele>
        <time>2011-12-04T03:48:06Z</time>
      </trkpt>
      <trkpt lat="45.70584" lon="4.75652">
        <ele>306.31726074219</ele>
        <time>2011-12-04T03:48:11Z</time>
      </trkpt>
      <trkpt lat="45.70587" lon="4.75674">
        <ele>307.75927734375</ele>
        <time>2011-12-04T03:48:17Z</time>
      </trkpt>
      <trkpt lat="45.7059" lon="4.75693">
        <ele>308.72045898438</ele>
        <time>2011-12-04T03:48:22Z</time>
      </trkpt>
      <trkpt lat="45.70595" lon="4.75711">
        <ele>309.201171875</ele>
        <time>2011-12-04T03:48:27Z</time>
      </trkpt>
      <trkpt lat="45.706" lon="4.75729">
        <ele>309.201171875</ele>
        <time>2011-12-04T03:48:32Z</time>
      </trkpt>
      <trkpt lat="45.70607" lon="4.75748">
        <ele>310.64306640625</ele>
        <time>2011-12-04T03:48:37Z</time>
      </trkpt>
      <trkpt lat="45.70615" lon="4.75763">
        <ele>311.6044921875</ele>
        <time>2011-12-04T03:48:42Z</time>
      </trkpt>
      <trkpt lat="45.70621" lon="4.75779">
        <ele>314.0078125</ele>
        <time>2011-12-04T03:48:47Z</time>
      </trkpt>
      <trkpt lat="45.70625" lon="4.758">
        <ele>313.52722167969</ele>
        <time>2011-12-04T03:48:53Z</time>
      </trkpt>
      <trkpt lat="45.70623" lon="4.75823">
        <ele>313.04650878906</ele>
        <time>2011-12-04T03:48:58Z</time>
      </trkpt>
      <trkpt lat="45.70622" lon="4.75846">
        <ele>311.12377929688</ele>
        <time>2011-12-04T03:49:03Z</time>
      </trkpt>
      <trkpt lat="45.70623" lon="4.75864">
        <ele>310.64306640625</ele>
        <time>2011-12-04T03:49:07Z</time>
      </trkpt>
      <trkpt lat="45.70627" lon="4.75885">
        <ele>308.23986816406</ele>
        <time>2011-12-04T03:49:12Z</time>
      </trkpt>
      <trkpt lat="45.70632" lon="4.75907">
        <ele>304.87524414062</ele>
        <time>2011-12-04T03:49:17Z</time>
      </trkpt>
      <trkpt lat="45.70636" lon="4.75934">
        <ele>304.87524414062</ele>
        <time>2011-12-04T03:49:23Z</time>
      </trkpt>
      <trkpt lat="45.70636" lon="4.75939">
        <ele>305.35595703125</ele>
        <time>2011-12-04T03:49:24Z</time>
      </trkpt>
      <trkpt lat="45.70638" lon="4.75956">
        <ele>304.87524414062</ele>
        <time>2011-12-04T03:49:28Z</time>
      </trkpt>
      <trkpt lat="45.70638" lon="4.75979">
        <ele>304.87524414062</ele>
        <time>2011-12-04T03:49:33Z</time>
      </trkpt>
      <trkpt lat="45.70634" lon="4.76">
        <ele>305.35595703125</ele>
        <time>2011-12-04T03:49:38Z</time>
      </trkpt>
      <trkpt lat="45.7063" lon="4.76024">
        <ele>305.83666992188</ele>
        <time>2011-12-04T03:49:43Z</time>
      </trkpt>
      <trkpt lat="45.70629" lon="4.76041">
        <ele>304.87524414062</ele>
        <time>2011-12-04T03:49:47Z</time>
      </trkpt>
      <trkpt lat="45.70627" lon="4.76064">
        <ele>303.91394042969</ele>
        <time>2011-12-04T03:49:52Z</time>
      </trkpt>
      <trkpt lat="45.70625" lon="4.76089">
        <ele>301.99133300781</ele>
        <time>2011-12-04T03:49:58Z</time>
      </trkpt>
      <trkpt lat="45.70631" lon="4.76103">
        <ele>301.02990722656</ele>
        <time>2011-12-04T03:50:03Z</time>
      </trkpt>
      <trkpt lat="45.70634" lon="4.76103">
        <ele>301.02990722656</ele>
        <time>2011-12-04T03:50:04Z</time>
      </trkpt>
      <trkpt lat="45.70649" lon="4.76104">
        <ele>300.54931640625</ele>
        <time>2011-12-04T03:50:09Z</time>
      </trkpt>
      <trkpt lat="45.70665" lon="4.76105">
        <ele>300.06872558594</ele>
        <time>2011-12-04T03:50:15Z</time>
      </trkpt>
      <trkpt lat="45.70675" lon="4.76105">
        <ele>300.06872558594</ele>
        <time>2011-12-04T03:50:19Z</time>
      </trkpt>
      <trkpt lat="45.7069" lon="4.76106">
        <ele>302.95251464844</ele>
        <time>2011-12-04T03:50:24Z</time>
      </trkpt>
      <trkpt lat="45.70702" lon="4.76106">
        <ele>304.87524414062</ele>
        <time>2011-12-04T03:50:29Z</time>
      </trkpt>
      <trkpt lat="45.70716" lon="4.76108">
        <ele>305.35595703125</ele>
        <time>2011-12-04T03:50:34Z</time>
      </trkpt>
      <trkpt lat="45.70734" lon="4.76109">
        <ele>305.83666992188</ele>
        <time>2011-12-04T03:50:40Z</time>
      </trkpt>
      <trkpt lat="45.70752" lon="4.7611">
        <ele>307.75927734375</ele>
        <time>2011-12-04T03:50:46Z</time>
      </trkpt>
      <trkpt lat="45.70763" lon="4.76108">
        <ele>308.23986816406</ele>
        <time>2011-12-04T03:50:50Z</time>
      </trkpt>
      <trkpt lat="45.70784" lon="4.76108">
        <ele>309.201171875</ele>
        <time>2011-12-04T03:50:57Z</time>
      </trkpt>
      <trkpt lat="45.708" lon="4.76103">
        <ele>311.12377929688</ele>
        <time>2011-12-04T03:51:03Z</time>
      </trkpt>
      <trkpt lat="45.70816" lon="4.76095">
        <ele>313.04650878906</ele>
        <time>2011-12-04T03:51:09Z</time>
      </trkpt>
      <trkpt lat="45.70831" lon="4.76084">
        <ele>314.96911621094</ele>
        <time>2011-12-04T03:51:15Z</time>
      </trkpt>
      <trkpt lat="45.7084" lon="4.76076">
        <ele>318.81433105469</ele>
        <time>2011-12-04T03:51:19Z</time>
      </trkpt>
      <trkpt lat="45.7085" lon="4.76071">
        <ele>323.14038085938</ele>
        <time>2011-12-04T03:51:23Z</time>
      </trkpt>
      <trkpt lat="45.70862" lon="4.76071">
        <ele>324.1015625</ele>
        <time>2011-12-04T03:51:27Z</time>
      </trkpt>
      <trkpt lat="45.70873" lon="4.76074">
        <ele>326.02416992188</ele>
        <time>2011-12-04T03:51:31Z</time>
      </trkpt>
      <trkpt lat="45.70887" lon="4.76081">
        <ele>325.54357910156</ele>
        <time>2011-12-04T03:51:36Z</time>
      </trkpt>
      <trkpt lat="45.70901" lon="4.76088">
        <ele>327.46618652344</ele>
        <time>2011-12-04T03:51:41Z</time>
      </trkpt>
      <trkpt lat="45.70907" lon="4.76092">
        <ele>326.02416992188</ele>
        <time>2011-12-04T03:51:43Z</time>
      </trkpt>
      <trkpt lat="45.70909" lon="4.76119">
        <ele>323.14038085938</ele>
        <time>2011-12-04T03:51:48Z</time>
      </trkpt>
      <trkpt lat="45.70906" lon="4.7615">
        <ele>317.85302734375</ele>
        <time>2011-12-04T03:51:54Z</time>
      </trkpt>
      <trkpt lat="45.70906" lon="4.7617">
        <ele>315.44982910156</ele>
        <time>2011-12-04T03:51:58Z</time>
      </trkpt>
      <trkpt lat="45.70905" lon="4.76185">
        <ele>313.04650878906</ele>
        <time>2011-12-04T03:52:01Z</time>
      </trkpt>
      <trkpt lat="45.70903" lon="4.76209">
        <ele>308.72045898438</ele>
        <time>2011-12-04T03:52:06Z</time>
      </trkpt>
      <trkpt lat="45.709" lon="4.76232">
        <ele>306.31726074219</ele>
        <time>2011-12-04T03:52:11Z</time>
      </trkpt>
      <trkpt lat="45.709" lon="4.76261">
        <ele>302.95251464844</ele>
        <time>2011-12-04T03:52:16Z</time>
      </trkpt>
      <trkpt lat="45.70896" lon="4.76295">
        <ele>300.54931640625</ele>
        <time>2011-12-04T03:52:22Z</time>
      </trkpt>
      <trkpt lat="45.70892" lon="4.76331">
        <ele>298.62670898438</ele>
        <time>2011-12-04T03:52:29Z</time>
      </trkpt>
      <trkpt lat="45.70892" lon="4.76349">
        <ele>297.18469238281</ele>
        <time>2011-12-04T03:52:33Z</time>
      </trkpt>
      <trkpt lat="45.70903" lon="4.76361">
        <ele>295.26196289062</ele>
        <time>2011-12-04T03:52:38Z</time>
      </trkpt>
      <trkpt lat="45.70922" lon="4.76365">
        <ele>295.74267578125</ele>
        <time>2011-12-04T03:52:43Z</time>
      </trkpt>
      <trkpt lat="45.7094" lon="4.76367">
        <ele>295.26196289062</ele>
        <time>2011-12-04T03:52:48Z</time>
      </trkpt>
      <trkpt lat="45.70953" lon="4.76366">
        <ele>293.82006835938</ele>
        <time>2011-12-04T03:52:52Z</time>
      </trkpt>
      <trkpt lat="45.70976" lon="4.76363">
        <ele>292.85876464844</ele>
        <time>2011-12-04T03:52:59Z</time>
      </trkpt>
      <trkpt lat="45.7099" lon="4.76363">
        <ele>291.8974609375</ele>
        <time>2011-12-04T03:53:03Z</time>
      </trkpt>
      <trkpt lat="45.71003" lon="4.76355">
        <ele>292.85876464844</ele>
        <time>2011-12-04T03:53:08Z</time>
      </trkpt>
      <trkpt lat="45.71012" lon="4.76347">
        <ele>293.33935546875</ele>
        <time>2011-12-04T03:53:12Z</time>
      </trkpt>
      <trkpt lat="45.71025" lon="4.76338">
        <ele>293.82006835938</ele>
        <time>2011-12-04T03:53:17Z</time>
      </trkpt>
      <trkpt lat="45.71026" lon="4.76338">
        <ele>292.37817382812</ele>
        <time>2011-12-04T03:53:18Z</time>
      </trkpt>
      <trkpt lat="45.71023" lon="4.76353">
        <ele>289.494140625</ele>
        <time>2011-12-04T03:53:22Z</time>
      </trkpt>
      <trkpt lat="45.7102" lon="4.76373">
        <ele>284.68762207031</ele>
        <time>2011-12-04T03:53:27Z</time>
      </trkpt>
      <trkpt lat="45.71017" lon="4.76389">
        <ele>279.880859375</ele>
        <time>2011-12-04T03:53:32Z</time>
      </trkpt>
      <trkpt lat="45.71013" lon="4.76403">
        <ele>276.51635742188</ele>
        <time>2011-12-04T03:53:37Z</time>
      </trkpt>
      <trkpt lat="45.71008" lon="4.76419">
        <ele>274.11303710938</ele>
        <time>2011-12-04T03:53:42Z</time>
      </trkpt>
      <trkpt lat="45.71004" lon="4.76437">
        <ele>270.26770019531</ele>
        <time>2011-12-04T03:53:48Z</time>
      </trkpt>
      <trkpt lat="45.71009" lon="4.76449">
        <ele>269.787109375</ele>
        <time>2011-12-04T03:53:52Z</time>
      </trkpt>
      <trkpt lat="45.71017" lon="4.76459">
        <ele>268.34509277344</ele>
        <time>2011-12-04T03:53:56Z</time>
      </trkpt>
      <trkpt lat="45.71018" lon="4.76479">
        <ele>263.05786132812</ele>
        <time>2011-12-04T03:54:02Z</time>
      </trkpt>
      <trkpt lat="45.71011" lon="4.76493">
        <ele>260.17395019531</ele>
        <time>2011-12-04T03:54:06Z</time>
      </trkpt>
      <trkpt lat="45.70998" lon="4.76511">
        <ele>256.32873535156</ele>
        <time>2011-12-04T03:54:12Z</time>
      </trkpt>
      <trkpt lat="45.70996" lon="4.76513">
        <ele>255.84802246094</ele>
        <time>2011-12-04T03:54:13Z</time>
      </trkpt>
      <trkpt lat="45.70995" lon="4.76529">
        <ele>254.88659667969</ele>
        <time>2011-12-04T03:54:18Z</time>
      </trkpt>
      <trkpt lat="45.71003" lon="4.76541">
        <ele>253.92541503906</ele>
        <time>2011-12-04T03:54:22Z</time>
      </trkpt>
      <trkpt lat="45.71008" lon="4.76552">
        <ele>253.44470214844</ele>
        <time>2011-12-04T03:54:25Z</time>
      </trkpt>
      <trkpt lat="45.71017" lon="4.76569">
        <ele>252.4833984375</ele>
        <time>2011-12-04T03:54:30Z</time>
      </trkpt>
      <trkpt lat="45.71024" lon="4.76585">
        <ele>251.52209472656</ele>
        <time>2011-12-04T03:54:34Z</time>
      </trkpt>
      <trkpt lat="45.71033" lon="4.76602">
        <ele>249.59948730469</ele>
        <time>2011-12-04T03:54:39Z</time>
      </trkpt>
      <trkpt lat="45.71043" lon="4.76622">
        <ele>249.11877441406</ele>
        <time>2011-12-04T03:54:44Z</time>
      </trkpt>
      <trkpt lat="45.71048" lon="4.76633">
        <ele>249.59948730469</ele>
        <time>2011-12-04T03:54:47Z</time>
      </trkpt>
      <trkpt lat="45.71056" lon="4.76654">
        <ele>250.56079101562</ele>
        <time>2011-12-04T03:54:52Z</time>
      </trkpt>
      <trkpt lat="45.71062" lon="4.76675">
        <ele>249.59948730469</ele>
        <time>2011-12-04T03:54:57Z</time>
      </trkpt>
      <trkpt lat="45.71066" lon="4.76694">
        <ele>248.15759277344</ele>
        <time>2011-12-04T03:55:02Z</time>
      </trkpt>
      <trkpt lat="45.71069" lon="4.76708">
        <ele>248.15759277344</ele>
        <time>2011-12-04T03:55:06Z</time>
      </trkpt>
      <trkpt lat="45.71076" lon="4.76733">
        <ele>247.19604492188</ele>
        <time>2011-12-04T03:55:12Z</time>
      </trkpt>
      <trkpt lat="45.71078" lon="4.7675">
        <ele>245.2734375</ele>
        <time>2011-12-04T03:55:16Z</time>
      </trkpt>
      <trkpt lat="45.71087" lon="4.76777">
        <ele>244.31225585938</ele>
        <time>2011-12-04T03:55:22Z</time>
      </trkpt>
      <trkpt lat="45.7109" lon="4.76794">
        <ele>244.31225585938</ele>
        <time>2011-12-04T03:55:26Z</time>
      </trkpt>
      <trkpt lat="45.71094" lon="4.76815">
        <ele>246.23486328125</ele>
        <time>2011-12-04T03:55:30Z</time>
      </trkpt>
      <trkpt lat="45.71095" lon="4.76832">
        <ele>248.15759277344</ele>
        <time>2011-12-04T03:55:34Z</time>
      </trkpt>
      <trkpt lat="45.71101" lon="4.76852">
        <ele>246.23486328125</ele>
        <time>2011-12-04T03:55:39Z</time>
      </trkpt>
      <trkpt lat="45.7111" lon="4.76869">
        <ele>244.31225585938</ele>
        <time>2011-12-04T03:55:43Z</time>
      </trkpt>
      <trkpt lat="45.71119" lon="4.76888">
        <ele>242.3896484375</ele>
        <time>2011-12-04T03:55:47Z</time>
      </trkpt>
      <trkpt lat="45.71122" lon="4.76909">
        <ele>239.50549316406</ele>
        <time>2011-12-04T03:55:51Z</time>
      </trkpt>
      <trkpt lat="45.7113" lon="4.76933">
        <ele>237.58288574219</ele>
        <time>2011-12-04T03:55:56Z</time>
      </trkpt>
      <trkpt lat="45.71138" lon="4.76956">
        <ele>236.62170410156</ele>
        <time>2011-12-04T03:56:01Z</time>
      </trkpt>
      <trkpt lat="45.71144" lon="4.76975">
        <ele>236.14099121094</ele>
        <time>2011-12-04T03:56:05Z</time>
      </trkpt>
      <trkpt lat="45.71154" lon="4.76992">
        <ele>233.25708007812</ele>
        <time>2011-12-04T03:56:11Z</time>
      </trkpt>
      <trkpt lat="45.71168" lon="4.76997">
        <ele>232.29577636719</ele>
        <time>2011-12-04T03:56:16Z</time>
      </trkpt>
      <trkpt lat="45.71178" lon="4.76999">
        <ele>234.21838378906</ele>
        <time>2011-12-04T03:56:20Z</time>
      </trkpt>
      <trkpt lat="45.71187" lon="4.77001">
        <ele>236.62170410156</ele>
        <time>2011-12-04T03:56:24Z</time>
      </trkpt>
      <trkpt lat="45.71189" lon="4.77001">
        <ele>236.62170410156</ele>
        <time>2011-12-04T03:56:25Z</time>
      </trkpt>
      <trkpt lat="45.71199" lon="4.76997">
        <ele>238.54431152344</ele>
        <time>2011-12-04T03:56:31Z</time>
      </trkpt>
      <trkpt lat="45.71203" lon="4.77">
        <ele>241.42822265625</ele>
        <time>2011-12-04T03:56:34Z</time>
      </trkpt>
      <trkpt lat="45.7122" lon="4.76999">
        <ele>242.3896484375</ele>
        <time>2011-12-04T03:56:40Z</time>
      </trkpt>
      <trkpt lat="45.71235" lon="4.77">
        <ele>244.31225585938</ele>
        <time>2011-12-04T03:56:45Z</time>
      </trkpt>
      <trkpt lat="45.71251" lon="4.77">
        <ele>243.83154296875</ele>
        <time>2011-12-04T03:56:51Z</time>
      </trkpt>
      <trkpt lat="45.7127" lon="4.77003">
        <ele>242.3896484375</ele>
        <time>2011-12-04T03:56:57Z</time>
      </trkpt>
      <trkpt lat="45.71284" lon="4.77003">
        <ele>242.87023925781</ele>
        <time>2011-12-04T03:57:02Z</time>
      </trkpt>
      <trkpt lat="45.713" lon="4.76997">
        <ele>239.98620605469</ele>
        <time>2011-12-04T03:57:07Z</time>
      </trkpt>
      <trkpt lat="45.71312" lon="4.76993">
        <ele>238.54431152344</ele>
        <time>2011-12-04T03:57:11Z</time>
      </trkpt>
      <trkpt lat="45.71328" lon="4.76988">
        <ele>237.58288574219</ele>
        <time>2011-12-04T03:57:17Z</time>
      </trkpt>
      <trkpt lat="45.71329" lon="4.76986">
        <ele>236.62170410156</ele>
        <time>2011-12-04T03:57:18Z</time>
      </trkpt>
      <trkpt lat="45.71344" lon="4.76982">
        <ele>235.66027832031</ele>
        <time>2011-12-04T03:57:24Z</time>
      </trkpt>
      <trkpt lat="45.71359" lon="4.76982">
        <ele>237.58288574219</ele>
        <time>2011-12-04T03:57:29Z</time>
      </trkpt>
      <trkpt lat="45.71375" lon="4.76981">
        <ele>237.10229492188</ele>
        <time>2011-12-04T03:57:35Z</time>
      </trkpt>
      <trkpt lat="45.71388" lon="4.76979">
        <ele>237.10229492188</ele>
        <time>2011-12-04T03:57:40Z</time>
      </trkpt>
      <trkpt lat="45.71404" lon="4.76978">
        <ele>237.58288574219</ele>
        <time>2011-12-04T03:57:45Z</time>
      </trkpt>
      <trkpt lat="45.71407" lon="4.76978">
        <ele>238.54431152344</ele>
        <time>2011-12-04T03:57:46Z</time>
      </trkpt>
      <trkpt lat="45.71422" lon="4.76978">
        <ele>240.94763183594</ele>
        <time>2011-12-04T03:57:51Z</time>
      </trkpt>
      <trkpt lat="45.71436" lon="4.76976">
        <ele>242.87023925781</ele>
        <time>2011-12-04T03:57:56Z</time>
      </trkpt>
      <trkpt lat="45.71447" lon="4.76973">
        <ele>244.79284667969</ele>
        <time>2011-12-04T03:58:00Z</time>
      </trkpt>
      <trkpt lat="45.71463" lon="4.76968">
        <ele>248.15759277344</ele>
        <time>2011-12-04T03:58:05Z</time>
      </trkpt>
      <trkpt lat="45.71478" lon="4.76969">
        <ele>249.59948730469</ele>
        <time>2011-12-04T03:58:10Z</time>
      </trkpt>
      <trkpt lat="45.71488" lon="4.76968">
        <ele>250.56079101562</ele>
        <time>2011-12-04T03:58:13Z</time>
      </trkpt>
      <trkpt lat="45.715" lon="4.76962">
        <ele>251.04138183594</ele>
        <time>2011-12-04T03:58:17Z</time>
      </trkpt>
      <trkpt lat="45.71513" lon="4.76959">
        <ele>252.00280761719</ele>
        <time>2011-12-04T03:58:21Z</time>
      </trkpt>
      <trkpt lat="45.71528" lon="4.76954">
        <ele>252.4833984375</ele>
        <time>2011-12-04T03:58:26Z</time>
      </trkpt>
      <trkpt lat="45.71543" lon="4.7695">
        <ele>252.00280761719</ele>
        <time>2011-12-04T03:58:31Z</time>
      </trkpt>
      <trkpt lat="45.71557" lon="4.76945">
        <ele>251.04138183594</ele>
        <time>2011-12-04T03:58:35Z</time>
      </trkpt>
      <trkpt lat="45.71573" lon="4.76936">
        <ele>249.59948730469</ele>
        <time>2011-12-04T03:58:40Z</time>
      </trkpt>
      <trkpt lat="45.71585" lon="4.76933">
        <ele>249.59948730469</ele>
        <time>2011-12-04T03:58:44Z</time>
      </trkpt>
      <trkpt lat="45.71601" lon="4.76928">
        <ele>249.59948730469</ele>
        <time>2011-12-04T03:58:49Z</time>
      </trkpt>
      <trkpt lat="45.71604" lon="4.76928">
        <ele>250.08020019531</ele>
        <time>2011-12-04T03:58:50Z</time>
      </trkpt>
      <trkpt lat="45.71612" lon="4.76943">
        <ele>249.59948730469</ele>
        <time>2011-12-04T03:58:54Z</time>
      </trkpt>
      <trkpt lat="45.71613" lon="4.76963">
        <ele>249.59948730469</ele>
        <time>2011-12-04T03:58:58Z</time>
      </trkpt>
      <trkpt lat="45.71612" lon="4.76985">
        <ele>249.59948730469</ele>
        <time>2011-12-04T03:59:03Z</time>
      </trkpt>
      <trkpt lat="45.71624" lon="4.76991">
        <ele>251.04138183594</ele>
        <time>2011-12-04T03:59:08Z</time>
      </trkpt>
      <trkpt lat="45.71639" lon="4.76995">
        <ele>251.04138183594</ele>
        <time>2011-12-04T03:59:13Z</time>
      </trkpt>
      <trkpt lat="45.71661" lon="4.77001">
        <ele>250.56079101562</ele>
        <time>2011-12-04T03:59:19Z</time>
      </trkpt>
      <trkpt lat="45.71679" lon="4.77007">
        <ele>249.59948730469</ele>
        <time>2011-12-04T03:59:24Z</time>
      </trkpt>
      <trkpt lat="45.71698" lon="4.77014">
        <ele>251.52209472656</ele>
        <time>2011-12-04T03:59:31Z</time>
      </trkpt>
      <trkpt lat="45.71705" lon="4.77016">
        <ele>251.04138183594</ele>
        <time>2011-12-04T03:59:34Z</time>
      </trkpt>
      <trkpt lat="45.71719" lon="4.7702">
        <ele>251.04138183594</ele>
        <time>2011-12-04T03:59:39Z</time>
      </trkpt>
      <trkpt lat="45.71729" lon="4.77022">
        <ele>250.56079101562</ele>
        <time>2011-12-04T03:59:42Z</time>
      </trkpt>
      <trkpt lat="45.71734" lon="4.77027">
        <ele>250.08020019531</ele>
        <time>2011-12-04T03:59:44Z</time>
      </trkpt>
      <trkpt lat="45.7174" lon="4.77049">
        <ele>249.59948730469</ele>
        <time>2011-12-04T03:59:50Z</time>
      </trkpt>
      <trkpt lat="45.71742" lon="4.77053">
        <ele>249.11877441406</ele>
        <time>2011-12-04T03:59:51Z</time>
      </trkpt>
      <trkpt lat="45.71751" lon="4.77059">
        <ele>249.59948730469</ele>
        <time>2011-12-04T03:59:55Z</time>
      </trkpt>
      <trkpt lat="45.71772" lon="4.77058">
        <ele>249.59948730469</ele>
        <time>2011-12-04T04:00:02Z</time>
      </trkpt>
      <trkpt lat="45.71789" lon="4.77056">
        <ele>249.11877441406</ele>
        <time>2011-12-04T04:00:07Z</time>
      </trkpt>
      <trkpt lat="45.71804" lon="4.77051">
        <ele>249.11877441406</ele>
        <time>2011-12-04T04:00:12Z</time>
      </trkpt>
      <trkpt lat="45.71818" lon="4.77053">
        <ele>249.11877441406</ele>
        <time>2011-12-04T04:00:16Z</time>
      </trkpt>
      <trkpt lat="45.71835" lon="4.77059">
        <ele>249.11877441406</ele>
        <time>2011-12-04T04:00:21Z</time>
      </trkpt>
      <trkpt lat="45.71847" lon="4.77063">
        <ele>249.59948730469</ele>
        <time>2011-12-04T04:00:25Z</time>
      </trkpt>
      <trkpt lat="45.71861" lon="4.77066">
        <ele>247.19604492188</ele>
        <time>2011-12-04T04:00:30Z</time>
      </trkpt>
      <trkpt lat="45.71878" lon="4.7707">
        <ele>247.19604492188</ele>
        <time>2011-12-04T04:00:36Z</time>
      </trkpt>
      <trkpt lat="45.71897" lon="4.77076">
        <ele>243.35083007812</ele>
        <time>2011-12-04T04:00:41Z</time>
      </trkpt>
      <trkpt lat="45.71917" lon="4.77082">
        <ele>240.94763183594</ele>
        <time>2011-12-04T04:00:46Z</time>
      </trkpt>
      <trkpt lat="45.71925" lon="4.77086">
        <ele>239.50549316406</ele>
        <time>2011-12-04T04:00:49Z</time>
      </trkpt>
      <trkpt lat="45.71931" lon="4.77103">
        <ele>239.50549316406</ele>
        <time>2011-12-04T04:00:54Z</time>
      </trkpt>
      <trkpt lat="45.71936" lon="4.77127">
        <ele>242.3896484375</ele>
        <time>2011-12-04T04:01:00Z</time>
      </trkpt>
      <trkpt lat="45.71937" lon="4.77142">
        <ele>243.83154296875</ele>
        <time>2011-12-04T04:01:04Z</time>
      </trkpt>
      <trkpt lat="45.71932" lon="4.77158">
        <ele>243.83154296875</ele>
        <time>2011-12-04T04:01:08Z</time>
      </trkpt>
      <trkpt lat="45.71922" lon="4.77178">
        <ele>243.35083007812</ele>
        <time>2011-12-04T04:01:13Z</time>
      </trkpt>
      <trkpt lat="45.71918" lon="4.772">
        <ele>242.3896484375</ele>
        <time>2011-12-04T04:01:18Z</time>
      </trkpt>
      <trkpt lat="45.71918" lon="4.77222">
        <ele>241.90893554688</ele>
        <time>2011-12-04T04:01:23Z</time>
      </trkpt>
      <trkpt lat="45.71922" lon="4.77243">
        <ele>240.94763183594</ele>
        <time>2011-12-04T04:01:28Z</time>
      </trkpt>
      <trkpt lat="45.71928" lon="4.77261">
        <ele>240.94763183594</ele>
        <time>2011-12-04T04:01:33Z</time>
      </trkpt>
      <trkpt lat="45.71931" lon="4.77263">
        <ele>240.94763183594</ele>
        <time>2011-12-04T04:01:34Z</time>
      </trkpt>
      <trkpt lat="45.71954" lon="4.77259">
        <ele>240.46704101562</ele>
        <time>2011-12-04T04:01:41Z</time>
      </trkpt>
      <trkpt lat="45.71969" lon="4.77253">
        <ele>239.98620605469</ele>
        <time>2011-12-04T04:01:46Z</time>
      </trkpt>
      <trkpt lat="45.7199" lon="4.77246">
        <ele>238.54431152344</ele>
        <time>2011-12-04T04:01:53Z</time>
      </trkpt>
      <trkpt lat="45.72005" lon="4.77236">
        <ele>240.94763183594</ele>
        <time>2011-12-04T04:01:58Z</time>
      </trkpt>
      <trkpt lat="45.72019" lon="4.77231">
        <ele>243.83154296875</ele>
        <time>2011-12-04T04:02:03Z</time>
      </trkpt>
      <trkpt lat="45.72033" lon="4.77231">
        <ele>246.23486328125</ele>
        <time>2011-12-04T04:02:08Z</time>
      </trkpt>
      <trkpt lat="45.72046" lon="4.77249">
        <ele>242.87023925781</ele>
        <time>2011-12-04T04:02:13Z</time>
      </trkpt>
      <trkpt lat="45.72055" lon="4.77268">
        <ele>240.94763183594</ele>
        <time>2011-12-04T04:02:17Z</time>
      </trkpt>
      <trkpt lat="45.72062" lon="4.77293">
        <ele>238.54431152344</ele>
        <time>2011-12-04T04:02:22Z</time>
      </trkpt>
      <trkpt lat="45.72067" lon="4.77315">
        <ele>238.06359863281</ele>
        <time>2011-12-04T04:02:27Z</time>
      </trkpt>
      <trkpt lat="45.72071" lon="4.77333">
        <ele>237.10229492188</ele>
        <time>2011-12-04T04:02:31Z</time>
      </trkpt>
      <trkpt lat="45.72076" lon="4.77356">
        <ele>236.14099121094</ele>
        <time>2011-12-04T04:02:36Z</time>
      </trkpt>
      <trkpt lat="45.72073" lon="4.77375">
        <ele>235.66027832031</ele>
        <time>2011-12-04T04:02:40Z</time>
      </trkpt>
      <trkpt lat="45.72066" lon="4.7739">
        <ele>235.1796875</ele>
        <time>2011-12-04T04:02:44Z</time>
      </trkpt>
      <trkpt lat="45.72061" lon="4.7741">
        <ele>233.73767089844</ele>
        <time>2011-12-04T04:02:48Z</time>
      </trkpt>
      <trkpt lat="45.72055" lon="4.77429">
        <ele>231.81494140625</ele>
        <time>2011-12-04T04:02:52Z</time>
      </trkpt>
      <trkpt lat="45.72056" lon="4.77434">
        <ele>230.85375976562</ele>
        <time>2011-12-04T04:02:53Z</time>
      </trkpt>
      <trkpt lat="45.72071" lon="4.77448">
        <ele>229.89233398438</ele>
        <time>2011-12-04T04:02:59Z</time>
      </trkpt>
      <trkpt lat="45.72085" lon="4.77453">
        <ele>225.56652832031</ele>
        <time>2011-12-04T04:03:03Z</time>
      </trkpt>
      <trkpt lat="45.72096" lon="4.77458">
        <ele>223.64379882812</ele>
        <time>2011-12-04T04:03:07Z</time>
      </trkpt>
      <trkpt lat="45.72115" lon="4.77464">
        <ele>219.79858398438</ele>
        <time>2011-12-04T04:03:13Z</time>
      </trkpt>
      <trkpt lat="45.72118" lon="4.77464">
        <ele>219.31799316406</ele>
        <time>2011-12-04T04:03:14Z</time>
      </trkpt>
      <trkpt lat="45.72133" lon="4.7747">
        <ele>218.83728027344</ele>
        <time>2011-12-04T04:03:19Z</time>
      </trkpt>
      <trkpt lat="45.72147" lon="4.77477">
        <ele>217.8759765625</ele>
        <time>2011-12-04T04:03:24Z</time>
      </trkpt>
      <trkpt lat="45.72163" lon="4.77486">
        <ele>216.91467285156</ele>
        <time>2011-12-04T04:03:29Z</time>
      </trkpt>
      <trkpt lat="45.72166" lon="4.77487">
        <ele>216.91467285156</ele>
        <time>2011-12-04T04:03:30Z</time>
      </trkpt>
      <trkpt lat="45.72184" lon="4.77496">
        <ele>218.83728027344</ele>
        <time>2011-12-04T04:03:36Z</time>
      </trkpt>
      <trkpt lat="45.72203" lon="4.77505">
        <ele>220.75988769531</ele>
        <time>2011-12-04T04:03:43Z</time>
      </trkpt>
      <trkpt lat="45.72218" lon="4.77515">
        <ele>220.27917480469</ele>
        <time>2011-12-04T04:03:48Z</time>
      </trkpt>
      <trkpt lat="45.72234" lon="4.77528">
        <ele>223.16320800781</ele>
        <time>2011-12-04T04:03:53Z</time>
      </trkpt>
      <trkpt lat="45.72248" lon="4.7754">
        <ele>223.64379882812</ele>
        <time>2011-12-04T04:03:58Z</time>
      </trkpt>
      <trkpt lat="45.72266" lon="4.77555">
        <ele>219.79858398438</ele>
        <time>2011-12-04T04:04:04Z</time>
      </trkpt>
      <trkpt lat="45.72283" lon="4.77568">
        <ele>218.83728027344</ele>
        <time>2011-12-04T04:04:09Z</time>
      </trkpt>
      <trkpt lat="45.72298" lon="4.77579">
        <ele>216.91467285156</ele>
        <time>2011-12-04T04:04:14Z</time>
      </trkpt>
      <trkpt lat="45.72316" lon="4.77595">
        <ele>211.62744140625</ele>
        <time>2011-12-04T04:04:20Z</time>
      </trkpt>
      <trkpt lat="45.72329" lon="4.77605">
        <ele>208.74340820312</ele>
        <time>2011-12-04T04:04:24Z</time>
      </trkpt>
      <trkpt lat="45.72343" lon="4.77616">
        <ele>205.85949707031</ele>
        <time>2011-12-04T04:04:28Z</time>
      </trkpt>
      <trkpt lat="45.72361" lon="4.77627">
        <ele>204.41748046875</ele>
        <time>2011-12-04T04:04:34Z</time>
      </trkpt>
      <trkpt lat="45.72382" lon="4.7763">
        <ele>204.41748046875</ele>
        <time>2011-12-04T04:04:40Z</time>
      </trkpt>
      <trkpt lat="45.72395" lon="4.77638">
        <ele>202.97546386719</ele>
        <time>2011-12-04T04:04:44Z</time>
      </trkpt>
      <trkpt lat="45.72398" lon="4.77641">
        <ele>202.97546386719</ele>
        <time>2011-12-04T04:04:45Z</time>
      </trkpt>
      <trkpt lat="45.72412" lon="4.77655">
        <ele>202.01428222656</ele>
        <time>2011-12-04T04:04:50Z</time>
      </trkpt>
      <trkpt lat="45.72421" lon="4.77669">
        <ele>201.53356933594</ele>
        <time>2011-12-04T04:04:54Z</time>
      </trkpt>
      <trkpt lat="45.72434" lon="4.77687">
        <ele>200.572265625</ele>
        <time>2011-12-04T04:04:59Z</time>
      </trkpt>
      <trkpt lat="45.72449" lon="4.77702">
        <ele>200.572265625</ele>
        <time>2011-12-04T04:05:04Z</time>
      </trkpt>
      <trkpt lat="45.72461" lon="4.77712">
        <ele>201.05285644531</ele>
        <time>2011-12-04T04:05:08Z</time>
      </trkpt>
      <trkpt lat="45.72475" lon="4.77726">
        <ele>199.61083984375</ele>
        <time>2011-12-04T04:05:13Z</time>
      </trkpt>
      <trkpt lat="45.7249" lon="4.77738">
        <ele>197.68823242188</ele>
        <time>2011-12-04T04:05:18Z</time>
      </trkpt>
      <trkpt lat="45.72509" lon="4.77754">
        <ele>196.72692871094</ele>
        <time>2011-12-04T04:05:24Z</time>
      </trkpt>
      <trkpt lat="45.72523" lon="4.77769">
        <ele>195.765625</ele>
        <time>2011-12-04T04:05:29Z</time>
      </trkpt>
      <trkpt lat="45.72532" lon="4.77794">
        <ele>195.28491210938</ele>
        <time>2011-12-04T04:05:35Z</time>
      </trkpt>
      <trkpt lat="45.72536" lon="4.7782">
        <ele>191.43957519531</ele>
        <time>2011-12-04T04:05:41Z</time>
      </trkpt>
      <trkpt lat="45.7254" lon="4.77842">
        <ele>187.11376953125</ele>
        <time>2011-12-04T04:05:46Z</time>
      </trkpt>
      <trkpt lat="45.72541" lon="4.77847">
        <ele>186.63317871094</ele>
        <time>2011-12-04T04:05:48Z</time>
      </trkpt>
      <trkpt lat="45.72541" lon="4.77861">
        <ele>184.22985839844</ele>
        <time>2011-12-04T04:05:52Z</time>
      </trkpt>
      <trkpt lat="45.72541" lon="4.77866">
        <ele>184.22985839844</ele>
        <time>2011-12-04T04:05:53Z</time>
      </trkpt>
      <trkpt lat="45.72543" lon="4.77885">
        <ele>182.78784179688</ele>
        <time>2011-12-04T04:05:57Z</time>
      </trkpt>
      <trkpt lat="45.7253" lon="4.77906">
        <ele>181.82641601562</ele>
        <time>2011-12-04T04:06:03Z</time>
      </trkpt>
      <trkpt lat="45.72532" lon="4.77917">
        <ele>181.82641601562</ele>
        <time>2011-12-04T04:06:06Z</time>
      </trkpt>
      <trkpt lat="45.72535" lon="4.7792">
        <ele>180.865234375</ele>
        <time>2011-12-04T04:06:07Z</time>
      </trkpt>
      <trkpt lat="45.72547" lon="4.77936">
        <ele>178.94262695312</ele>
        <time>2011-12-04T04:06:12Z</time>
      </trkpt>
      <trkpt lat="45.72554" lon="4.7795">
        <ele>177.98120117188</ele>
        <time>2011-12-04T04:06:16Z</time>
      </trkpt>
      <trkpt lat="45.72562" lon="4.77963">
        <ele>177.50061035156</ele>
        <time>2011-12-04T04:06:21Z</time>
      </trkpt>
      <trkpt lat="45.72576" lon="4.77961">
        <ele>178.94262695312</ele>
        <time>2011-12-04T04:06:27Z</time>
      </trkpt>
      <trkpt lat="45.72588" lon="4.77954">
        <ele>180.38452148438</ele>
        <time>2011-12-04T04:06:32Z</time>
      </trkpt>
      <trkpt lat="45.72602" lon="4.77946">
        <ele>185.67175292969</ele>
        <time>2011-12-04T04:06:38Z</time>
      </trkpt>
      <trkpt lat="45.72612" lon="4.77935">
        <ele>185.67175292969</ele>
        <time>2011-12-04T04:06:43Z</time>
      </trkpt>
      <trkpt lat="45.72623" lon="4.77928">
        <ele>187.11376953125</ele>
        <time>2011-12-04T04:06:48Z</time>
      </trkpt>
      <trkpt lat="45.72633" lon="4.77941">
        <ele>184.22985839844</ele>
        <time>2011-12-04T04:06:53Z</time>
      </trkpt>
      <trkpt lat="45.72634" lon="4.77945">
        <ele>183.7490234375</ele>
        <time>2011-12-04T04:06:54Z</time>
      </trkpt>
      <trkpt lat="45.72636" lon="4.77971">
        <ele>182.30712890625</ele>
        <time>2011-12-04T04:07:00Z</time>
      </trkpt>
      <trkpt lat="45.7264" lon="4.77989">
        <ele>181.82641601562</ele>
        <time>2011-12-04T04:07:04Z</time>
      </trkpt>
      <trkpt lat="45.72643" lon="4.78">
        <ele>182.30712890625</ele>
        <time>2011-12-04T04:07:07Z</time>
      </trkpt>
      <trkpt lat="45.72645" lon="4.78019">
        <ele>183.26843261719</ele>
        <time>2011-12-04T04:07:11Z</time>
      </trkpt>
      <trkpt lat="45.72648" lon="4.78038">
        <ele>184.71057128906</ele>
        <time>2011-12-04T04:07:16Z</time>
      </trkpt>
      <trkpt lat="45.72651" lon="4.78054">
        <ele>185.19116210938</ele>
        <time>2011-12-04T04:07:20Z</time>
      </trkpt>
      <trkpt lat="45.72652" lon="4.78069">
        <ele>184.71057128906</ele>
        <time>2011-12-04T04:07:24Z</time>
      </trkpt>
      <trkpt lat="45.72655" lon="4.78087">
        <ele>186.63317871094</ele>
        <time>2011-12-04T04:07:29Z</time>
      </trkpt>
      <trkpt lat="45.72657" lon="4.78102">
        <ele>187.59436035156</ele>
        <time>2011-12-04T04:07:33Z</time>
      </trkpt>
      <trkpt lat="45.72659" lon="4.78119">
        <ele>189.51696777344</ele>
        <time>2011-12-04T04:07:38Z</time>
      </trkpt>
      <trkpt lat="45.72654" lon="4.78133">
        <ele>194.80432128906</ele>
        <time>2011-12-04T04:07:43Z</time>
      </trkpt>
      <trkpt lat="45.72647" lon="4.78143">
        <ele>197.20751953125</ele>
        <time>2011-12-04T04:07:47Z</time>
      </trkpt>
      <trkpt lat="45.72639" lon="4.78153">
        <ele>202.01428222656</ele>
        <time>2011-12-04T04:07:52Z</time>
      </trkpt>
      <trkpt lat="45.72638" lon="4.78155">
        <ele>202.49487304688</ele>
        <time>2011-12-04T04:07:53Z</time>
      </trkpt>
      <trkpt lat="45.72633" lon="4.78163">
        <ele>203.93688964844</ele>
        <time>2011-12-04T04:07:58Z</time>
      </trkpt>
      <trkpt lat="45.72631" lon="4.7817">
        <ele>206.34008789062</ele>
        <time>2011-12-04T04:08:01Z</time>
      </trkpt>
      <trkpt lat="45.72631" lon="4.78183">
        <ele>206.82067871094</ele>
        <time>2011-12-04T04:08:05Z</time>
      </trkpt>
      <trkpt lat="45.72631" lon="4.78186">
        <ele>206.82067871094</ele>
        <time>2011-12-04T04:08:06Z</time>
      </trkpt>
      <trkpt lat="45.72628" lon="4.78201">
        <ele>210.666015625</ele>
        <time>2011-12-04T04:08:12Z</time>
      </trkpt>
      <trkpt lat="45.72625" lon="4.78214">
        <ele>214.99194335938</ele>
        <time>2011-12-04T04:08:19Z</time>
      </trkpt>
      <trkpt lat="45.72625" lon="4.78219">
        <ele>215.47265625</ele>
        <time>2011-12-04T04:08:22Z</time>
      </trkpt>
      <trkpt lat="45.7263" lon="4.78234">
        <ele>217.39538574219</ele>
        <time>2011-12-04T04:08:30Z</time>
      </trkpt>
      <trkpt lat="45.7263" lon="4.78236">
        <ele>217.39538574219</ele>
        <time>2011-12-04T04:08:31Z</time>
      </trkpt>
      <trkpt lat="45.72633" lon="4.78249">
        <ele>218.83728027344</ele>
        <time>2011-12-04T04:08:39Z</time>
      </trkpt>
      <trkpt lat="45.72638" lon="4.78265">
        <ele>218.35656738281</ele>
        <time>2011-12-04T04:08:47Z</time>
      </trkpt>
      <trkpt lat="45.72641" lon="4.78278">
        <ele>219.31799316406</ele>
        <time>2011-12-04T04:08:54Z</time>
      </trkpt>
      <trkpt lat="45.72643" lon="4.78287">
        <ele>219.79858398438</ele>
        <time>2011-12-04T04:08:59Z</time>
      </trkpt>
      <trkpt lat="45.72644" lon="4.78291">
        <ele>220.75988769531</ele>
        <time>2011-12-04T04:09:01Z</time>
      </trkpt>
      <trkpt lat="45.72647" lon="4.78298">
        <ele>221.72119140625</ele>
        <time>2011-12-04T04:09:05Z</time>
      </trkpt>
      <trkpt lat="45.72649" lon="4.78308">
        <ele>221.72119140625</ele>
        <time>2011-12-04T04:09:11Z</time>
      </trkpt>
      <trkpt lat="45.72655" lon="4.78319">
        <ele>223.16320800781</ele>
        <time>2011-12-04T04:09:18Z</time>
      </trkpt>
      <trkpt lat="45.72662" lon="4.78333">
        <ele>224.12451171875</ele>
        <time>2011-12-04T04:09:27Z</time>
      </trkpt>
      <trkpt lat="45.72667" lon="4.78344">
        <ele>226.04711914062</ele>
        <time>2011-12-04T04:09:33Z</time>
      </trkpt>
      <trkpt lat="45.72672" lon="4.78366">
        <ele>228.93115234375</ele>
        <time>2011-12-04T04:09:43Z</time>
      </trkpt>
      <trkpt lat="45.72674" lon="4.78381">
        <ele>231.81494140625</ele>
        <time>2011-12-04T04:09:50Z</time>
      </trkpt>
      <trkpt lat="45.72678" lon="4.78394">
        <ele>233.25708007812</ele>
        <time>2011-12-04T04:09:57Z</time>
      </trkpt>
      <trkpt lat="45.72679" lon="4.78396">
        <ele>233.73767089844</ele>
        <time>2011-12-04T04:09:58Z</time>
      </trkpt>
      <trkpt lat="45.72679" lon="4.78412">
        <ele>235.66027832031</ele>
        <time>2011-12-04T04:10:03Z</time>
      </trkpt>
      <trkpt lat="45.72681" lon="4.78426">
        <ele>236.62170410156</ele>
        <time>2011-12-04T04:10:08Z</time>
      </trkpt>
      <trkpt lat="45.72681" lon="4.78441">
        <ele>238.06359863281</ele>
        <time>2011-12-04T04:10:12Z</time>
      </trkpt>
      <trkpt lat="45.7268" lon="4.78447">
        <ele>238.54431152344</ele>
        <time>2011-12-04T04:10:14Z</time>
      </trkpt>
      <trkpt lat="45.72685" lon="4.7846">
        <ele>239.50549316406</ele>
        <time>2011-12-04T04:10:18Z</time>
      </trkpt>
      <trkpt lat="45.72689" lon="4.78479">
        <ele>240.94763183594</ele>
        <time>2011-12-04T04:10:23Z</time>
      </trkpt>
      <trkpt lat="45.72691" lon="4.78498">
        <ele>243.35083007812</ele>
        <time>2011-12-04T04:10:28Z</time>
      </trkpt>
      <trkpt lat="45.72692" lon="4.78508">
        <ele>244.31225585938</ele>
        <time>2011-12-04T04:10:30Z</time>
      </trkpt>
      <trkpt lat="45.72699" lon="4.78525">
        <ele>244.79284667969</ele>
        <time>2011-12-04T04:10:36Z</time>
      </trkpt>
      <trkpt lat="45.72701" lon="4.78541">
        <ele>245.2734375</ele>
        <time>2011-12-04T04:10:41Z</time>
      </trkpt>
      <trkpt lat="45.72702" lon="4.78551">
        <ele>246.23486328125</ele>
        <time>2011-12-04T04:10:44Z</time>
      </trkpt>
      <trkpt lat="45.72701" lon="4.78559">
        <ele>247.19604492188</ele>
        <time>2011-12-04T04:10:46Z</time>
      </trkpt>
      <trkpt lat="45.72706" lon="4.78569">
        <ele>248.63818359375</ele>
        <time>2011-12-04T04:10:50Z</time>
      </trkpt>
      <trkpt lat="45.7271" lon="4.78579">
        <ele>250.56079101562</ele>
        <time>2011-12-04T04:10:53Z</time>
      </trkpt>
      <trkpt lat="45.72707" lon="4.78592">
        <ele>252.4833984375</ele>
        <time>2011-12-04T04:10:57Z</time>
      </trkpt>
      <trkpt lat="45.7271" lon="4.78603">
        <ele>253.92541503906</ele>
        <time>2011-12-04T04:11:01Z</time>
      </trkpt>
      <trkpt lat="45.7271" lon="4.78606">
        <ele>253.92541503906</ele>
        <time>2011-12-04T04:11:02Z</time>
      </trkpt>
      <trkpt lat="45.72711" lon="4.78623">
        <ele>254.40600585938</ele>
        <time>2011-12-04T04:11:07Z</time>
      </trkpt>
      <trkpt lat="45.72712" lon="4.78632">
        <ele>255.36730957031</ele>
        <time>2011-12-04T04:11:11Z</time>
      </trkpt>
      <trkpt lat="45.72715" lon="4.78651">
        <ele>257.77075195312</ele>
        <time>2011-12-04T04:11:20Z</time>
      </trkpt>
      <trkpt lat="45.72714" lon="4.78668">
        <ele>260.17395019531</ele>
        <time>2011-12-04T04:11:28Z</time>
      </trkpt>
      <trkpt lat="45.72717" lon="4.78679">
        <ele>261.13525390625</ele>
        <time>2011-12-04T04:11:34Z</time>
      </trkpt>
      <trkpt lat="45.72722" lon="4.7869">
        <ele>262.09655761719</ele>
        <time>2011-12-04T04:11:40Z</time>
      </trkpt>
      <trkpt lat="45.72728" lon="4.78702">
        <ele>263.05786132812</ele>
        <time>2011-12-04T04:11:46Z</time>
      </trkpt>
      <trkpt lat="45.7273" lon="4.78705">
        <ele>263.05786132812</ele>
        <time>2011-12-04T04:11:48Z</time>
      </trkpt>
      <trkpt lat="45.72738" lon="4.78719">
        <ele>264.49987792969</ele>
        <time>2011-12-04T04:11:56Z</time>
      </trkpt>
      <trkpt lat="45.72744" lon="4.78726">
        <ele>265.94189453125</ele>
        <time>2011-12-04T04:12:01Z</time>
      </trkpt>
      <trkpt lat="45.72754" lon="4.78738">
        <ele>267.38391113281</ele>
        <time>2011-12-04T04:12:09Z</time>
      </trkpt>
      <trkpt lat="45.72756" lon="4.7874">
        <ele>267.38391113281</ele>
        <time>2011-12-04T04:12:10Z</time>
      </trkpt>
      <trkpt lat="45.72766" lon="4.78748">
        <ele>268.82580566406</ele>
        <time>2011-12-04T04:12:15Z</time>
      </trkpt>
      <trkpt lat="45.72771" lon="4.78757">
        <ele>269.787109375</ele>
        <time>2011-12-04T04:12:18Z</time>
      </trkpt>
      <trkpt lat="45.72783" lon="4.78776">
        <ele>272.67114257812</ele>
        <time>2011-12-04T04:12:25Z</time>
      </trkpt>
      <trkpt lat="45.72791" lon="4.78789">
        <ele>274.11303710938</ele>
        <time>2011-12-04T04:12:30Z</time>
      </trkpt>
      <trkpt lat="45.72799" lon="4.78802">
        <ele>276.03564453125</ele>
        <time>2011-12-04T04:12:35Z</time>
      </trkpt>
      <trkpt lat="45.72809" lon="4.78821">
        <ele>277.47766113281</ele>
        <time>2011-12-04T04:12:41Z</time>
      </trkpt>
      <trkpt lat="45.72816" lon="4.78833">
        <ele>277.47766113281</ele>
        <time>2011-12-04T04:12:45Z</time>
      </trkpt>
      <trkpt lat="45.72825" lon="4.78849">
        <ele>279.40026855469</ele>
        <time>2011-12-04T04:12:50Z</time>
      </trkpt>
      <trkpt lat="45.72832" lon="4.78862">
        <ele>281.32299804688</ele>
        <time>2011-12-04T04:12:54Z</time>
      </trkpt>
      <trkpt lat="45.72842" lon="4.78876">
        <ele>283.72619628906</ele>
        <time>2011-12-04T04:12:59Z</time>
      </trkpt>
      <trkpt lat="45.72847" lon="4.78893">
        <ele>285.64880371094</ele>
        <time>2011-12-04T04:13:04Z</time>
      </trkpt>
      <trkpt lat="45.72849" lon="4.78897">
        <ele>285.64880371094</ele>
        <time>2011-12-04T04:13:05Z</time>
      </trkpt>
      <trkpt lat="45.72852" lon="4.78913">
        <ele>286.12951660156</ele>
        <time>2011-12-04T04:13:09Z</time>
      </trkpt>
      <trkpt lat="45.72865" lon="4.78935">
        <ele>285.64880371094</ele>
        <time>2011-12-04T04:13:16Z</time>
      </trkpt>
      <trkpt lat="45.72877" lon="4.78962">
        <ele>285.64880371094</ele>
        <time>2011-12-04T04:13:24Z</time>
      </trkpt>
      <trkpt lat="45.72885" lon="4.78978">
        <ele>285.64880371094</ele>
        <time>2011-12-04T04:13:29Z</time>
      </trkpt>
      <trkpt lat="45.7289" lon="4.78992">
        <ele>286.12951660156</ele>
        <time>2011-12-04T04:13:33Z</time>
      </trkpt>
      <trkpt lat="45.72899" lon="4.79007">
        <ele>286.12951660156</ele>
        <time>2011-12-04T04:13:38Z</time>
      </trkpt>
      <trkpt lat="45.72909" lon="4.79026">
        <ele>286.12951660156</ele>
        <time>2011-12-04T04:13:44Z</time>
      </trkpt>
      <trkpt lat="45.72921" lon="4.79042">
        <ele>287.0908203125</ele>
        <time>2011-12-04T04:13:50Z</time>
      </trkpt>
      <trkpt lat="45.7293" lon="4.79055">
        <ele>287.57141113281</ele>
        <time>2011-12-04T04:13:55Z</time>
      </trkpt>
      <trkpt lat="45.72941" lon="4.79066">
        <ele>287.57141113281</ele>
        <time>2011-12-04T04:14:00Z</time>
      </trkpt>
      <trkpt lat="45.72954" lon="4.79082">
        <ele>287.0908203125</ele>
        <time>2011-12-04T04:14:06Z</time>
      </trkpt>
      <trkpt lat="45.72961" lon="4.79094">
        <ele>287.0908203125</ele>
        <time>2011-12-04T04:14:10Z</time>
      </trkpt>
      <trkpt lat="45.72979" lon="4.79112">
        <ele>288.53295898438</ele>
        <time>2011-12-04T04:14:17Z</time>
      </trkpt>
      <trkpt lat="45.7299" lon="4.79124">
        <ele>289.97485351562</ele>
        <time>2011-12-04T04:14:22Z</time>
      </trkpt>
      <trkpt lat="45.73004" lon="4.79139">
        <ele>290.45556640625</ele>
        <time>2011-12-04T04:14:28Z</time>
      </trkpt>
      <trkpt lat="45.73018" lon="4.79152">
        <ele>289.01354980469</ele>
        <time>2011-12-04T04:14:33Z</time>
      </trkpt>
      <trkpt lat="45.73028" lon="4.79166">
        <ele>288.53295898438</ele>
        <time>2011-12-04T04:14:37Z</time>
      </trkpt>
      <trkpt lat="45.73037" lon="4.79188">
        <ele>289.01354980469</ele>
        <time>2011-12-04T04:14:43Z</time>
      </trkpt>
      <trkpt lat="45.73049" lon="4.79214">
        <ele>289.494140625</ele>
        <time>2011-12-04T04:14:50Z</time>
      </trkpt>
      <trkpt lat="45.73059" lon="4.79233">
        <ele>288.53295898438</ele>
        <time>2011-12-04T04:14:55Z</time>
      </trkpt>
      <trkpt lat="45.73068" lon="4.7925">
        <ele>288.53295898438</ele>
        <time>2011-12-04T04:15:00Z</time>
      </trkpt>
      <trkpt lat="45.73075" lon="4.79267">
        <ele>289.01354980469</ele>
        <time>2011-12-04T04:15:05Z</time>
      </trkpt>
      <trkpt lat="45.73079" lon="4.7928">
        <ele>289.494140625</ele>
        <time>2011-12-04T04:15:08Z</time>
      </trkpt>
      <trkpt lat="45.73085" lon="4.79303">
        <ele>289.97485351562</ele>
        <time>2011-12-04T04:15:14Z</time>
      </trkpt>
      <trkpt lat="45.73094" lon="4.79321">
        <ele>289.97485351562</ele>
        <time>2011-12-04T04:15:19Z</time>
      </trkpt>
      <trkpt lat="45.73109" lon="4.79346">
        <ele>290.45556640625</ele>
        <time>2011-12-04T04:15:26Z</time>
      </trkpt>
      <trkpt lat="45.73123" lon="4.79369">
        <ele>291.41674804688</ele>
        <time>2011-12-04T04:15:33Z</time>
      </trkpt>
      <trkpt lat="45.73132" lon="4.79384">
        <ele>290.93615722656</ele>
        <time>2011-12-04T04:15:38Z</time>
      </trkpt>
      <trkpt lat="45.7314" lon="4.794">
        <ele>290.45556640625</ele>
        <time>2011-12-04T04:15:43Z</time>
      </trkpt>
      <trkpt lat="45.73148" lon="4.79417">
        <ele>290.45556640625</ele>
        <time>2011-12-04T04:15:48Z</time>
      </trkpt>
      <trkpt lat="45.73154" lon="4.79431">
        <ele>291.41674804688</ele>
        <time>2011-12-04T04:15:52Z</time>
      </trkpt>
      <trkpt lat="45.73166" lon="4.79449">
        <ele>291.41674804688</ele>
        <time>2011-12-04T04:15:58Z</time>
      </trkpt>
      <trkpt lat="45.73179" lon="4.79471">
        <ele>292.37817382812</ele>
        <time>2011-12-04T04:16:05Z</time>
      </trkpt>
      <trkpt lat="45.7319" lon="4.79487">
        <ele>292.37817382812</ele>
        <time>2011-12-04T04:16:10Z</time>
      </trkpt>
      <trkpt lat="45.73195" lon="4.79496">
        <ele>292.37817382812</ele>
        <time>2011-12-04T04:16:13Z</time>
      </trkpt>
      <trkpt lat="45.73206" lon="4.79514">
        <ele>293.33935546875</ele>
        <time>2011-12-04T04:16:18Z</time>
      </trkpt>
      <trkpt lat="45.73214" lon="4.79527">
        <ele>293.33935546875</ele>
        <time>2011-12-04T04:16:22Z</time>
      </trkpt>
      <trkpt lat="45.73224" lon="4.79544">
        <ele>294.30078125</ele>
        <time>2011-12-04T04:16:27Z</time>
      </trkpt>
      <trkpt lat="45.7324" lon="4.79567">
        <ele>295.26196289062</ele>
        <time>2011-12-04T04:16:34Z</time>
      </trkpt>
      <trkpt lat="45.73247" lon="4.79579">
        <ele>294.30078125</ele>
        <time>2011-12-04T04:16:38Z</time>
      </trkpt>
      <trkpt lat="45.73258" lon="4.79596">
        <ele>293.33935546875</ele>
        <time>2011-12-04T04:16:43Z</time>
      </trkpt>
      <trkpt lat="45.7327" lon="4.79612">
        <ele>292.37817382812</ele>
        <time>2011-12-04T04:16:48Z</time>
      </trkpt>
      <trkpt lat="45.73282" lon="4.79627">
        <ele>292.37817382812</ele>
        <time>2011-12-04T04:16:53Z</time>
      </trkpt>
      <trkpt lat="45.73294" lon="4.79642">
        <ele>291.8974609375</ele>
        <time>2011-12-04T04:16:58Z</time>
      </trkpt>
      <trkpt lat="45.73304" lon="4.79653">
        <ele>292.85876464844</ele>
        <time>2011-12-04T04:17:02Z</time>
      </trkpt>
      <trkpt lat="45.73317" lon="4.79668">
        <ele>291.8974609375</ele>
        <time>2011-12-04T04:17:07Z</time>
      </trkpt>
      <trkpt lat="45.73333" lon="4.79689">
        <ele>290.45556640625</ele>
        <time>2011-12-04T04:17:14Z</time>
      </trkpt>
      <trkpt lat="45.73344" lon="4.79704">
        <ele>289.97485351562</ele>
        <time>2011-12-04T04:17:19Z</time>
      </trkpt>
      <trkpt lat="45.73355" lon="4.7972">
        <ele>289.97485351562</ele>
        <time>2011-12-04T04:17:24Z</time>
      </trkpt>
      <trkpt lat="45.73364" lon="4.79736">
        <ele>290.93615722656</ele>
        <time>2011-12-04T04:17:29Z</time>
      </trkpt>
      <trkpt lat="45.73375" lon="4.79752">
        <ele>292.37817382812</ele>
        <time>2011-12-04T04:17:34Z</time>
      </trkpt>
      <trkpt lat="45.73384" lon="4.79764">
        <ele>292.37817382812</ele>
        <time>2011-12-04T04:17:38Z</time>
      </trkpt>
      <trkpt lat="45.73397" lon="4.79777">
        <ele>292.85876464844</ele>
        <time>2011-12-04T04:17:43Z</time>
      </trkpt>
      <trkpt lat="45.73408" lon="4.79793">
        <ele>293.33935546875</ele>
        <time>2011-12-04T04:17:48Z</time>
      </trkpt>
      <trkpt lat="45.7342" lon="4.79809">
        <ele>293.82006835938</ele>
        <time>2011-12-04T04:17:53Z</time>
      </trkpt>
      <trkpt lat="45.73433" lon="4.79823">
        <ele>293.82006835938</ele>
        <time>2011-12-04T04:17:58Z</time>
      </trkpt>
      <trkpt lat="45.73449" lon="4.79845">
        <ele>294.78137207031</ele>
        <time>2011-12-04T04:18:05Z</time>
      </trkpt>
      <trkpt lat="45.73463" lon="4.79862">
        <ele>295.74267578125</ele>
        <time>2011-12-04T04:18:11Z</time>
      </trkpt>
      <trkpt lat="45.73476" lon="4.79879">
        <ele>296.22351074219</ele>
        <time>2011-12-04T04:18:17Z</time>
      </trkpt>
      <trkpt lat="45.73484" lon="4.79892">
        <ele>295.26196289062</ele>
        <time>2011-12-04T04:18:21Z</time>
      </trkpt>
      <trkpt lat="45.73498" lon="4.79905">
        <ele>294.78137207031</ele>
        <time>2011-12-04T04:18:26Z</time>
      </trkpt>
      <trkpt lat="45.73508" lon="4.79916">
        <ele>296.7041015625</ele>
        <time>2011-12-04T04:18:30Z</time>
      </trkpt>
      <trkpt lat="45.73515" lon="4.79925">
        <ele>298.62670898438</ele>
        <time>2011-12-04T04:18:33Z</time>
      </trkpt>
      <trkpt lat="45.73519" lon="4.79931">
        <ele>299.58801269531</ele>
        <time>2011-12-04T04:18:35Z</time>
      </trkpt>
      <trkpt lat="45.7353" lon="4.79944">
        <ele>300.54931640625</ele>
        <time>2011-12-04T04:18:39Z</time>
      </trkpt>
      <trkpt lat="45.73539" lon="4.79952">
        <ele>300.06872558594</ele>
        <time>2011-12-04T04:18:42Z</time>
      </trkpt>
      <trkpt lat="45.7356" lon="4.79965">
        <ele>299.10729980469</ele>
        <time>2011-12-04T04:18:49Z</time>
      </trkpt>
      <trkpt lat="45.73573" lon="4.79973">
        <ele>298.62670898438</ele>
        <time>2011-12-04T04:18:54Z</time>
      </trkpt>
      <trkpt lat="45.73582" lon="4.79982">
        <ele>302.95251464844</ele>
        <time>2011-12-04T04:18:58Z</time>
      </trkpt>
      <trkpt lat="45.73596" lon="4.79989">
        <ele>308.23986816406</ele>
        <time>2011-12-04T04:19:04Z</time>
      </trkpt>
      <trkpt lat="45.73608" lon="4.79994">
        <ele>312.56579589844</ele>
        <time>2011-12-04T04:19:09Z</time>
      </trkpt>
      <trkpt lat="45.73618" lon="4.8">
        <ele>314.96911621094</ele>
        <time>2011-12-04T04:19:13Z</time>
      </trkpt>
      <trkpt lat="45.73627" lon="4.80012">
        <ele>317.85302734375</ele>
        <time>2011-12-04T04:19:18Z</time>
      </trkpt>
      <trkpt lat="45.73629" lon="4.80013">
        <ele>320.25634765625</ele>
        <time>2011-12-04T04:19:19Z</time>
      </trkpt>
      <trkpt lat="45.73642" lon="4.80019">
        <ele>329.38891601562</ele>
        <time>2011-12-04T04:19:25Z</time>
      </trkpt>
      <trkpt lat="45.73649" lon="4.80024">
        <ele>340.44409179688</ele>
        <time>2011-12-04T04:19:30Z</time>
      </trkpt>
      <trkpt lat="45.7366" lon="4.8003">
        <ele>345.73132324219</ele>
        <time>2011-12-04T04:19:35Z</time>
      </trkpt>
      <trkpt lat="45.73672" lon="4.80039">
        <ele>342.84729003906</ele>
        <time>2011-12-04T04:19:39Z</time>
      </trkpt>
      <trkpt lat="45.73682" lon="4.80044">
        <ele>338.521484375</ele>
        <time>2011-12-04T04:19:42Z</time>
      </trkpt>
      <trkpt lat="45.737" lon="4.80056">
        <ele>330.83093261719</ele>
        <time>2011-12-04T04:19:48Z</time>
      </trkpt>
      <trkpt lat="45.73706" lon="4.80061">
        <ele>327.94677734375</ele>
        <time>2011-12-04T04:19:50Z</time>
      </trkpt>
      <trkpt lat="45.73722" lon="4.80073">
        <ele>326.98559570312</ele>
        <time>2011-12-04T04:19:56Z</time>
      </trkpt>
      <trkpt lat="45.73733" lon="4.80081">
        <ele>323.62097167969</ele>
        <time>2011-12-04T04:20:00Z</time>
      </trkpt>
      <trkpt lat="45.73743" lon="4.80089">
        <ele>319.77563476562</ele>
        <time>2011-12-04T04:20:04Z</time>
      </trkpt>
      <trkpt lat="45.73746" lon="4.80091">
        <ele>319.29504394531</ele>
        <time>2011-12-04T04:20:05Z</time>
      </trkpt>
      <trkpt lat="45.73755" lon="4.80112">
        <ele>315.44982910156</ele>
        <time>2011-12-04T04:20:11Z</time>
      </trkpt>
      <trkpt lat="45.73753" lon="4.80128">
        <ele>314.0078125</ele>
        <time>2011-12-04T04:20:15Z</time>
      </trkpt>
      <trkpt lat="45.73744" lon="4.80148">
        <ele>313.04650878906</ele>
        <time>2011-12-04T04:20:20Z</time>
      </trkpt>
      <trkpt lat="45.73736" lon="4.80175">
        <ele>312.08520507812</ele>
        <time>2011-12-04T04:20:27Z</time>
      </trkpt>
      <trkpt lat="45.73733" lon="4.80191">
        <ele>312.08520507812</ele>
        <time>2011-12-04T04:20:31Z</time>
      </trkpt>
      <trkpt lat="45.73725" lon="4.80216">
        <ele>314.0078125</ele>
        <time>2011-12-04T04:20:37Z</time>
      </trkpt>
      <trkpt lat="45.73717" lon="4.80238">
        <ele>314.48840332031</ele>
        <time>2011-12-04T04:20:43Z</time>
      </trkpt>
      <trkpt lat="45.73713" lon="4.8026">
        <ele>313.52722167969</ele>
        <time>2011-12-04T04:20:48Z</time>
      </trkpt>
      <trkpt lat="45.73709" lon="4.80279">
        <ele>312.56579589844</ele>
        <time>2011-12-04T04:20:52Z</time>
      </trkpt>
      <trkpt lat="45.73706" lon="4.80298">
        <ele>311.12377929688</ele>
        <time>2011-12-04T04:20:56Z</time>
      </trkpt>
      <trkpt lat="45.73705" lon="4.80319">
        <ele>307.75927734375</ele>
        <time>2011-12-04T04:21:00Z</time>
      </trkpt>
      <trkpt lat="45.73699" lon="4.80347">
        <ele>306.7978515625</ele>
        <time>2011-12-04T04:21:05Z</time>
      </trkpt>
      <trkpt lat="45.7369" lon="4.80377">
        <ele>304.87524414062</ele>
        <time>2011-12-04T04:21:11Z</time>
      </trkpt>
      <trkpt lat="45.73689" lon="4.80383">
        <ele>305.35595703125</ele>
        <time>2011-12-04T04:21:12Z</time>
      </trkpt>
      <trkpt lat="45.7368" lon="4.80413">
        <ele>302.95251464844</ele>
        <time>2011-12-04T04:21:18Z</time>
      </trkpt>
      <trkpt lat="45.73671" lon="4.80439">
        <ele>303.43322753906</ele>
        <time>2011-12-04T04:21:23Z</time>
      </trkpt>
      <trkpt lat="45.73666" lon="4.80453">
        <ele>310.16247558594</ele>
        <time>2011-12-04T04:21:27Z</time>
      </trkpt>
      <trkpt lat="45.73674" lon="4.80472">
        <ele>312.56579589844</ele>
        <time>2011-12-04T04:21:32Z</time>
      </trkpt>
      <trkpt lat="45.73695" lon="4.80478">
        <ele>312.56579589844</ele>
        <time>2011-12-04T04:21:37Z</time>
      </trkpt>
      <trkpt lat="45.73711" lon="4.80487">
        <ele>309.201171875</ele>
        <time>2011-12-04T04:21:42Z</time>
      </trkpt>
      <trkpt lat="45.73716" lon="4.80504">
        <ele>305.83666992188</ele>
        <time>2011-12-04T04:21:46Z</time>
      </trkpt>
      <trkpt lat="45.73719" lon="4.8053">
        <ele>302.47192382812</ele>
        <time>2011-12-04T04:21:51Z</time>
      </trkpt>
      <trkpt lat="45.7372" lon="4.80535">
        <ele>301.51062011719</ele>
        <time>2011-12-04T04:21:52Z</time>
      </trkpt>
      <trkpt lat="45.73728" lon="4.80546">
        <ele>300.06872558594</ele>
        <time>2011-12-04T04:21:56Z</time>
      </trkpt>
      <trkpt lat="45.73737" lon="4.80551">
        <ele>300.06872558594</ele>
        <time>2011-12-04T04:21:59Z</time>
      </trkpt>
      <trkpt lat="45.7376" lon="4.8056">
        <ele>297.66540527344</ele>
        <time>2011-12-04T04:22:06Z</time>
      </trkpt>
      <trkpt lat="45.73777" lon="4.80569">
        <ele>299.58801269531</ele>
        <time>2011-12-04T04:22:11Z</time>
      </trkpt>
      <trkpt lat="45.73788" lon="4.80574">
        <ele>300.54931640625</ele>
        <time>2011-12-04T04:22:15Z</time>
      </trkpt>
      <trkpt lat="45.73794" lon="4.80576">
        <ele>301.02990722656</ele>
        <time>2011-12-04T04:22:17Z</time>
      </trkpt>
      <trkpt lat="45.73813" lon="4.80566">
        <ele>300.54931640625</ele>
        <time>2011-12-04T04:22:23Z</time>
      </trkpt>
      <trkpt lat="45.73829" lon="4.80556">
        <ele>302.95251464844</ele>
        <time>2011-12-04T04:22:28Z</time>
      </trkpt>
      <trkpt lat="45.73848" lon="4.8055">
        <ele>306.31726074219</ele>
        <time>2011-12-04T04:22:33Z</time>
      </trkpt>
      <trkpt lat="45.73864" lon="4.80554">
        <ele>307.75927734375</ele>
        <time>2011-12-04T04:22:38Z</time>
      </trkpt>
      <trkpt lat="45.73881" lon="4.80564">
        <ele>304.39465332031</ele>
        <time>2011-12-04T04:22:43Z</time>
      </trkpt>
      <trkpt lat="45.73893" lon="4.80579">
        <ele>302.95251464844</ele>
        <time>2011-12-04T04:22:48Z</time>
      </trkpt>
      <trkpt lat="45.73901" lon="4.80598">
        <ele>297.18469238281</ele>
        <time>2011-12-04T04:22:53Z</time>
      </trkpt>
      <trkpt lat="45.73909" lon="4.80619">
        <ele>293.82006835938</ele>
        <time>2011-12-04T04:22:58Z</time>
      </trkpt>
      <trkpt lat="45.73919" lon="4.80637">
        <ele>294.78137207031</ele>
        <time>2011-12-04T04:23:03Z</time>
      </trkpt>
      <trkpt lat="45.73922" lon="4.80644">
        <ele>295.26196289062</ele>
        <time>2011-12-04T04:23:05Z</time>
      </trkpt>
      <trkpt lat="45.73938" lon="4.8065">
        <ele>295.26196289062</ele>
        <time>2011-12-04T04:23:10Z</time>
      </trkpt>
      <trkpt lat="45.73952" lon="4.80649">
        <ele>296.7041015625</ele>
        <time>2011-12-04T04:23:14Z</time>
      </trkpt>
      <trkpt lat="45.73963" lon="4.8064">
        <ele>300.54931640625</ele>
        <time>2011-12-04T04:23:18Z</time>
      </trkpt>
      <trkpt lat="45.73982" lon="4.80628">
        <ele>302.47192382812</ele>
        <time>2011-12-04T04:23:24Z</time>
      </trkpt>
      <trkpt lat="45.73998" lon="4.80621">
        <ele>309.68188476562</ele>
        <time>2011-12-04T04:23:30Z</time>
      </trkpt>
      <trkpt lat="45.74015" lon="4.80621">
        <ele>312.56579589844</ele>
        <time>2011-12-04T04:23:35Z</time>
      </trkpt>
      <trkpt lat="45.74029" lon="4.8063">
        <ele>308.23986816406</ele>
        <time>2011-12-04T04:23:39Z</time>
      </trkpt>
      <trkpt lat="45.74057" lon="4.80644">
        <ele>301.99133300781</ele>
        <time>2011-12-04T04:23:47Z</time>
      </trkpt>
      <trkpt lat="45.74072" lon="4.80647">
        <ele>301.99133300781</ele>
        <time>2011-12-04T04:23:52Z</time>
      </trkpt>
      <trkpt lat="45.7409" lon="4.80645">
        <ele>295.74267578125</ele>
        <time>2011-12-04T04:23:57Z</time>
      </trkpt>
      <trkpt lat="45.7411" lon="4.80641">
        <ele>294.30078125</ele>
        <time>2011-12-04T04:24:03Z</time>
      </trkpt>
      <trkpt lat="45.74129" lon="4.80639">
        <ele>298.14611816406</ele>
        <time>2011-12-04T04:24:09Z</time>
      </trkpt>
      <trkpt lat="45.74143" lon="4.80636">
        <ele>303.91394042969</ele>
        <time>2011-12-04T04:24:14Z</time>
      </trkpt>
      <trkpt lat="45.7416" lon="4.80633">
        <ele>306.7978515625</ele>
        <time>2011-12-04T04:24:19Z</time>
      </trkpt>
      <trkpt lat="45.74176" lon="4.80639">
        <ele>310.16247558594</ele>
        <time>2011-12-04T04:24:24Z</time>
      </trkpt>
      <trkpt lat="45.74187" lon="4.80649">
        <ele>308.72045898438</ele>
        <time>2011-12-04T04:24:28Z</time>
      </trkpt>
      <trkpt lat="45.742" lon="4.8066">
        <ele>302.95251464844</ele>
        <time>2011-12-04T04:24:32Z</time>
      </trkpt>
      <trkpt lat="45.7421" lon="4.80673">
        <ele>296.22351074219</ele>
        <time>2011-12-04T04:24:36Z</time>
      </trkpt>
      <trkpt lat="45.74221" lon="4.80683">
        <ele>290.93615722656</ele>
        <time>2011-12-04T04:24:40Z</time>
      </trkpt>
      <trkpt lat="45.74236" lon="4.80693">
        <ele>287.57141113281</ele>
        <time>2011-12-04T04:24:45Z</time>
      </trkpt>
      <trkpt lat="45.7425" lon="4.80699">
        <ele>287.57141113281</ele>
        <time>2011-12-04T04:24:49Z</time>
      </trkpt>
      <trkpt lat="45.74266" lon="4.80708">
        <ele>287.57141113281</ele>
        <time>2011-12-04T04:24:54Z</time>
      </trkpt>
      <trkpt lat="45.74282" lon="4.80719">
        <ele>285.64880371094</ele>
        <time>2011-12-04T04:24:59Z</time>
      </trkpt>
      <trkpt lat="45.74298" lon="4.80727">
        <ele>284.68762207031</ele>
        <time>2011-12-04T04:25:04Z</time>
      </trkpt>
      <trkpt lat="45.74314" lon="4.80734">
        <ele>286.61022949219</ele>
        <time>2011-12-04T04:25:09Z</time>
      </trkpt>
      <trkpt lat="45.74331" lon="4.80744">
        <ele>284.68762207031</ele>
        <time>2011-12-04T04:25:14Z</time>
      </trkpt>
      <trkpt lat="45.7434" lon="4.80749">
        <ele>283.24560546875</ele>
        <time>2011-12-04T04:25:17Z</time>
      </trkpt>
      <trkpt lat="45.74356" lon="4.80754">
        <ele>283.24560546875</ele>
        <time>2011-12-04T04:25:22Z</time>
      </trkpt>
      <trkpt lat="45.74366" lon="4.80762">
        <ele>285.16821289062</ele>
        <time>2011-12-04T04:25:26Z</time>
      </trkpt>
      <trkpt lat="45.74381" lon="4.80774">
        <ele>284.20690917969</ele>
        <time>2011-12-04T04:25:31Z</time>
      </trkpt>
      <trkpt lat="45.74398" lon="4.80786">
        <ele>283.24560546875</ele>
        <time>2011-12-04T04:25:36Z</time>
      </trkpt>
      <trkpt lat="45.74414" lon="4.80801">
        <ele>286.61022949219</ele>
        <time>2011-12-04T04:25:42Z</time>
      </trkpt>
      <trkpt lat="45.74423" lon="4.80816">
        <ele>283.72619628906</ele>
        <time>2011-12-04T04:25:46Z</time>
      </trkpt>
      <trkpt lat="45.74431" lon="4.80832">
        <ele>281.32299804688</ele>
        <time>2011-12-04T04:25:50Z</time>
      </trkpt>
      <trkpt lat="45.74437" lon="4.80846">
        <ele>280.84240722656</ele>
        <time>2011-12-04T04:25:54Z</time>
      </trkpt>
      <trkpt lat="45.7445" lon="4.80865">
        <ele>279.880859375</ele>
        <time>2011-12-04T04:26:00Z</time>
      </trkpt>
      <trkpt lat="45.74461" lon="4.80873">
        <ele>281.32299804688</ele>
        <time>2011-12-04T04:26:04Z</time>
      </trkpt>
      <trkpt lat="45.74479" lon="4.80882">
        <ele>278.91967773438</ele>
        <time>2011-12-04T04:26:10Z</time>
      </trkpt>
      <trkpt lat="45.74491" lon="4.80894">
        <ele>277.95825195312</ele>
        <time>2011-12-04T04:26:15Z</time>
      </trkpt>
      <trkpt lat="45.74503" lon="4.809">
        <ele>276.51635742188</ele>
        <time>2011-12-04T04:26:19Z</time>
      </trkpt>
      <trkpt lat="45.74506" lon="4.809">
        <ele>275.55505371094</ele>
        <time>2011-12-04T04:26:20Z</time>
      </trkpt>
      <trkpt lat="45.74522" lon="4.80906">
        <ele>272.67114257812</ele>
        <time>2011-12-04T04:26:25Z</time>
      </trkpt>
      <trkpt lat="45.7454" lon="4.80913">
        <ele>270.26770019531</ele>
        <time>2011-12-04T04:26:30Z</time>
      </trkpt>
      <trkpt lat="45.74556" lon="4.8092">
        <ele>267.86450195312</ele>
        <time>2011-12-04T04:26:34Z</time>
      </trkpt>
      <trkpt lat="45.74568" lon="4.80933">
        <ele>265.94189453125</ele>
        <time>2011-12-04T04:26:38Z</time>
      </trkpt>
      <trkpt lat="45.74577" lon="4.80946">
        <ele>267.38391113281</ele>
        <time>2011-12-04T04:26:42Z</time>
      </trkpt>
      <trkpt lat="45.74585" lon="4.80962">
        <ele>270.26770019531</ele>
        <time>2011-12-04T04:26:47Z</time>
      </trkpt>
      <trkpt lat="45.74593" lon="4.80977">
        <ele>271.22912597656</ele>
        <time>2011-12-04T04:26:51Z</time>
      </trkpt>
      <trkpt lat="45.74604" lon="4.80993">
        <ele>272.1904296875</ele>
        <time>2011-12-04T04:26:56Z</time>
      </trkpt>
      <trkpt lat="45.74618" lon="4.81011">
        <ele>269.787109375</ele>
        <time>2011-12-04T04:27:01Z</time>
      </trkpt>
      <trkpt lat="45.74626" lon="4.81031">
        <ele>267.86450195312</ele>
        <time>2011-12-04T04:27:06Z</time>
      </trkpt>
      <trkpt lat="45.7463" lon="4.81054">
        <ele>267.38391113281</ele>
        <time>2011-12-04T04:27:11Z</time>
      </trkpt>
      <trkpt lat="45.74638" lon="4.81076">
        <ele>267.38391113281</ele>
        <time>2011-12-04T04:27:16Z</time>
      </trkpt>
      <trkpt lat="45.74643" lon="4.8109">
        <ele>266.90319824219</ele>
        <time>2011-12-04T04:27:20Z</time>
      </trkpt>
      <trkpt lat="45.74652" lon="4.81105">
        <ele>267.86450195312</ele>
        <time>2011-12-04T04:27:25Z</time>
      </trkpt>
      <trkpt lat="45.74665" lon="4.81114">
        <ele>267.38391113281</ele>
        <time>2011-12-04T04:27:29Z</time>
      </trkpt>
      <trkpt lat="45.74681" lon="4.81121">
        <ele>265.94189453125</ele>
        <time>2011-12-04T04:27:34Z</time>
      </trkpt>
      <trkpt lat="45.74698" lon="4.81128">
        <ele>266.42248535156</ele>
        <time>2011-12-04T04:27:39Z</time>
      </trkpt>
      <trkpt lat="45.74716" lon="4.81135">
        <ele>269.787109375</ele>
        <time>2011-12-04T04:27:45Z</time>
      </trkpt>
      <trkpt lat="45.74727" lon="4.8114">
        <ele>269.787109375</ele>
        <time>2011-12-04T04:27:49Z</time>
      </trkpt>
      <trkpt lat="45.74743" lon="4.81148">
        <ele>269.787109375</ele>
        <time>2011-12-04T04:27:54Z</time>
      </trkpt>
      <trkpt lat="45.74756" lon="4.81154">
        <ele>266.90319824219</ele>
        <time>2011-12-04T04:27:58Z</time>
      </trkpt>
      <trkpt lat="45.74765" lon="4.8116">
        <ele>265.46130371094</ele>
        <time>2011-12-04T04:28:01Z</time>
      </trkpt>
      <trkpt lat="45.74775" lon="4.81175">
        <ele>263.53857421875</ele>
        <time>2011-12-04T04:28:06Z</time>
      </trkpt>
      <trkpt lat="45.74784" lon="4.81184">
        <ele>264.49987792969</ele>
        <time>2011-12-04T04:28:09Z</time>
      </trkpt>
      <trkpt lat="45.74793" lon="4.81207">
        <ele>264.01928710938</ele>
        <time>2011-12-04T04:28:14Z</time>
      </trkpt>
      <trkpt lat="45.74797" lon="4.81228">
        <ele>261.13525390625</ele>
        <time>2011-12-04T04:28:19Z</time>
      </trkpt>
      <trkpt lat="45.748" lon="4.81236">
        <ele>260.65454101562</ele>
        <time>2011-12-04T04:28:21Z</time>
      </trkpt>
      <trkpt lat="45.74809" lon="4.81253">
        <ele>260.17395019531</ele>
        <time>2011-12-04T04:28:26Z</time>
      </trkpt>
      <trkpt lat="45.74825" lon="4.81265">
        <ele>259.21264648438</ele>
        <time>2011-12-04T04:28:31Z</time>
      </trkpt>
      <trkpt lat="45.74836" lon="4.81275">
        <ele>258.25134277344</ele>
        <time>2011-12-04T04:28:35Z</time>
      </trkpt>
      <trkpt lat="45.74848" lon="4.81285">
        <ele>257.2900390625</ele>
        <time>2011-12-04T04:28:39Z</time>
      </trkpt>
      <trkpt lat="45.74857" lon="4.81299">
        <ele>256.32873535156</ele>
        <time>2011-12-04T04:28:43Z</time>
      </trkpt>
      <trkpt lat="45.74866" lon="4.81323">
        <ele>254.40600585938</ele>
        <time>2011-12-04T04:28:49Z</time>
      </trkpt>
      <trkpt lat="45.74874" lon="4.81343">
        <ele>253.92541503906</ele>
        <time>2011-12-04T04:28:54Z</time>
      </trkpt>
      <trkpt lat="45.74884" lon="4.81362">
        <ele>254.88659667969</ele>
        <time>2011-12-04T04:28:59Z</time>
      </trkpt>
      <trkpt lat="45.74894" lon="4.81375">
        <ele>253.92541503906</ele>
        <time>2011-12-04T04:29:03Z</time>
      </trkpt>
      <trkpt lat="45.74904" lon="4.81384">
        <ele>253.44470214844</ele>
        <time>2011-12-04T04:29:07Z</time>
      </trkpt>
      <trkpt lat="45.74916" lon="4.81393">
        <ele>251.52209472656</ele>
        <time>2011-12-04T04:29:12Z</time>
      </trkpt>
      <trkpt lat="45.74928" lon="4.81403">
        <ele>251.04138183594</ele>
        <time>2011-12-04T04:29:16Z</time>
      </trkpt>
      <trkpt lat="45.74939" lon="4.81413">
        <ele>250.08020019531</ele>
        <time>2011-12-04T04:29:20Z</time>
      </trkpt>
      <trkpt lat="45.74952" lon="4.81417">
        <ele>250.08020019531</ele>
        <time>2011-12-04T04:29:24Z</time>
      </trkpt>
      <trkpt lat="45.74965" lon="4.81422">
        <ele>250.56079101562</ele>
        <time>2011-12-04T04:29:28Z</time>
      </trkpt>
      <trkpt lat="45.74981" lon="4.81424">
        <ele>251.52209472656</ele>
        <time>2011-12-04T04:29:33Z</time>
      </trkpt>
      <trkpt lat="45.74995" lon="4.81424">
        <ele>252.96398925781</ele>
        <time>2011-12-04T04:29:38Z</time>
      </trkpt>
      <trkpt lat="45.75011" lon="4.81422">
        <ele>254.88659667969</ele>
        <time>2011-12-04T04:29:43Z</time>
      </trkpt>
      <trkpt lat="45.75025" lon="4.81421">
        <ele>256.80932617188</ele>
        <time>2011-12-04T04:29:48Z</time>
      </trkpt>
      <trkpt lat="45.75039" lon="4.81422">
        <ele>256.80932617188</ele>
        <time>2011-12-04T04:29:53Z</time>
      </trkpt>
      <trkpt lat="45.75054" lon="4.81423">
        <ele>259.21264648438</ele>
        <time>2011-12-04T04:29:58Z</time>
      </trkpt>
      <trkpt lat="45.75066" lon="4.81431">
        <ele>260.17395019531</ele>
        <time>2011-12-04T04:30:02Z</time>
      </trkpt>
      <trkpt lat="45.75068" lon="4.81434">
        <ele>259.693359375</ele>
        <time>2011-12-04T04:30:03Z</time>
      </trkpt>
      <trkpt lat="45.75071" lon="4.81457">
        <ele>256.80932617188</ele>
        <time>2011-12-04T04:30:08Z</time>
      </trkpt>
      <trkpt lat="45.75069" lon="4.81466">
        <ele>256.32873535156</ele>
        <time>2011-12-04T04:30:10Z</time>
      </trkpt>
      <trkpt lat="45.75064" lon="4.81492">
        <ele>251.52209472656</ele>
        <time>2011-12-04T04:30:17Z</time>
      </trkpt>
      <trkpt lat="45.75063" lon="4.81505">
        <ele>249.11877441406</ele>
        <time>2011-12-04T04:30:21Z</time>
      </trkpt>
      <trkpt lat="45.75061" lon="4.81521">
        <ele>244.79284667969</ele>
        <time>2011-12-04T04:30:27Z</time>
      </trkpt>
      <trkpt lat="45.75061" lon="4.81535">
        <ele>240.94763183594</ele>
        <time>2011-12-04T04:30:33Z</time>
      </trkpt>
      <trkpt lat="45.75059" lon="4.81555">
        <ele>239.02490234375</ele>
        <time>2011-12-04T04:30:39Z</time>
      </trkpt>
      <trkpt lat="45.75061" lon="4.81572">
        <ele>237.10229492188</ele>
        <time>2011-12-04T04:30:43Z</time>
      </trkpt>
      <trkpt lat="45.75062" lon="4.8158">
        <ele>236.62170410156</ele>
        <time>2011-12-04T04:30:45Z</time>
      </trkpt>
      <trkpt lat="45.75071" lon="4.81595">
        <ele>235.66027832031</ele>
        <time>2011-12-04T04:30:49Z</time>
      </trkpt>
      <trkpt lat="45.75082" lon="4.81621">
        <ele>230.85375976562</ele>
        <time>2011-12-04T04:30:55Z</time>
      </trkpt>
      <trkpt lat="45.75088" lon="4.81643">
        <ele>227.9697265625</ele>
        <time>2011-12-04T04:31:00Z</time>
      </trkpt>
      <trkpt lat="45.75096" lon="4.8167">
        <ele>224.60522460938</ele>
        <time>2011-12-04T04:31:06Z</time>
      </trkpt>
      <trkpt lat="45.75103" lon="4.81691">
        <ele>221.24060058594</ele>
        <time>2011-12-04T04:31:11Z</time>
      </trkpt>
      <trkpt lat="45.75109" lon="4.81719">
        <ele>219.79858398438</ele>
        <time>2011-12-04T04:31:17Z</time>
      </trkpt>
      <trkpt lat="45.75109" lon="4.81737">
        <ele>217.8759765625</ele>
        <time>2011-12-04T04:31:21Z</time>
      </trkpt>
      <trkpt lat="45.7511" lon="4.81758">
        <ele>215.95324707031</ele>
        <time>2011-12-04T04:31:25Z</time>
      </trkpt>
      <trkpt lat="45.75111" lon="4.81788">
        <ele>214.99194335938</ele>
        <time>2011-12-04T04:31:31Z</time>
      </trkpt>
      <trkpt lat="45.75113" lon="4.81798">
        <ele>213.0693359375</ele>
        <time>2011-12-04T04:31:33Z</time>
      </trkpt>
      <trkpt lat="45.75123" lon="4.81823">
        <ele>209.22412109375</ele>
        <time>2011-12-04T04:31:39Z</time>
      </trkpt>
      <trkpt lat="45.75125" lon="4.81828">
        <ele>207.78210449219</ele>
        <time>2011-12-04T04:31:40Z</time>
      </trkpt>
      <trkpt lat="45.7514" lon="4.8185">
        <ele>204.41748046875</ele>
        <time>2011-12-04T04:31:46Z</time>
      </trkpt>
      <trkpt lat="45.75149" lon="4.81862">
        <ele>202.01428222656</ele>
        <time>2011-12-04T04:31:50Z</time>
      </trkpt>
      <trkpt lat="45.75159" lon="4.81874">
        <ele>200.09167480469</ele>
        <time>2011-12-04T04:31:54Z</time>
      </trkpt>
      <trkpt lat="45.75168" lon="4.8189">
        <ele>198.64953613281</ele>
        <time>2011-12-04T04:31:58Z</time>
      </trkpt>
      <trkpt lat="45.75177" lon="4.81911">
        <ele>197.68823242188</ele>
        <time>2011-12-04T04:32:03Z</time>
      </trkpt>
      <trkpt lat="45.75187" lon="4.81933">
        <ele>196.24633789062</ele>
        <time>2011-12-04T04:32:08Z</time>
      </trkpt>
      <trkpt lat="45.75193" lon="4.81953">
        <ele>193.3623046875</ele>
        <time>2011-12-04T04:32:13Z</time>
      </trkpt>
      <trkpt lat="45.75195" lon="4.81959">
        <ele>192.88171386719</ele>
        <time>2011-12-04T04:32:15Z</time>
      </trkpt>
      <trkpt lat="45.75208" lon="4.81963">
        <ele>191.43957519531</ele>
        <time>2011-12-04T04:32:20Z</time>
      </trkpt>
      <trkpt lat="45.75214" lon="4.81964">
        <ele>189.99768066406</ele>
        <time>2011-12-04T04:32:22Z</time>
      </trkpt>
      <trkpt lat="45.75227" lon="4.8198">
        <ele>190.47839355469</ele>
        <time>2011-12-04T04:32:28Z</time>
      </trkpt>
      <trkpt lat="45.75228" lon="4.81986">
        <ele>191.43957519531</ele>
        <time>2011-12-04T04:32:30Z</time>
      </trkpt>
      <trkpt lat="45.75221" lon="4.81992">
        <ele>187.59436035156</ele>
        <time>2011-12-04T04:32:36Z</time>
      </trkpt>
      <trkpt lat="45.75212" lon="4.81992">
        <ele>186.15246582031</ele>
        <time>2011-12-04T04:32:42Z</time>
      </trkpt>
      <trkpt lat="45.75197" lon="4.81993">
        <ele>182.30712890625</ele>
        <time>2011-12-04T04:32:47Z</time>
      </trkpt>
      <trkpt lat="45.75181" lon="4.81999">
        <ele>182.30712890625</ele>
        <time>2011-12-04T04:32:52Z</time>
      </trkpt>
      <trkpt lat="45.75163" lon="4.82013">
        <ele>179.42321777344</ele>
        <time>2011-12-04T04:32:58Z</time>
      </trkpt>
      <trkpt lat="45.75149" lon="4.8203">
        <ele>178.4619140625</ele>
        <time>2011-12-04T04:33:03Z</time>
      </trkpt>
      <trkpt lat="45.75137" lon="4.82053">
        <ele>175.57788085938</ele>
        <time>2011-12-04T04:33:09Z</time>
      </trkpt>
      <trkpt lat="45.75137" lon="4.82057">
        <ele>174.61657714844</ele>
        <time>2011-12-04T04:33:10Z</time>
      </trkpt>
      <trkpt lat="45.75132" lon="4.82075">
        <ele>173.6552734375</ele>
        <time>2011-12-04T04:33:14Z</time>
      </trkpt>
      <trkpt lat="45.7513" lon="4.82084">
        <ele>172.69396972656</ele>
        <time>2011-12-04T04:33:16Z</time>
      </trkpt>
      <trkpt lat="45.75127" lon="4.82106">
        <ele>170.77136230469</ele>
        <time>2011-12-04T04:33:21Z</time>
      </trkpt>
      <trkpt lat="45.75127" lon="4.82111">
        <ele>171.25207519531</ele>
        <time>2011-12-04T04:33:22Z</time>
      </trkpt>
      <trkpt lat="45.75133" lon="4.82132">
        <ele>172.21325683594</ele>
        <time>2011-12-04T04:33:28Z</time>
      </trkpt>
      <trkpt lat="45.75143" lon="4.82142">
        <ele>170.77136230469</ele>
        <time>2011-12-04T04:33:32Z</time>
      </trkpt>
      <trkpt lat="45.75151" lon="4.82152">
        <ele>171.25207519531</ele>
        <time>2011-12-04T04:33:36Z</time>
      </trkpt>
      <trkpt lat="45.75152" lon="4.8216">
        <ele>171.25207519531</ele>
        <time>2011-12-04T04:33:38Z</time>
      </trkpt>
      <trkpt lat="45.75148" lon="4.82191">
        <ele>172.69396972656</ele>
        <time>2011-12-04T04:33:45Z</time>
      </trkpt>
      <trkpt lat="45.75142" lon="4.82207">
        <ele>173.17468261719</ele>
        <time>2011-12-04T04:33:49Z</time>
      </trkpt>
      <trkpt lat="45.75135" lon="4.82227">
        <ele>172.69396972656</ele>
        <time>2011-12-04T04:33:54Z</time>
      </trkpt>
      <trkpt lat="45.7513" lon="4.82249">
        <ele>172.69396972656</ele>
        <time>2011-12-04T04:33:59Z</time>
      </trkpt>
      <trkpt lat="45.75122" lon="4.82273">
        <ele>171.73266601562</ele>
        <time>2011-12-04T04:34:05Z</time>
      </trkpt>
      <trkpt lat="45.75116" lon="4.82297">
        <ele>170.77136230469</ele>
        <time>2011-12-04T04:34:11Z</time>
      </trkpt>
      <trkpt lat="45.75108" lon="4.82309">
        <ele>170.77136230469</ele>
        <time>2011-12-04T04:34:15Z</time>
      </trkpt>
      <trkpt lat="45.75099" lon="4.82313">
        <ele>170.29064941406</ele>
        <time>2011-12-04T04:34:18Z</time>
      </trkpt>
      <trkpt lat="45.75089" lon="4.82308">
        <ele>169.32946777344</ele>
        <time>2011-12-04T04:34:22Z</time>
      </trkpt>
      <trkpt lat="45.75084" lon="4.82306">
        <ele>168.84875488281</ele>
        <time>2011-12-04T04:34:24Z</time>
      </trkpt>
      <trkpt lat="45.75066" lon="4.82278">
        <ele>166.92602539062</ele>
        <time>2011-12-04T04:34:31Z</time>
      </trkpt>
      <trkpt lat="45.75056" lon="4.8226">
        <ele>167.40673828125</ele>
        <time>2011-12-04T04:34:36Z</time>
      </trkpt>
      <trkpt lat="45.75042" lon="4.8224">
        <ele>167.40673828125</ele>
        <time>2011-12-04T04:34:42Z</time>
      </trkpt>
      <trkpt lat="45.75029" lon="4.82224">
        <ele>169.32946777344</ele>
        <time>2011-12-04T04:34:47Z</time>
      </trkpt>
      <trkpt lat="45.75014" lon="4.82219">
        <ele>184.22985839844</ele>
        <time>2011-12-04T04:34:51Z</time>
      </trkpt>
      <trkpt lat="45.75008" lon="4.82203">
        <ele>180.865234375</ele>
        <time>2011-12-04T04:34:56Z</time>
      </trkpt>
      <trkpt lat="45.75003" lon="4.82182">
        <ele>173.6552734375</ele>
        <time>2011-12-04T04:35:01Z</time>
      </trkpt>
      <trkpt lat="45.74989" lon="4.82157">
        <ele>168.36804199219</ele>
        <time>2011-12-04T04:35:08Z</time>
      </trkpt>
      <trkpt lat="45.74975" lon="4.82142">
        <ele>170.77136230469</ele>
        <time>2011-12-04T04:35:13Z</time>
      </trkpt>
      <trkpt lat="45.74963" lon="4.82127">
        <ele>171.25207519531</ele>
        <time>2011-12-04T04:35:18Z</time>
      </trkpt>
      <trkpt lat="45.74953" lon="4.82115">
        <ele>172.21325683594</ele>
        <time>2011-12-04T04:35:22Z</time>
      </trkpt>
      <trkpt lat="45.74942" lon="4.82095">
        <ele>170.29064941406</ele>
        <time>2011-12-04T04:35:27Z</time>
      </trkpt>
      <trkpt lat="45.74933" lon="4.82082">
        <ele>169.81005859375</ele>
        <time>2011-12-04T04:35:31Z</time>
      </trkpt>
      <trkpt lat="45.74919" lon="4.82061">
        <ele>168.36804199219</ele>
        <time>2011-12-04T04:35:37Z</time>
      </trkpt>
      <trkpt lat="45.74905" lon="4.82042">
        <ele>169.32946777344</ele>
        <time>2011-12-04T04:35:43Z</time>
      </trkpt>
      <trkpt lat="45.74893" lon="4.82026">
        <ele>169.81005859375</ele>
        <time>2011-12-04T04:35:48Z</time>
      </trkpt>
      <trkpt lat="45.74881" lon="4.82009">
        <ele>169.32946777344</ele>
        <time>2011-12-04T04:35:53Z</time>
      </trkpt>
      <trkpt lat="45.7487" lon="4.81992">
        <ele>168.84875488281</ele>
        <time>2011-12-04T04:35:58Z</time>
      </trkpt>
      <trkpt lat="45.74856" lon="4.81973">
        <ele>170.29064941406</ele>
        <time>2011-12-04T04:36:04Z</time>
      </trkpt>
      <trkpt lat="45.74843" lon="4.81959">
        <ele>172.21325683594</ele>
        <time>2011-12-04T04:36:09Z</time>
      </trkpt>
      <trkpt lat="45.74829" lon="4.81944">
        <ele>170.77136230469</ele>
        <time>2011-12-04T04:36:14Z</time>
      </trkpt>
      <trkpt lat="45.74818" lon="4.8193">
        <ele>170.77136230469</ele>
        <time>2011-12-04T04:36:18Z</time>
      </trkpt>
      <trkpt lat="45.74808" lon="4.81919">
        <ele>172.69396972656</ele>
        <time>2011-12-04T04:36:22Z</time>
      </trkpt>
      <trkpt lat="45.748" lon="4.81905">
        <ele>172.69396972656</ele>
        <time>2011-12-04T04:36:26Z</time>
      </trkpt>
      <trkpt lat="45.74791" lon="4.81891">
        <ele>171.73266601562</ele>
        <time>2011-12-04T04:36:30Z</time>
      </trkpt>
      <trkpt lat="45.74783" lon="4.81878">
        <ele>170.29064941406</ele>
        <time>2011-12-04T04:36:34Z</time>
      </trkpt>
      <trkpt lat="45.74773" lon="4.81865">
        <ele>169.32946777344</ele>
        <time>2011-12-04T04:36:38Z</time>
      </trkpt>
      <trkpt lat="45.7476" lon="4.81848">
        <ele>169.32946777344</ele>
        <time>2011-12-04T04:36:43Z</time>
      </trkpt>
      <trkpt lat="45.74748" lon="4.81828">
        <ele>168.36804199219</ele>
        <time>2011-12-04T04:36:49Z</time>
      </trkpt>
      <trkpt lat="45.74738" lon="4.81818">
        <ele>170.29064941406</ele>
        <time>2011-12-04T04:36:53Z</time>
      </trkpt>
      <trkpt lat="45.74727" lon="4.81809">
        <ele>173.6552734375</ele>
        <time>2011-12-04T04:36:57Z</time>
      </trkpt>
      <trkpt lat="45.7472" lon="4.81795">
        <ele>174.13586425781</ele>
        <time>2011-12-04T04:37:01Z</time>
      </trkpt>
      <trkpt lat="45.74716" lon="4.81771">
        <ele>170.77136230469</ele>
        <time>2011-12-04T04:37:06Z</time>
      </trkpt>
      <trkpt lat="45.74712" lon="4.81749">
        <ele>167.88732910156</ele>
        <time>2011-12-04T04:37:11Z</time>
      </trkpt>
      <trkpt lat="45.74702" lon="4.81723">
        <ele>166.4453125</ele>
        <time>2011-12-04T04:37:17Z</time>
      </trkpt>
      <trkpt lat="45.74686" lon="4.8171">
        <ele>165.96472167969</ele>
        <time>2011-12-04T04:37:23Z</time>
      </trkpt>
      <trkpt lat="45.7467" lon="4.81707">
        <ele>166.4453125</ele>
        <time>2011-12-04T04:37:28Z</time>
      </trkpt>
      <trkpt lat="45.74657" lon="4.81705">
        <ele>167.40673828125</ele>
        <time>2011-12-04T04:37:33Z</time>
      </trkpt>
      <trkpt lat="45.74654" lon="4.81706">
        <ele>167.88732910156</ele>
        <time>2011-12-04T04:37:34Z</time>
      </trkpt>
      <trkpt lat="45.74641" lon="4.81698">
        <ele>168.36804199219</ele>
        <time>2011-12-04T04:37:39Z</time>
      </trkpt>
      <trkpt lat="45.74625" lon="4.81686">
        <ele>169.32946777344</ele>
        <time>2011-12-04T04:37:44Z</time>
      </trkpt>
      <trkpt lat="45.74612" lon="4.81677">
        <ele>169.32946777344</ele>
        <time>2011-12-04T04:37:48Z</time>
      </trkpt>
      <trkpt lat="45.74598" lon="4.81663">
        <ele>166.92602539062</ele>
        <time>2011-12-04T04:37:53Z</time>
      </trkpt>
      <trkpt lat="45.74585" lon="4.81649">
        <ele>165.96472167969</ele>
        <time>2011-12-04T04:37:58Z</time>
      </trkpt>
      <trkpt lat="45.74571" lon="4.81636">
        <ele>164.52270507812</ele>
        <time>2011-12-04T04:38:03Z</time>
      </trkpt>
      <trkpt lat="45.74557" lon="4.81625">
        <ele>164.04211425781</ele>
        <time>2011-12-04T04:38:08Z</time>
      </trkpt>
      <trkpt lat="45.74546" lon="4.81618">
        <ele>164.04211425781</ele>
        <time>2011-12-04T04:38:12Z</time>
      </trkpt>
      <trkpt lat="45.74532" lon="4.81604">
        <ele>164.52270507812</ele>
        <time>2011-12-04T04:38:18Z</time>
      </trkpt>
      <trkpt lat="45.74521" lon="4.81595">
        <ele>165.48413085938</ele>
        <time>2011-12-04T04:38:22Z</time>
      </trkpt>
      <trkpt lat="45.74501" lon="4.81582">
        <ele>166.4453125</ele>
        <time>2011-12-04T04:38:29Z</time>
      </trkpt>
      <trkpt lat="45.74485" lon="4.81571">
        <ele>167.40673828125</ele>
        <time>2011-12-04T04:38:34Z</time>
      </trkpt>
      <trkpt lat="45.7447" lon="4.81558">
        <ele>166.92602539062</ele>
        <time>2011-12-04T04:38:39Z</time>
      </trkpt>
      <trkpt lat="45.74458" lon="4.81549">
        <ele>165.96472167969</ele>
        <time>2011-12-04T04:38:43Z</time>
      </trkpt>
      <trkpt lat="45.74444" lon="4.81536">
        <ele>166.92602539062</ele>
        <time>2011-12-04T04:38:48Z</time>
      </trkpt>
      <trkpt lat="45.7443" lon="4.81524">
        <ele>165.48413085938</ele>
        <time>2011-12-04T04:38:53Z</time>
      </trkpt>
      <trkpt lat="45.74414" lon="4.8151">
        <ele>164.52270507812</ele>
        <time>2011-12-04T04:38:59Z</time>
      </trkpt>
      <trkpt lat="45.74391" lon="4.81494">
        <ele>164.04211425781</ele>
        <time>2011-12-04T04:39:07Z</time>
      </trkpt>
      <trkpt lat="45.7437" lon="4.81485">
        <ele>164.04211425781</ele>
        <time>2011-12-04T04:39:14Z</time>
      </trkpt>
      <trkpt lat="45.74352" lon="4.81476">
        <ele>164.04211425781</ele>
        <time>2011-12-04T04:39:20Z</time>
      </trkpt>
      <trkpt lat="45.74334" lon="4.81467">
        <ele>165.96472167969</ele>
        <time>2011-12-04T04:39:26Z</time>
      </trkpt>
      <trkpt lat="45.74318" lon="4.81463">
        <ele>167.40673828125</ele>
        <time>2011-12-04T04:39:31Z</time>
      </trkpt>
      <trkpt lat="45.74302" lon="4.8146">
        <ele>167.88732910156</ele>
        <time>2011-12-04T04:39:36Z</time>
      </trkpt>
      <trkpt lat="45.74284" lon="4.81456">
        <ele>168.36804199219</ele>
        <time>2011-12-04T04:39:42Z</time>
      </trkpt>
      <trkpt lat="45.74271" lon="4.81454">
        <ele>168.36804199219</ele>
        <time>2011-12-04T04:39:46Z</time>
      </trkpt>
      <trkpt lat="45.74261" lon="4.8145">
        <ele>167.40673828125</ele>
        <time>2011-12-04T04:39:49Z</time>
      </trkpt>
      <trkpt lat="45.74246" lon="4.81437">
        <ele>165.96472167969</ele>
        <time>2011-12-04T04:39:54Z</time>
      </trkpt>
      <trkpt lat="45.7423" lon="4.81432">
        <ele>166.4453125</ele>
        <time>2011-12-04T04:39:59Z</time>
      </trkpt>
      <trkpt lat="45.74209" lon="4.8143">
        <ele>167.88732910156</ele>
        <time>2011-12-04T04:40:06Z</time>
      </trkpt>
      <trkpt lat="45.74184" lon="4.81425">
        <ele>170.29064941406</ele>
        <time>2011-12-04T04:40:14Z</time>
      </trkpt>
      <trkpt lat="45.74175" lon="4.81423">
        <ele>171.25207519531</ele>
        <time>2011-12-04T04:40:17Z</time>
      </trkpt>
      <trkpt lat="45.74157" lon="4.8142">
        <ele>172.69396972656</ele>
        <time>2011-12-04T04:40:23Z</time>
      </trkpt>
      <trkpt lat="45.74139" lon="4.81417">
        <ele>173.17468261719</ele>
        <time>2011-12-04T04:40:29Z</time>
      </trkpt>
      <trkpt lat="45.74123" lon="4.81414">
        <ele>173.6552734375</ele>
        <time>2011-12-04T04:40:34Z</time>
      </trkpt>
      <trkpt lat="45.74109" lon="4.81411">
        <ele>174.13586425781</ele>
        <time>2011-12-04T04:40:39Z</time>
      </trkpt>
      <trkpt lat="45.74094" lon="4.81409">
        <ele>174.13586425781</ele>
        <time>2011-12-04T04:40:44Z</time>
      </trkpt>
      <trkpt lat="45.7408" lon="4.81407">
        <ele>172.21325683594</ele>
        <time>2011-12-04T04:40:49Z</time>
      </trkpt>
      <trkpt lat="45.74064" lon="4.81406">
        <ele>172.21325683594</ele>
        <time>2011-12-04T04:40:54Z</time>
      </trkpt>
      <trkpt lat="45.74048" lon="4.81407">
        <ele>172.69396972656</ele>
        <time>2011-12-04T04:40:59Z</time>
      </trkpt>
      <trkpt lat="45.74033" lon="4.81407">
        <ele>172.69396972656</ele>
        <time>2011-12-04T04:41:04Z</time>
      </trkpt>
      <trkpt lat="45.74016" lon="4.81406">
        <ele>171.25207519531</ele>
        <time>2011-12-04T04:41:10Z</time>
      </trkpt>
      <trkpt lat="45.73997" lon="4.81408">
        <ele>171.25207519531</ele>
        <time>2011-12-04T04:41:16Z</time>
      </trkpt>
      <trkpt lat="45.73985" lon="4.8141">
        <ele>174.13586425781</ele>
        <time>2011-12-04T04:41:20Z</time>
      </trkpt>
      <trkpt lat="45.73968" lon="4.81414">
        <ele>177.98120117188</ele>
        <time>2011-12-04T04:41:25Z</time>
      </trkpt>
      <trkpt lat="45.73953" lon="4.81418">
        <ele>183.26843261719</ele>
        <time>2011-12-04T04:41:29Z</time>
      </trkpt>
      <trkpt lat="45.73939" lon="4.8142">
        <ele>189.03637695312</ele>
        <time>2011-12-04T04:41:33Z</time>
      </trkpt>
      <trkpt lat="45.73923" lon="4.81425">
        <ele>190.958984375</ele>
        <time>2011-12-04T04:41:38Z</time>
      </trkpt>
      <trkpt lat="45.7391" lon="4.8143">
        <ele>195.765625</ele>
        <time>2011-12-04T04:41:42Z</time>
      </trkpt>
      <trkpt lat="45.73889" lon="4.81439">
        <ele>202.97546386719</ele>
        <time>2011-12-04T04:41:48Z</time>
      </trkpt>
      <trkpt lat="45.73872" lon="4.81442">
        <ele>202.01428222656</ele>
        <time>2011-12-04T04:41:53Z</time>
      </trkpt>
      <trkpt lat="45.73856" lon="4.81441">
        <ele>194.80432128906</ele>
        <time>2011-12-04T04:41:59Z</time>
      </trkpt>
      <trkpt lat="45.7384" lon="4.81442">
        <ele>187.11376953125</ele>
        <time>2011-12-04T04:42:05Z</time>
      </trkpt>
      <trkpt lat="45.73822" lon="4.81448">
        <ele>185.19116210938</ele>
        <time>2011-12-04T04:42:11Z</time>
      </trkpt>
      <trkpt lat="45.73807" lon="4.81453">
        <ele>188.07507324219</ele>
        <time>2011-12-04T04:42:16Z</time>
      </trkpt>
      <trkpt lat="45.73788" lon="4.81458">
        <ele>189.51696777344</ele>
        <time>2011-12-04T04:42:22Z</time>
      </trkpt>
      <trkpt lat="45.73774" lon="4.81456">
        <ele>187.59436035156</ele>
        <time>2011-12-04T04:42:26Z</time>
      </trkpt>
      <trkpt lat="45.73766" lon="4.81453">
        <ele>178.4619140625</ele>
        <time>2011-12-04T04:42:31Z</time>
      </trkpt>
      <trkpt lat="45.73758" lon="4.81455">
        <ele>175.57788085938</ele>
        <time>2011-12-04T04:42:35Z</time>
      </trkpt>
      <trkpt lat="45.73734" lon="4.81464">
        <ele>179.90380859375</ele>
        <time>2011-12-04T04:42:41Z</time>
      </trkpt>
      <trkpt lat="45.73718" lon="4.81467">
        <ele>181.34582519531</ele>
        <time>2011-12-04T04:42:45Z</time>
      </trkpt>
      <trkpt lat="45.73697" lon="4.81472">
        <ele>182.78784179688</ele>
        <time>2011-12-04T04:42:51Z</time>
      </trkpt>
      <trkpt lat="45.73678" lon="4.81476">
        <ele>181.34582519531</ele>
        <time>2011-12-04T04:42:57Z</time>
      </trkpt>
      <trkpt lat="45.73658" lon="4.81478">
        <ele>176.05859375</ele>
        <time>2011-12-04T04:43:03Z</time>
      </trkpt>
      <trkpt lat="45.73644" lon="4.8148">
        <ele>177.50061035156</ele>
        <time>2011-12-04T04:43:07Z</time>
      </trkpt>
      <trkpt lat="45.73628" lon="4.81482">
        <ele>177.02001953125</ele>
        <time>2011-12-04T04:43:12Z</time>
      </trkpt>
      <trkpt lat="45.73616" lon="4.81485">
        <ele>177.02001953125</ele>
        <time>2011-12-04T04:43:16Z</time>
      </trkpt>
      <trkpt lat="45.73597" lon="4.81487">
        <ele>174.61657714844</ele>
        <time>2011-12-04T04:43:22Z</time>
      </trkpt>
      <trkpt lat="45.73585" lon="4.81488">
        <ele>170.77136230469</ele>
        <time>2011-12-04T04:43:26Z</time>
      </trkpt>
      <trkpt lat="45.73564" lon="4.81496">
        <ele>168.84875488281</ele>
        <time>2011-12-04T04:43:33Z</time>
      </trkpt>
      <trkpt lat="45.73548" lon="4.81501">
        <ele>167.40673828125</ele>
        <time>2011-12-04T04:43:38Z</time>
      </trkpt>
      <trkpt lat="45.73532" lon="4.81503">
        <ele>165.96472167969</ele>
        <time>2011-12-04T04:43:43Z</time>
      </trkpt>
      <trkpt lat="45.73529" lon="4.81504">
        <ele>165.96472167969</ele>
        <time>2011-12-04T04:43:44Z</time>
      </trkpt>
      <trkpt lat="45.73518" lon="4.81519">
        <ele>165.96472167969</ele>
        <time>2011-12-04T04:43:49Z</time>
      </trkpt>
      <trkpt lat="45.73509" lon="4.81535">
        <ele>165.48413085938</ele>
        <time>2011-12-04T04:43:54Z</time>
      </trkpt>
      <trkpt lat="45.73502" lon="4.81564">
        <ele>165.96472167969</ele>
        <time>2011-12-04T04:44:01Z</time>
      </trkpt>
      <trkpt lat="45.73493" lon="4.81579">
        <ele>166.92602539062</ele>
        <time>2011-12-04T04:44:06Z</time>
      </trkpt>
      <trkpt lat="45.73475" lon="4.81584">
        <ele>166.92602539062</ele>
        <time>2011-12-04T04:44:12Z</time>
      </trkpt>
      <trkpt lat="45.73454" lon="4.81588">
        <ele>166.4453125</ele>
        <time>2011-12-04T04:44:19Z</time>
      </trkpt>
      <trkpt lat="45.73436" lon="4.81593">
        <ele>167.88732910156</ele>
        <time>2011-12-04T04:44:25Z</time>
      </trkpt>
      <trkpt lat="45.73416" lon="4.81599">
        <ele>166.4453125</ele>
        <time>2011-12-04T04:44:32Z</time>
      </trkpt>
      <trkpt lat="45.73397" lon="4.81605">
        <ele>168.36804199219</ele>
        <time>2011-12-04T04:44:38Z</time>
      </trkpt>
      <trkpt lat="45.7338" lon="4.81607">
        <ele>168.84875488281</ele>
        <time>2011-12-04T04:44:44Z</time>
      </trkpt>
      <trkpt lat="45.73365" lon="4.81611">
        <ele>169.81005859375</ele>
        <time>2011-12-04T04:44:49Z</time>
      </trkpt>
      <trkpt lat="45.73349" lon="4.81612">
        <ele>170.77136230469</ele>
        <time>2011-12-04T04:44:54Z</time>
      </trkpt>
      <trkpt lat="45.7334" lon="4.81611">
        <ele>170.77136230469</ele>
        <time>2011-12-04T04:44:57Z</time>
      </trkpt>
      <trkpt lat="45.73327" lon="4.81589">
        <ele>170.77136230469</ele>
        <time>2011-12-04T04:45:04Z</time>
      </trkpt>
      <trkpt lat="45.7332" lon="4.81575">
        <ele>170.77136230469</ele>
        <time>2011-12-04T04:45:08Z</time>
      </trkpt>
      <trkpt lat="45.73318" lon="4.81562">
        <ele>169.32946777344</ele>
        <time>2011-12-04T04:45:11Z</time>
      </trkpt>
      <trkpt lat="45.73313" lon="4.81556">
        <ele>169.32946777344</ele>
        <time>2011-12-04T04:45:16Z</time>
      </trkpt>
      <trkpt lat="45.73304" lon="4.81556">
        <ele>169.32946777344</ele>
        <time>2011-12-04T04:45:23Z</time>
      </trkpt>
      <trkpt lat="45.73293" lon="4.81557">
        <ele>168.36804199219</ele>
        <time>2011-12-04T04:45:29Z</time>
      </trkpt>
      <trkpt lat="45.73271" lon="4.81561">
        <ele>166.4453125</ele>
        <time>2011-12-04T04:45:36Z</time>
      </trkpt>
      <trkpt lat="45.73252" lon="4.81564">
        <ele>165.00341796875</ele>
        <time>2011-12-04T04:45:42Z</time>
      </trkpt>
      <trkpt lat="45.73231" lon="4.81572">
        <ele>162.60009765625</ele>
        <time>2011-12-04T04:45:49Z</time>
      </trkpt>
      <trkpt lat="45.73218" lon="4.81585">
        <ele>161.63891601562</ele>
        <time>2011-12-04T04:45:54Z</time>
      </trkpt>
      <trkpt lat="45.7321" lon="4.81601">
        <ele>159.71618652344</ele>
        <time>2011-12-04T04:45:59Z</time>
      </trkpt>
      <trkpt lat="45.73208" lon="4.81604">
        <ele>159.23547363281</ele>
        <time>2011-12-04T04:46:00Z</time>
      </trkpt>
      <trkpt lat="45.73202" lon="4.81616">
        <ele>162.11950683594</ele>
        <time>2011-12-04T04:46:06Z</time>
      </trkpt>
      <trkpt lat="45.73197" lon="4.81622">
        <ele>162.11950683594</ele>
        <time>2011-12-04T04:46:08Z</time>
      </trkpt>
      <trkpt lat="45.73182" lon="4.81639">
        <ele>165.00341796875</ele>
        <time>2011-12-04T04:46:13Z</time>
      </trkpt>
      <trkpt lat="45.73179" lon="4.8166">
        <ele>165.48413085938</ele>
        <time>2011-12-04T04:46:17Z</time>
      </trkpt>
      <trkpt lat="45.73168" lon="4.81683">
        <ele>168.84875488281</ele>
        <time>2011-12-04T04:46:22Z</time>
      </trkpt>
      <trkpt lat="45.73158" lon="4.81701">
        <ele>168.84875488281</ele>
        <time>2011-12-04T04:46:27Z</time>
      </trkpt>
      <trkpt lat="45.73154" lon="4.81706">
        <ele>169.32946777344</ele>
        <time>2011-12-04T04:46:29Z</time>
      </trkpt>
      <trkpt lat="45.73141" lon="4.81723">
        <ele>166.4453125</ele>
        <time>2011-12-04T04:46:35Z</time>
      </trkpt>
      <trkpt lat="45.7313" lon="4.81736">
        <ele>165.00341796875</ele>
        <time>2011-12-04T04:46:40Z</time>
      </trkpt>
      <trkpt lat="45.73112" lon="4.81753">
        <ele>164.52270507812</ele>
        <time>2011-12-04T04:46:47Z</time>
      </trkpt>
      <trkpt lat="45.731" lon="4.81763">
        <ele>164.52270507812</ele>
        <time>2011-12-04T04:46:52Z</time>
      </trkpt>
      <trkpt lat="45.73086" lon="4.81772">
        <ele>165.00341796875</ele>
        <time>2011-12-04T04:46:57Z</time>
      </trkpt>
      <trkpt lat="45.73078" lon="4.81777">
        <ele>165.96472167969</ele>
        <time>2011-12-04T04:47:00Z</time>
      </trkpt>
      <trkpt lat="45.73064" lon="4.8179">
        <ele>167.88732910156</ele>
        <time>2011-12-04T04:47:05Z</time>
      </trkpt>
      <trkpt lat="45.73056" lon="4.81794">
        <ele>167.88732910156</ele>
        <time>2011-12-04T04:47:08Z</time>
      </trkpt>
      <trkpt lat="45.7304" lon="4.81799">
        <ele>166.92602539062</ele>
        <time>2011-12-04T04:47:13Z</time>
      </trkpt>
      <trkpt lat="45.73028" lon="4.81804">
        <ele>165.96472167969</ele>
        <time>2011-12-04T04:47:17Z</time>
      </trkpt>
      <trkpt lat="45.73014" lon="4.8181">
        <ele>164.52270507812</ele>
        <time>2011-12-04T04:47:22Z</time>
      </trkpt>
      <trkpt lat="45.73001" lon="4.81814">
        <ele>165.96472167969</ele>
        <time>2011-12-04T04:47:26Z</time>
      </trkpt>
      <trkpt lat="45.72982" lon="4.8182">
        <ele>168.36804199219</ele>
        <time>2011-12-04T04:47:32Z</time>
      </trkpt>
      <trkpt lat="45.72979" lon="4.81821">
        <ele>168.36804199219</ele>
        <time>2011-12-04T04:47:33Z</time>
      </trkpt>
      <trkpt lat="45.72965" lon="4.81824">
        <ele>170.29064941406</ele>
        <time>2011-12-04T04:47:38Z</time>
      </trkpt>
      <trkpt lat="45.72946" lon="4.81831">
        <ele>173.17468261719</ele>
        <time>2011-12-04T04:47:44Z</time>
      </trkpt>
      <trkpt lat="45.72931" lon="4.81836">
        <ele>174.13586425781</ele>
        <time>2011-12-04T04:47:49Z</time>
      </trkpt>
      <trkpt lat="45.72915" lon="4.81838">
        <ele>173.6552734375</ele>
        <time>2011-12-04T04:47:55Z</time>
      </trkpt>
      <trkpt lat="45.72911" lon="4.81838">
        <ele>173.17468261719</ele>
        <time>2011-12-04T04:47:56Z</time>
      </trkpt>
      <trkpt lat="45.72895" lon="4.81841">
        <ele>171.73266601562</ele>
        <time>2011-12-04T04:48:02Z</time>
      </trkpt>
      <trkpt lat="45.72886" lon="4.81843">
        <ele>171.25207519531</ele>
        <time>2011-12-04T04:48:06Z</time>
      </trkpt>
      <trkpt lat="45.72882" lon="4.81844">
        <ele>170.77136230469</ele>
        <time>2011-12-04T04:48:08Z</time>
      </trkpt>
      <trkpt lat="45.7288" lon="4.81851">
        <ele>169.81005859375</ele>
        <time>2011-12-04T04:48:12Z</time>
      </trkpt>
      <trkpt lat="45.72888" lon="4.81854">
        <ele>168.84875488281</ele>
        <time>2011-12-04T04:48:17Z</time>
      </trkpt>
      <trkpt lat="45.72902" lon="4.81854">
        <ele>168.84875488281</ele>
        <time>2011-12-04T04:48:22Z</time>
      </trkpt>
      <trkpt lat="45.72917" lon="4.81853">
        <ele>169.32946777344</ele>
        <time>2011-12-04T04:48:27Z</time>
      </trkpt>
      <trkpt lat="45.72934" lon="4.81854">
        <ele>170.77136230469</ele>
        <time>2011-12-04T04:48:33Z</time>
      </trkpt>
      <trkpt lat="45.72952" lon="4.81851">
        <ele>170.77136230469</ele>
        <time>2011-12-04T04:48:39Z</time>
      </trkpt>
      <trkpt lat="45.72962" lon="4.8185">
        <ele>170.77136230469</ele>
        <time>2011-12-04T04:48:42Z</time>
      </trkpt>
      <trkpt lat="45.72979" lon="4.8185">
        <ele>172.21325683594</ele>
        <time>2011-12-04T04:48:47Z</time>
      </trkpt>
      <trkpt lat="45.72993" lon="4.81851">
        <ele>172.69396972656</ele>
        <time>2011-12-04T04:48:51Z</time>
      </trkpt>
      <trkpt lat="45.73012" lon="4.81852">
        <ele>173.17468261719</ele>
        <time>2011-12-04T04:48:57Z</time>
      </trkpt>
      <trkpt lat="45.7303" lon="4.81852">
        <ele>173.6552734375</ele>
        <time>2011-12-04T04:49:03Z</time>
      </trkpt>
      <trkpt lat="45.73045" lon="4.81852">
        <ele>173.6552734375</ele>
        <time>2011-12-04T04:49:08Z</time>
      </trkpt>
      <trkpt lat="45.73059" lon="4.81854">
        <ele>172.69396972656</ele>
        <time>2011-12-04T04:49:13Z</time>
      </trkpt>
      <trkpt lat="45.73077" lon="4.81855">
        <ele>171.73266601562</ele>
        <time>2011-12-04T04:49:19Z</time>
      </trkpt>
      <trkpt lat="45.73092" lon="4.81857">
        <ele>172.69396972656</ele>
        <time>2011-12-04T04:49:24Z</time>
      </trkpt>
      <trkpt lat="45.73103" lon="4.81858">
        <ele>171.25207519531</ele>
        <time>2011-12-04T04:49:28Z</time>
      </trkpt>
      <trkpt lat="45.73119" lon="4.81861">
        <ele>172.69396972656</ele>
        <time>2011-12-04T04:49:33Z</time>
      </trkpt>
      <trkpt lat="45.73132" lon="4.81861">
        <ele>174.61657714844</ele>
        <time>2011-12-04T04:49:37Z</time>
      </trkpt>
      <trkpt lat="45.73145" lon="4.81863">
        <ele>175.09729003906</ele>
        <time>2011-12-04T04:49:41Z</time>
      </trkpt>
      <trkpt lat="45.73159" lon="4.81868">
        <ele>175.09729003906</ele>
        <time>2011-12-04T04:49:46Z</time>
      </trkpt>
      <trkpt lat="45.73174" lon="4.8187">
        <ele>174.61657714844</ele>
        <time>2011-12-04T04:49:51Z</time>
      </trkpt>
      <trkpt lat="45.73185" lon="4.81873">
        <ele>175.09729003906</ele>
        <time>2011-12-04T04:49:55Z</time>
      </trkpt>
      <trkpt lat="45.73196" lon="4.81875">
        <ele>175.09729003906</ele>
        <time>2011-12-04T04:49:59Z</time>
      </trkpt>
      <trkpt lat="45.73212" lon="4.81877">
        <ele>174.13586425781</ele>
        <time>2011-12-04T04:50:04Z</time>
      </trkpt>
      <trkpt lat="45.73228" lon="4.8188">
        <ele>172.69396972656</ele>
        <time>2011-12-04T04:50:09Z</time>
      </trkpt>
      <trkpt lat="45.73242" lon="4.81884">
        <ele>171.73266601562</ele>
        <time>2011-12-04T04:50:14Z</time>
      </trkpt>
      <trkpt lat="45.73256" lon="4.81888">
        <ele>172.21325683594</ele>
        <time>2011-12-04T04:50:19Z</time>
      </trkpt>
      <trkpt lat="45.73271" lon="4.81892">
        <ele>171.73266601562</ele>
        <time>2011-12-04T04:50:24Z</time>
      </trkpt>
      <trkpt lat="45.73284" lon="4.81896">
        <ele>170.29064941406</ele>
        <time>2011-12-04T04:50:29Z</time>
      </trkpt>
      <trkpt lat="45.73296" lon="4.81899">
        <ele>170.77136230469</ele>
        <time>2011-12-04T04:50:33Z</time>
      </trkpt>
      <trkpt lat="45.73309" lon="4.81903">
        <ele>171.73266601562</ele>
        <time>2011-12-04T04:50:38Z</time>
      </trkpt>
      <trkpt lat="45.7332" lon="4.81906">
        <ele>172.21325683594</ele>
        <time>2011-12-04T04:50:42Z</time>
      </trkpt>
      <trkpt lat="45.73331" lon="4.81911">
        <ele>172.69396972656</ele>
        <time>2011-12-04T04:50:46Z</time>
      </trkpt>
      <trkpt lat="45.73343" lon="4.81917">
        <ele>173.6552734375</ele>
        <time>2011-12-04T04:50:51Z</time>
      </trkpt>
      <trkpt lat="45.73359" lon="4.81918">
        <ele>174.61657714844</ele>
        <time>2011-12-04T04:50:56Z</time>
      </trkpt>
      <trkpt lat="45.73377" lon="4.8191">
        <ele>170.29064941406</ele>
        <time>2011-12-04T04:51:01Z</time>
      </trkpt>
      <trkpt lat="45.73384" lon="4.81907">
        <ele>166.92602539062</ele>
        <time>2011-12-04T04:51:03Z</time>
      </trkpt>
      <trkpt lat="45.73391" lon="4.81927">
        <ele>168.36804199219</ele>
        <time>2011-12-04T04:51:09Z</time>
      </trkpt>
      <trkpt lat="45.73394" lon="4.81919">
        <ele>169.81005859375</ele>
        <time>2011-12-04T04:51:16Z</time>
      </trkpt>
      <trkpt lat="45.73393" lon="4.81913">
        <ele>171.25207519531</ele>
        <time>2011-12-04T04:51:23Z</time>
      </trkpt>
      <trkpt lat="45.73389" lon="4.8191">
        <ele>171.73266601562</ele>
        <time>2011-12-04T04:51:26Z</time>
      </trkpt>
      <trkpt lat="45.73385" lon="4.81913">
        <ele>171.25207519531</ele>
        <time>2011-12-04T04:51:31Z</time>
      </trkpt>
      <trkpt lat="45.73384" lon="4.81915">
        <ele>171.25207519531</ele>
        <time>2011-12-04T04:51:32Z</time>
      </trkpt>
      <trkpt lat="45.73379" lon="4.81932">
        <ele>171.73266601562</ele>
        <time>2011-12-04T04:51:38Z</time>
      </trkpt>
      <trkpt lat="45.73373" lon="4.81956">
        <ele>172.21325683594</ele>
        <time>2011-12-04T04:51:44Z</time>
      </trkpt>
      <trkpt lat="45.73367" lon="4.81981">
        <ele>172.69396972656</ele>
        <time>2011-12-04T04:51:50Z</time>
      </trkpt>
      <trkpt lat="45.73363" lon="4.81997">
        <ele>172.21325683594</ele>
        <time>2011-12-04T04:51:54Z</time>
      </trkpt>
      <trkpt lat="45.73357" lon="4.82019">
        <ele>172.21325683594</ele>
        <time>2011-12-04T04:52:00Z</time>
      </trkpt>
      <trkpt lat="45.73351" lon="4.82043">
        <ele>172.69396972656</ele>
        <time>2011-12-04T04:52:06Z</time>
      </trkpt>
      <trkpt lat="45.73344" lon="4.82067">
        <ele>173.6552734375</ele>
        <time>2011-12-04T04:52:12Z</time>
      </trkpt>
      <trkpt lat="45.73339" lon="4.82087">
        <ele>174.13586425781</ele>
        <time>2011-12-04T04:52:17Z</time>
      </trkpt>
      <trkpt lat="45.73333" lon="4.82105">
        <ele>173.6552734375</ele>
        <time>2011-12-04T04:52:22Z</time>
      </trkpt>
      <trkpt lat="45.73327" lon="4.82128">
        <ele>173.17468261719</ele>
        <time>2011-12-04T04:52:28Z</time>
      </trkpt>
      <trkpt lat="45.73321" lon="4.8215">
        <ele>172.21325683594</ele>
        <time>2011-12-04T04:52:34Z</time>
      </trkpt>
      <trkpt lat="45.73315" lon="4.82174">
        <ele>172.21325683594</ele>
        <time>2011-12-04T04:52:40Z</time>
      </trkpt>
      <trkpt lat="45.73309" lon="4.82192">
        <ele>172.21325683594</ele>
        <time>2011-12-04T04:52:45Z</time>
      </trkpt>
      <trkpt lat="45.73303" lon="4.82218">
        <ele>171.25207519531</ele>
        <time>2011-12-04T04:52:52Z</time>
      </trkpt>
      <trkpt lat="45.73302" lon="4.82222">
        <ele>171.25207519531</ele>
        <time>2011-12-04T04:52:53Z</time>
      </trkpt>
      <trkpt lat="45.73305" lon="4.82224">
        <ele>171.25207519531</ele>
        <time>2011-12-04T04:52:57Z</time>
      </trkpt>
      <trkpt lat="45.73313" lon="4.82216">
        <ele>171.25207519531</ele>
        <time>2011-12-04T04:53:02Z</time>
      </trkpt>
      <trkpt lat="45.7332" lon="4.82207">
        <ele>169.81005859375</ele>
        <time>2011-12-04T04:53:07Z</time>
      </trkpt>
      <trkpt lat="45.73326" lon="4.82202">
        <ele>167.88732910156</ele>
        <time>2011-12-04T04:53:11Z</time>
      </trkpt>
      <trkpt lat="45.7333" lon="4.82201">
        <ele>167.40673828125</ele>
        <time>2011-12-04T04:53:13Z</time>
      </trkpt>
      <trkpt lat="45.73322" lon="4.82189">
        <ele>165.48413085938</ele>
        <time>2011-12-04T04:53:18Z</time>
      </trkpt>
      <trkpt lat="45.73319" lon="4.82188">
        <ele>164.52270507812</ele>
        <time>2011-12-04T04:53:19Z</time>
      </trkpt>
      <trkpt lat="45.7331" lon="4.82193">
        <ele>162.60009765625</ele>
        <time>2011-12-04T04:53:24Z</time>
      </trkpt>
      <trkpt lat="45.73307" lon="4.82194">
        <ele>162.60009765625</ele>
        <time>2011-12-04T04:53:25Z</time>
      </trkpt>
      <trkpt lat="45.73284" lon="4.82197">
        <ele>161.63891601562</ele>
        <time>2011-12-04T04:53:29Z</time>
      </trkpt>
      <trkpt lat="45.73267" lon="4.82179">
        <ele>166.4453125</ele>
        <time>2011-12-04T04:53:35Z</time>
      </trkpt>
      <trkpt lat="45.73252" lon="4.82166">
        <ele>164.52270507812</ele>
        <time>2011-12-04T04:53:41Z</time>
      </trkpt>
      <trkpt lat="45.73235" lon="4.82157">
        <ele>165.48413085938</ele>
        <time>2011-12-04T04:53:47Z</time>
      </trkpt>
      <trkpt lat="45.73223" lon="4.82146">
        <ele>164.52270507812</ele>
        <time>2011-12-04T04:53:52Z</time>
      </trkpt>
      <trkpt lat="45.73211" lon="4.82137">
        <ele>163.5615234375</ele>
        <time>2011-12-04T04:53:57Z</time>
      </trkpt>
      <trkpt lat="45.73197" lon="4.82133">
        <ele>166.4453125</ele>
        <time>2011-12-04T04:54:02Z</time>
      </trkpt>
      <trkpt lat="45.73183" lon="4.8213">
        <ele>165.00341796875</ele>
        <time>2011-12-04T04:54:07Z</time>
      </trkpt>
      <trkpt lat="45.73168" lon="4.82129">
        <ele>166.4453125</ele>
        <time>2011-12-04T04:54:12Z</time>
      </trkpt>
      <trkpt lat="45.73153" lon="4.82125">
        <ele>167.40673828125</ele>
        <time>2011-12-04T04:54:18Z</time>
      </trkpt>
      <trkpt lat="45.73138" lon="4.82122">
        <ele>166.92602539062</ele>
        <time>2011-12-04T04:54:23Z</time>
      </trkpt>
      <trkpt lat="45.73125" lon="4.82123">
        <ele>165.96472167969</ele>
        <time>2011-12-04T04:54:28Z</time>
      </trkpt>
      <trkpt lat="45.73108" lon="4.82126">
        <ele>165.48413085938</ele>
        <time>2011-12-04T04:54:34Z</time>
      </trkpt>
      <trkpt lat="45.73092" lon="4.82131">
        <ele>165.96472167969</ele>
        <time>2011-12-04T04:54:40Z</time>
      </trkpt>
      <trkpt lat="45.73076" lon="4.82137">
        <ele>166.4453125</ele>
        <time>2011-12-04T04:54:46Z</time>
      </trkpt>
      <trkpt lat="45.73058" lon="4.82148">
        <ele>166.4453125</ele>
        <time>2011-12-04T04:54:53Z</time>
      </trkpt>
      <trkpt lat="45.73043" lon="4.82156">
        <ele>165.96472167969</ele>
        <time>2011-12-04T04:54:59Z</time>
      </trkpt>
      <trkpt lat="45.73026" lon="4.82159">
        <ele>164.52270507812</ele>
        <time>2011-12-04T04:55:05Z</time>
      </trkpt>
      <trkpt lat="45.73013" lon="4.82161">
        <ele>163.5615234375</ele>
        <time>2011-12-04T04:55:10Z</time>
      </trkpt>
      <trkpt lat="45.72997" lon="4.82161">
        <ele>163.08081054688</ele>
        <time>2011-12-04T04:55:15Z</time>
      </trkpt>
      <trkpt lat="45.72979" lon="4.82157">
        <ele>163.08081054688</ele>
        <time>2011-12-04T04:55:21Z</time>
      </trkpt>
      <trkpt lat="45.72961" lon="4.82148">
        <ele>162.60009765625</ele>
        <time>2011-12-04T04:55:28Z</time>
      </trkpt>
      <trkpt lat="45.72946" lon="4.82136">
        <ele>164.52270507812</ele>
        <time>2011-12-04T04:55:34Z</time>
      </trkpt>
      <trkpt lat="45.72934" lon="4.82125">
        <ele>167.40673828125</ele>
        <time>2011-12-04T04:55:39Z</time>
      </trkpt>
      <trkpt lat="45.72923" lon="4.82108">
        <ele>168.84875488281</ele>
        <time>2011-12-04T04:55:45Z</time>
      </trkpt>
      <trkpt lat="45.72912" lon="4.82097">
        <ele>168.84875488281</ele>
        <time>2011-12-04T04:55:50Z</time>
      </trkpt>
      <trkpt lat="45.72899" lon="4.821">
        <ele>168.36804199219</ele>
        <time>2011-12-04T04:55:55Z</time>
      </trkpt>
      <trkpt lat="45.72884" lon="4.82098">
        <ele>168.36804199219</ele>
        <time>2011-12-04T04:56:01Z</time>
      </trkpt>
      <trkpt lat="45.72869" lon="4.82097">
        <ele>171.25207519531</ele>
        <time>2011-12-04T04:56:06Z</time>
      </trkpt>
      <trkpt lat="45.72858" lon="4.82099">
        <ele>169.81005859375</ele>
        <time>2011-12-04T04:56:10Z</time>
      </trkpt>
      <trkpt lat="45.7285" lon="4.82101">
        <ele>169.32946777344</ele>
        <time>2011-12-04T04:56:13Z</time>
      </trkpt>
      <trkpt lat="45.72833" lon="4.821">
        <ele>170.77136230469</ele>
        <time>2011-12-04T04:56:19Z</time>
      </trkpt>
      <trkpt lat="45.72821" lon="4.82097">
        <ele>171.25207519531</ele>
        <time>2011-12-04T04:56:24Z</time>
      </trkpt>
      <trkpt lat="45.72812" lon="4.82097">
        <ele>173.6552734375</ele>
        <time>2011-12-04T04:56:29Z</time>
      </trkpt>
      <trkpt lat="45.72797" lon="4.82098">
        <ele>182.30712890625</ele>
        <time>2011-12-04T04:56:36Z</time>
      </trkpt>
      <trkpt lat="45.72781" lon="4.82093">
        <ele>184.71057128906</ele>
        <time>2011-12-04T04:56:42Z</time>
      </trkpt>
      <trkpt lat="45.72766" lon="4.82092">
        <ele>183.26843261719</ele>
        <time>2011-12-04T04:56:47Z</time>
      </trkpt>
      <trkpt lat="45.72748" lon="4.82096">
        <ele>184.71057128906</ele>
        <time>2011-12-04T04:56:53Z</time>
      </trkpt>
      <trkpt lat="45.72733" lon="4.82095">
        <ele>185.19116210938</ele>
        <time>2011-12-04T04:56:58Z</time>
      </trkpt>
      <trkpt lat="45.72719" lon="4.8209">
        <ele>182.78784179688</ele>
        <time>2011-12-04T04:57:03Z</time>
      </trkpt>
      <trkpt lat="45.72709" lon="4.82089">
        <ele>180.865234375</ele>
        <time>2011-12-04T04:57:07Z</time>
      </trkpt>
      <trkpt lat="45.72695" lon="4.82088">
        <ele>178.94262695312</ele>
        <time>2011-12-04T04:57:12Z</time>
      </trkpt>
      <trkpt lat="45.72684" lon="4.82086">
        <ele>178.4619140625</ele>
        <time>2011-12-04T04:57:16Z</time>
      </trkpt>
      <trkpt lat="45.7267" lon="4.82086">
        <ele>175.09729003906</ele>
        <time>2011-12-04T04:57:21Z</time>
      </trkpt>
      <trkpt lat="45.72652" lon="4.82088">
        <ele>173.6552734375</ele>
        <time>2011-12-04T04:57:27Z</time>
      </trkpt>
      <trkpt lat="45.72636" lon="4.82088">
        <ele>171.25207519531</ele>
        <time>2011-12-04T04:57:33Z</time>
      </trkpt>
      <trkpt lat="45.7262" lon="4.82091">
        <ele>171.73266601562</ele>
        <time>2011-12-04T04:57:38Z</time>
      </trkpt>
      <trkpt lat="45.72603" lon="4.82093">
        <ele>172.21325683594</ele>
        <time>2011-12-04T04:57:43Z</time>
      </trkpt>
      <trkpt lat="45.72583" lon="4.82098">
        <ele>174.13586425781</ele>
        <time>2011-12-04T04:57:49Z</time>
      </trkpt>
      <trkpt lat="45.72567" lon="4.82101">
        <ele>172.21325683594</ele>
        <time>2011-12-04T04:57:54Z</time>
      </trkpt>
      <trkpt lat="45.7255" lon="4.8211">
        <ele>171.25207519531</ele>
        <time>2011-12-04T04:58:00Z</time>
      </trkpt>
      <trkpt lat="45.72534" lon="4.82121">
        <ele>171.73266601562</ele>
        <time>2011-12-04T04:58:05Z</time>
      </trkpt>
      <trkpt lat="45.72522" lon="4.82136">
        <ele>172.21325683594</ele>
        <time>2011-12-04T04:58:10Z</time>
      </trkpt>
      <trkpt lat="45.72504" lon="4.82159">
        <ele>170.77136230469</ele>
        <time>2011-12-04T04:58:18Z</time>
      </trkpt>
      <trkpt lat="45.72495" lon="4.8217">
        <ele>170.29064941406</ele>
        <time>2011-12-04T04:58:22Z</time>
      </trkpt>
      <trkpt lat="45.72475" lon="4.82193">
        <ele>169.81005859375</ele>
        <time>2011-12-04T04:58:30Z</time>
      </trkpt>
      <trkpt lat="45.72458" lon="4.82217">
        <ele>169.81005859375</ele>
        <time>2011-12-04T04:58:37Z</time>
      </trkpt>
      <trkpt lat="45.7244" lon="4.82238">
        <ele>169.32946777344</ele>
        <time>2011-12-04T04:58:44Z</time>
      </trkpt>
      <trkpt lat="45.72429" lon="4.82253">
        <ele>168.84875488281</ele>
        <time>2011-12-04T04:58:49Z</time>
      </trkpt>
      <trkpt lat="45.72414" lon="4.82272">
        <ele>168.84875488281</ele>
        <time>2011-12-04T04:58:55Z</time>
      </trkpt>
      <trkpt lat="45.72402" lon="4.82286">
        <ele>167.88732910156</ele>
        <time>2011-12-04T04:59:00Z</time>
      </trkpt>
      <trkpt lat="45.72389" lon="4.82301">
        <ele>166.92602539062</ele>
        <time>2011-12-04T04:59:05Z</time>
      </trkpt>
      <trkpt lat="45.72377" lon="4.82315">
        <ele>166.4453125</ele>
        <time>2011-12-04T04:59:10Z</time>
      </trkpt>
      <trkpt lat="45.72366" lon="4.82329">
        <ele>165.96472167969</ele>
        <time>2011-12-04T04:59:15Z</time>
      </trkpt>
      <trkpt lat="45.72352" lon="4.82346">
        <ele>165.48413085938</ele>
        <time>2011-12-04T04:59:21Z</time>
      </trkpt>
      <trkpt lat="45.7234" lon="4.8236">
        <ele>165.48413085938</ele>
        <time>2011-12-04T04:59:26Z</time>
      </trkpt>
      <trkpt lat="45.72337" lon="4.82375">
        <ele>165.48413085938</ele>
        <time>2011-12-04T04:59:30Z</time>
      </trkpt>
      <trkpt lat="45.72343" lon="4.82403">
        <ele>165.96472167969</ele>
        <time>2011-12-04T04:59:37Z</time>
      </trkpt>
      <trkpt lat="45.72348" lon="4.82423">
        <ele>165.96472167969</ele>
        <time>2011-12-04T04:59:42Z</time>
      </trkpt>
      <trkpt lat="45.72353" lon="4.82447">
        <ele>166.4453125</ele>
        <time>2011-12-04T04:59:48Z</time>
      </trkpt>
      <trkpt lat="45.7236" lon="4.82466">
        <ele>166.4453125</ele>
        <time>2011-12-04T04:59:53Z</time>
      </trkpt>
      <trkpt lat="45.72367" lon="4.82488">
        <ele>165.96472167969</ele>
        <time>2011-12-04T04:59:59Z</time>
      </trkpt>
      <trkpt lat="45.72369" lon="4.82506">
        <ele>166.92602539062</ele>
        <time>2011-12-04T05:00:04Z</time>
      </trkpt>
      <trkpt lat="45.72377" lon="4.82527">
        <ele>167.40673828125</ele>
        <time>2011-12-04T05:00:09Z</time>
      </trkpt>
      <trkpt lat="45.72379" lon="4.82531">
        <ele>167.40673828125</ele>
        <time>2011-12-04T05:00:10Z</time>
      </trkpt>
      <trkpt lat="45.72385" lon="4.82553">
        <ele>167.88732910156</ele>
        <time>2011-12-04T05:00:15Z</time>
      </trkpt>
      <trkpt lat="45.72394" lon="4.82588">
        <ele>165.00341796875</ele>
        <time>2011-12-04T05:00:23Z</time>
      </trkpt>
      <trkpt lat="45.72401" lon="4.82615">
        <ele>165.00341796875</ele>
        <time>2011-12-04T05:00:29Z</time>
      </trkpt>
      <trkpt lat="45.72407" lon="4.82636">
        <ele>165.00341796875</ele>
        <time>2011-12-04T05:00:34Z</time>
      </trkpt>
      <trkpt lat="45.72413" lon="4.82657">
        <ele>165.96472167969</ele>
        <time>2011-12-04T05:00:39Z</time>
      </trkpt>
      <trkpt lat="45.72419" lon="4.82679">
        <ele>165.48413085938</ele>
        <time>2011-12-04T05:00:44Z</time>
      </trkpt>
      <trkpt lat="45.72424" lon="4.82698">
        <ele>164.52270507812</ele>
        <time>2011-12-04T05:00:48Z</time>
      </trkpt>
      <trkpt lat="45.72431" lon="4.8273">
        <ele>164.04211425781</ele>
        <time>2011-12-04T05:00:55Z</time>
      </trkpt>
      <trkpt lat="45.72434" lon="4.82757">
        <ele>164.04211425781</ele>
        <time>2011-12-04T05:01:01Z</time>
      </trkpt>
      <trkpt lat="45.72425" lon="4.82775">
        <ele>165.00341796875</ele>
        <time>2011-12-04T05:01:06Z</time>
      </trkpt>
      <trkpt lat="45.7242" lon="4.82789">
        <ele>165.48413085938</ele>
        <time>2011-12-04T05:01:10Z</time>
      </trkpt>
      <trkpt lat="45.72421" lon="4.82808">
        <ele>168.36804199219</ele>
        <time>2011-12-04T05:01:15Z</time>
      </trkpt>
      <trkpt lat="45.72421" lon="4.82818">
        <ele>170.29064941406</ele>
        <time>2011-12-04T05:01:20Z</time>
      </trkpt>
      <trkpt lat="45.72419" lon="4.82819">
        <ele>171.73266601562</ele>
        <time>2011-12-04T05:01:22Z</time>
      </trkpt>
      <trkpt lat="45.72417" lon="4.82823">
        <ele>177.02001953125</ele>
        <time>2011-12-04T05:01:38Z</time>
      </trkpt>
      <trkpt lat="45.7242" lon="4.8283">
        <ele>176.05859375</ele>
        <time>2011-12-04T05:01:48Z</time>
      </trkpt>
      <trkpt lat="45.72421" lon="4.82835">
        <ele>172.21325683594</ele>
        <time>2011-12-04T05:01:56Z</time>
      </trkpt>
      <trkpt lat="45.7242" lon="4.82837">
        <ele>173.6552734375</ele>
        <time>2011-12-04T05:01:58Z</time>
      </trkpt>
      <trkpt lat="45.72417" lon="4.82831">
        <ele>168.84875488281</ele>
        <time>2011-12-04T05:02:05Z</time>
      </trkpt>
      <trkpt lat="45.72416" lon="4.82829">
        <ele>167.40673828125</ele>
        <time>2011-12-04T05:02:07Z</time>
      </trkpt>
    </trkseg>
  </trk>
</gpx>